<?xml version="1.0" encoding="UTF-8" standalone="no" ?>
<gpx xmlns="http://www.topografix.com/GPX/1/1" xmlns:xsi="http://www.w3.org/2001/XMLSchema-instance" xsi:schemaLocation="http://www.topografix.com/GPX/1/1 http://www.topografix.com/GPX/1/1/gpx.xsd" version="1.1" creator="VisuGPX - https://www.visugpx.com">
  <metadata>
    <name>Rando en groupe à St Jeannet le 19-04-2012</name>
    <desc><![CDATA[Avec le Groupe 4 de St Jeannet au Baou de la Gaude]]></desc>
  </metadata>
  <trk>
    <name><![CDATA[19_04_2012 8_46 St Jeannet corrigé]]></name>
    <trkseg>
      <trkpt lat="43.74964" lon="7.14499">
        <ele>458</ele>
        <time>2012-04-20T06:46:59.000Z</time>
      </trkpt>
      <trkpt lat="43.74968" lon="7.14501">
        <ele>462</ele>
        <time>2012-04-20T06:47:31.000Z</time>
      </trkpt>
      <trkpt lat="43.74973" lon="7.14499">
        <ele>448</ele>
        <time>2012-04-20T06:48:02.000Z</time>
      </trkpt>
      <trkpt lat="43.74968" lon="7.14495">
        <ele>461</ele>
        <time>2012-04-20T06:48:30.000Z</time>
      </trkpt>
      <trkpt lat="43.74963" lon="7.14495">
        <ele>462</ele>
        <time>2012-04-20T06:48:32.000Z</time>
      </trkpt>
      <trkpt lat="43.74957" lon="7.14496">
        <ele>464</ele>
        <time>2012-04-20T06:48:35.000Z</time>
      </trkpt>
      <trkpt lat="43.74952" lon="7.14497">
        <ele>459</ele>
        <time>2012-04-20T06:48:48.000Z</time>
      </trkpt>
      <trkpt lat="43.74952" lon="7.14497">
        <ele>459</ele>
        <time>2012-04-20T06:48:48.000Z</time>
      </trkpt>
      <trkpt lat="43.74952" lon="7.14497">
        <ele>459</ele>
        <time>2012-04-20T06:48:50.000Z</time>
      </trkpt>
      <trkpt lat="43.74953" lon="7.1449">
        <ele>459</ele>
        <time>2012-04-20T06:48:59.000Z</time>
      </trkpt>
      <trkpt lat="43.74953" lon="7.1449">
        <ele>459</ele>
        <time>2012-04-20T06:48:59.000Z</time>
      </trkpt>
      <trkpt lat="43.74953" lon="7.1449">
        <ele>459</ele>
        <time>2012-04-20T06:49:11.000Z</time>
      </trkpt>
      <trkpt lat="43.7495" lon="7.14484">
        <ele>477</ele>
        <time>2012-04-20T06:49:39.000Z</time>
      </trkpt>
      <trkpt lat="43.7495" lon="7.14484">
        <ele>477</ele>
        <time>2012-04-20T06:49:39.000Z</time>
      </trkpt>
      <trkpt lat="43.7495" lon="7.14484">
        <ele>477</ele>
        <time>2012-04-20T06:49:45.000Z</time>
      </trkpt>
      <trkpt lat="43.74954" lon="7.14489">
        <ele>454</ele>
        <time>2012-04-20T06:50:17.000Z</time>
      </trkpt>
      <trkpt lat="43.74954" lon="7.14489">
        <ele>454</ele>
        <time>2012-04-20T06:50:17.000Z</time>
      </trkpt>
      <trkpt lat="43.74954" lon="7.14489">
        <ele>454</ele>
        <time>2012-04-20T06:50:35.000Z</time>
      </trkpt>
      <trkpt lat="43.74959" lon="7.14486">
        <ele>462</ele>
        <time>2012-04-20T06:52:05.000Z</time>
      </trkpt>
      <trkpt lat="43.74963" lon="7.14481">
        <ele>462</ele>
        <time>2012-04-20T06:52:11.000Z</time>
      </trkpt>
      <trkpt lat="43.74967" lon="7.14476">
        <ele>459</ele>
        <time>2012-04-20T06:52:15.000Z</time>
      </trkpt>
      <trkpt lat="43.74968" lon="7.1447">
        <ele>458</ele>
        <time>2012-04-20T06:52:19.000Z</time>
      </trkpt>
      <trkpt lat="43.74972" lon="7.14464">
        <ele>465</ele>
        <time>2012-04-20T06:52:24.000Z</time>
      </trkpt>
      <trkpt lat="43.7497" lon="7.14457">
        <ele>467</ele>
        <time>2012-04-20T06:52:30.000Z</time>
      </trkpt>
      <trkpt lat="43.74968" lon="7.14451">
        <ele>461</ele>
        <time>2012-04-20T06:52:37.000Z</time>
      </trkpt>
      <trkpt lat="43.74972" lon="7.14455">
        <ele>462</ele>
        <time>2012-04-20T06:52:42.000Z</time>
      </trkpt>
      <trkpt lat="43.74966" lon="7.14452">
        <ele>464</ele>
        <time>2012-04-20T06:54:15.000Z</time>
      </trkpt>
      <trkpt lat="43.74968" lon="7.14458">
        <ele>464</ele>
        <time>2012-04-20T06:54:22.000Z</time>
      </trkpt>
      <trkpt lat="43.74974" lon="7.14459">
        <ele>467</ele>
        <time>2012-04-20T06:54:25.000Z</time>
      </trkpt>
      <trkpt lat="43.74979" lon="7.14459">
        <ele>460</ele>
        <time>2012-04-20T06:54:30.000Z</time>
      </trkpt>
      <trkpt lat="43.74978" lon="7.14466">
        <ele>462</ele>
        <time>2012-04-20T06:54:35.000Z</time>
      </trkpt>
      <trkpt lat="43.74974" lon="7.14471">
        <ele>467</ele>
        <time>2012-04-20T06:54:38.000Z</time>
      </trkpt>
      <trkpt lat="43.74971" lon="7.14478">
        <ele>473</ele>
        <time>2012-04-20T06:54:41.000Z</time>
      </trkpt>
      <trkpt lat="43.74967" lon="7.14485">
        <ele>474</ele>
        <time>2012-04-20T06:54:44.000Z</time>
      </trkpt>
      <trkpt lat="43.74965" lon="7.14491">
        <ele>478</ele>
        <time>2012-04-20T06:54:47.000Z</time>
      </trkpt>
      <trkpt lat="43.74963" lon="7.14497">
        <ele>475</ele>
        <time>2012-04-20T06:54:50.000Z</time>
      </trkpt>
      <trkpt lat="43.74959" lon="7.14501">
        <ele>471</ele>
        <time>2012-04-20T06:54:53.000Z</time>
      </trkpt>
      <trkpt lat="43.74954" lon="7.14503">
        <ele>470</ele>
        <time>2012-04-20T06:54:57.000Z</time>
      </trkpt>
      <trkpt lat="43.7495" lon="7.14501">
        <ele>465</ele>
        <time>2012-04-20T06:55:01.000Z</time>
      </trkpt>
      <trkpt lat="43.74949" lon="7.14495">
        <ele>460</ele>
        <time>2012-04-20T06:55:06.000Z</time>
      </trkpt>
      <trkpt lat="43.74949" lon="7.14495">
        <ele>460</ele>
        <time>2012-04-20T06:55:06.000Z</time>
      </trkpt>
      <trkpt lat="43.74949" lon="7.14495">
        <ele>460</ele>
        <time>2012-04-20T06:55:32.000Z</time>
      </trkpt>
      <trkpt lat="43.74951" lon="7.14487">
        <ele>450</ele>
        <time>2012-04-20T06:57:42.000Z</time>
      </trkpt>
      <trkpt lat="43.74951" lon="7.14487">
        <ele>450</ele>
        <time>2012-04-20T06:57:42.000Z</time>
      </trkpt>
      <trkpt lat="43.74951" lon="7.14487">
        <ele>450</ele>
        <time>2012-04-20T06:57:44.000Z</time>
      </trkpt>
      <trkpt lat="43.74955" lon="7.1448">
        <ele>450</ele>
        <time>2012-04-20T06:57:52.000Z</time>
      </trkpt>
      <trkpt lat="43.74957" lon="7.14474">
        <ele>451</ele>
        <time>2012-04-20T06:57:57.000Z</time>
      </trkpt>
      <trkpt lat="43.7496" lon="7.14467">
        <ele>458</ele>
        <time>2012-04-20T06:58:01.000Z</time>
      </trkpt>
      <trkpt lat="43.74963" lon="7.14462">
        <ele>458</ele>
        <time>2012-04-20T06:58:09.000Z</time>
      </trkpt>
      <trkpt lat="43.74967" lon="7.14456">
        <ele>467</ele>
        <time>2012-04-20T06:58:38.000Z</time>
      </trkpt>
      <trkpt lat="43.74968" lon="7.14464">
        <ele>463</ele>
        <time>2012-04-20T06:58:55.000Z</time>
      </trkpt>
      <trkpt lat="43.74967" lon="7.14471">
        <ele>464</ele>
        <time>2012-04-20T06:58:56.000Z</time>
      </trkpt>
      <trkpt lat="43.74966" lon="7.14478">
        <ele>461</ele>
        <time>2012-04-20T06:58:59.000Z</time>
      </trkpt>
      <trkpt lat="43.74962" lon="7.14482">
        <ele>455</ele>
        <time>2012-04-20T06:59:17.000Z</time>
      </trkpt>
      <trkpt lat="43.74962" lon="7.14488">
        <ele>462</ele>
        <time>2012-04-20T07:00:07.000Z</time>
      </trkpt>
      <trkpt lat="43.74956" lon="7.14491">
        <ele>466</ele>
        <time>2012-04-20T07:02:08.000Z</time>
      </trkpt>
      <trkpt lat="43.74959" lon="7.14485">
        <ele>459</ele>
        <time>2012-04-20T07:03:08.000Z</time>
      </trkpt>
      <trkpt lat="43.74962" lon="7.1448">
        <ele>455</ele>
        <time>2012-04-20T07:03:15.000Z</time>
      </trkpt>
      <trkpt lat="43.74966" lon="7.14476">
        <ele>458</ele>
        <time>2012-04-20T07:03:20.000Z</time>
      </trkpt>
      <trkpt lat="43.74969" lon="7.14471">
        <ele>470</ele>
        <time>2012-04-20T07:03:24.000Z</time>
      </trkpt>
      <trkpt lat="43.74972" lon="7.14464">
        <ele>473</ele>
        <time>2012-04-20T07:03:28.000Z</time>
      </trkpt>
      <trkpt lat="43.74974" lon="7.14458">
        <ele>467</ele>
        <time>2012-04-20T07:03:33.000Z</time>
      </trkpt>
      <trkpt lat="43.74975" lon="7.14452">
        <ele>461</ele>
        <time>2012-04-20T07:03:43.000Z</time>
      </trkpt>
      <trkpt lat="43.74977" lon="7.14446">
        <ele>460</ele>
        <time>2012-04-20T07:04:01.000Z</time>
      </trkpt>
      <trkpt lat="43.74976" lon="7.1444">
        <ele>460</ele>
        <time>2012-04-20T07:04:14.000Z</time>
      </trkpt>
      <trkpt lat="43.74979" lon="7.14435">
        <ele>464</ele>
        <time>2012-04-20T07:04:21.000Z</time>
      </trkpt>
      <trkpt lat="43.74981" lon="7.14429">
        <ele>466</ele>
        <time>2012-04-20T07:04:32.000Z</time>
      </trkpt>
      <trkpt lat="43.74986" lon="7.14429">
        <ele>475</ele>
        <time>2012-04-20T07:04:40.000Z</time>
      </trkpt>
      <trkpt lat="43.74989" lon="7.14424">
        <ele>479</ele>
        <time>2012-04-20T07:04:47.000Z</time>
      </trkpt>
      <trkpt lat="43.74992" lon="7.14419">
        <ele>472</ele>
        <time>2012-04-20T07:05:11.000Z</time>
      </trkpt>
      <trkpt lat="43.74988" lon="7.14414">
        <ele>485</ele>
        <time>2012-04-20T07:06:03.000Z</time>
      </trkpt>
      <trkpt lat="43.74983" lon="7.14411">
        <ele>482</ele>
        <time>2012-04-20T07:06:08.000Z</time>
      </trkpt>
      <trkpt lat="43.74978" lon="7.14408">
        <ele>479</ele>
        <time>2012-04-20T07:06:13.000Z</time>
      </trkpt>
      <trkpt lat="43.74974" lon="7.14404">
        <ele>477</ele>
        <time>2012-04-20T07:06:18.000Z</time>
      </trkpt>
      <trkpt lat="43.7497" lon="7.144">
        <ele>480</ele>
        <time>2012-04-20T07:06:23.000Z</time>
      </trkpt>
      <trkpt lat="43.74965" lon="7.14396">
        <ele>482</ele>
        <time>2012-04-20T07:06:28.000Z</time>
      </trkpt>
      <trkpt lat="43.74961" lon="7.14394">
        <ele>485</ele>
        <time>2012-04-20T07:06:33.000Z</time>
      </trkpt>
      <trkpt lat="43.74955" lon="7.14391">
        <ele>482</ele>
        <time>2012-04-20T07:06:39.000Z</time>
      </trkpt>
      <trkpt lat="43.7495" lon="7.1439">
        <ele>483</ele>
        <time>2012-04-20T07:06:43.000Z</time>
      </trkpt>
      <trkpt lat="43.74945" lon="7.14389">
        <ele>482</ele>
        <time>2012-04-20T07:06:48.000Z</time>
      </trkpt>
      <trkpt lat="43.7494" lon="7.14386">
        <ele>481</ele>
        <time>2012-04-20T07:06:54.000Z</time>
      </trkpt>
      <trkpt lat="43.74937" lon="7.1438">
        <ele>483</ele>
        <time>2012-04-20T07:06:59.000Z</time>
      </trkpt>
      <trkpt lat="43.74933" lon="7.14377">
        <ele>483</ele>
        <time>2012-04-20T07:07:03.000Z</time>
      </trkpt>
      <trkpt lat="43.74928" lon="7.14374">
        <ele>482</ele>
        <time>2012-04-20T07:07:08.000Z</time>
      </trkpt>
      <trkpt lat="43.74923" lon="7.14373">
        <ele>489</ele>
        <time>2012-04-20T07:07:12.000Z</time>
      </trkpt>
      <trkpt lat="43.74918" lon="7.14372">
        <ele>491</ele>
        <time>2012-04-20T07:07:16.000Z</time>
      </trkpt>
      <trkpt lat="43.74913" lon="7.1437">
        <ele>487</ele>
        <time>2012-04-20T07:07:21.000Z</time>
      </trkpt>
      <trkpt lat="43.74908" lon="7.14371">
        <ele>489</ele>
        <time>2012-04-20T07:07:26.000Z</time>
      </trkpt>
      <trkpt lat="43.74903" lon="7.14368">
        <ele>490</ele>
        <time>2012-04-20T07:07:31.000Z</time>
      </trkpt>
      <trkpt lat="43.74899" lon="7.14364">
        <ele>486</ele>
        <time>2012-04-20T07:07:37.000Z</time>
      </trkpt>
      <trkpt lat="43.74895" lon="7.14362">
        <ele>486</ele>
        <time>2012-04-20T07:07:41.000Z</time>
      </trkpt>
      <trkpt lat="43.7489" lon="7.14363">
        <ele>490</ele>
        <time>2012-04-20T07:07:44.000Z</time>
      </trkpt>
      <trkpt lat="43.74885" lon="7.14363">
        <ele>482</ele>
        <time>2012-04-20T07:07:59.000Z</time>
      </trkpt>
      <trkpt lat="43.74879" lon="7.14362">
        <ele>482</ele>
        <time>2012-04-20T07:08:04.000Z</time>
      </trkpt>
      <trkpt lat="43.74874" lon="7.14362">
        <ele>485</ele>
        <time>2012-04-20T07:08:09.000Z</time>
      </trkpt>
      <trkpt lat="43.74869" lon="7.14361">
        <ele>482</ele>
        <time>2012-04-20T07:08:14.000Z</time>
      </trkpt>
      <trkpt lat="43.74864" lon="7.1436">
        <ele>489</ele>
        <time>2012-04-20T07:08:26.000Z</time>
      </trkpt>
      <trkpt lat="43.74858" lon="7.14359">
        <ele>491</ele>
        <time>2012-04-20T07:08:30.000Z</time>
      </trkpt>
      <trkpt lat="43.74854" lon="7.14358">
        <ele>487</ele>
        <time>2012-04-20T07:08:33.000Z</time>
      </trkpt>
      <trkpt lat="43.74849" lon="7.14358">
        <ele>488</ele>
        <time>2012-04-20T07:08:37.000Z</time>
      </trkpt>
      <trkpt lat="43.74845" lon="7.14359">
        <ele>488</ele>
        <time>2012-04-20T07:08:42.000Z</time>
      </trkpt>
      <trkpt lat="43.7484" lon="7.14359">
        <ele>487</ele>
        <time>2012-04-20T07:08:47.000Z</time>
      </trkpt>
      <trkpt lat="43.74836" lon="7.14356">
        <ele>485</ele>
        <time>2012-04-20T07:08:52.000Z</time>
      </trkpt>
      <trkpt lat="43.74835" lon="7.1435">
        <ele>491</ele>
        <time>2012-04-20T07:09:36.000Z</time>
      </trkpt>
      <trkpt lat="43.7483" lon="7.1435">
        <ele>489</ele>
        <time>2012-04-20T07:09:42.000Z</time>
      </trkpt>
      <trkpt lat="43.7483" lon="7.14344">
        <ele>483</ele>
        <time>2012-04-20T07:09:48.000Z</time>
      </trkpt>
      <trkpt lat="43.74833" lon="7.1434">
        <ele>480</ele>
        <time>2012-04-20T07:09:53.000Z</time>
      </trkpt>
      <trkpt lat="43.74838" lon="7.14336">
        <ele>489</ele>
        <time>2012-04-20T07:09:58.000Z</time>
      </trkpt>
      <trkpt lat="43.74842" lon="7.14333">
        <ele>489</ele>
        <time>2012-04-20T07:10:05.000Z</time>
      </trkpt>
      <trkpt lat="43.74842" lon="7.14326">
        <ele>487</ele>
        <time>2012-04-20T07:10:10.000Z</time>
      </trkpt>
      <trkpt lat="43.74838" lon="7.14321">
        <ele>488</ele>
        <time>2012-04-20T07:10:17.000Z</time>
      </trkpt>
      <trkpt lat="43.74834" lon="7.14316">
        <ele>475</ele>
        <time>2012-04-20T07:10:22.000Z</time>
      </trkpt>
      <trkpt lat="43.74829" lon="7.14316">
        <ele>474</ele>
        <time>2012-04-20T07:10:29.000Z</time>
      </trkpt>
      <trkpt lat="43.74832" lon="7.14311">
        <ele>478</ele>
        <time>2012-04-20T07:10:39.000Z</time>
      </trkpt>
      <trkpt lat="43.74836" lon="7.14308">
        <ele>480</ele>
        <time>2012-04-20T07:10:45.000Z</time>
      </trkpt>
      <trkpt lat="43.74839" lon="7.14302">
        <ele>492</ele>
        <time>2012-04-20T07:10:58.000Z</time>
      </trkpt>
      <trkpt lat="43.74837" lon="7.14296">
        <ele>495</ele>
        <time>2012-04-20T07:11:03.000Z</time>
      </trkpt>
      <trkpt lat="43.74835" lon="7.1429">
        <ele>492</ele>
        <time>2012-04-20T07:11:09.000Z</time>
      </trkpt>
      <trkpt lat="43.74831" lon="7.14286">
        <ele>489</ele>
        <time>2012-04-20T07:11:14.000Z</time>
      </trkpt>
      <trkpt lat="43.74834" lon="7.1428">
        <ele>490</ele>
        <time>2012-04-20T07:11:25.000Z</time>
      </trkpt>
      <trkpt lat="43.74835" lon="7.14273">
        <ele>488</ele>
        <time>2012-04-20T07:11:30.000Z</time>
      </trkpt>
      <trkpt lat="43.74838" lon="7.14266">
        <ele>489</ele>
        <time>2012-04-20T07:11:33.000Z</time>
      </trkpt>
      <trkpt lat="43.74839" lon="7.1426">
        <ele>493</ele>
        <time>2012-04-20T07:12:05.000Z</time>
      </trkpt>
      <trkpt lat="43.74839" lon="7.14253">
        <ele>499</ele>
        <time>2012-04-20T07:12:44.000Z</time>
      </trkpt>
      <trkpt lat="43.74842" lon="7.14248">
        <ele>496</ele>
        <time>2012-04-20T07:12:50.000Z</time>
      </trkpt>
      <trkpt lat="43.74843" lon="7.14241">
        <ele>489</ele>
        <time>2012-04-20T07:12:58.000Z</time>
      </trkpt>
      <trkpt lat="43.74843" lon="7.14234">
        <ele>491</ele>
        <time>2012-04-20T07:13:05.000Z</time>
      </trkpt>
      <trkpt lat="43.74847" lon="7.14231">
        <ele>492</ele>
        <time>2012-04-20T07:13:11.000Z</time>
      </trkpt>
      <trkpt lat="43.7485" lon="7.14226">
        <ele>497</ele>
        <time>2012-04-20T07:13:46.000Z</time>
      </trkpt>
      <trkpt lat="43.74856" lon="7.14225">
        <ele>500</ele>
        <time>2012-04-20T07:13:50.000Z</time>
      </trkpt>
      <trkpt lat="43.74861" lon="7.14225">
        <ele>498</ele>
        <time>2012-04-20T07:13:57.000Z</time>
      </trkpt>
      <trkpt lat="43.74866" lon="7.14225">
        <ele>499</ele>
        <time>2012-04-20T07:14:05.000Z</time>
      </trkpt>
      <trkpt lat="43.74871" lon="7.14226">
        <ele>507</ele>
        <time>2012-04-20T07:14:16.000Z</time>
      </trkpt>
      <trkpt lat="43.74875" lon="7.14224">
        <ele>507</ele>
        <time>2012-04-20T07:14:27.000Z</time>
      </trkpt>
      <trkpt lat="43.7488" lon="7.14225">
        <ele>509</ele>
        <time>2012-04-20T07:14:35.000Z</time>
      </trkpt>
      <trkpt lat="43.74884" lon="7.1422">
        <ele>508</ele>
        <time>2012-04-20T07:14:41.000Z</time>
      </trkpt>
      <trkpt lat="43.74889" lon="7.1422">
        <ele>519</ele>
        <time>2012-04-20T07:14:50.000Z</time>
      </trkpt>
      <trkpt lat="43.74893" lon="7.14219">
        <ele>515</ele>
        <time>2012-04-20T07:15:00.000Z</time>
      </trkpt>
      <trkpt lat="43.74892" lon="7.14212">
        <ele>520</ele>
        <time>2012-04-20T07:15:10.000Z</time>
      </trkpt>
      <trkpt lat="43.74895" lon="7.14207">
        <ele>513</ele>
        <time>2012-04-20T07:16:29.000Z</time>
      </trkpt>
      <trkpt lat="43.74899" lon="7.14203">
        <ele>511</ele>
        <time>2012-04-20T07:16:36.000Z</time>
      </trkpt>
      <trkpt lat="43.74903" lon="7.14198">
        <ele>513</ele>
        <time>2012-04-20T07:16:42.000Z</time>
      </trkpt>
      <trkpt lat="43.74907" lon="7.14201">
        <ele>527</ele>
        <time>2012-04-20T07:17:35.000Z</time>
      </trkpt>
      <trkpt lat="43.74908" lon="7.14208">
        <ele>518</ele>
        <time>2012-04-20T07:17:39.000Z</time>
      </trkpt>
      <trkpt lat="43.74913" lon="7.1421">
        <ele>513</ele>
        <time>2012-04-20T07:17:51.000Z</time>
      </trkpt>
      <trkpt lat="43.74919" lon="7.1421">
        <ele>516</ele>
        <time>2012-04-20T07:17:59.000Z</time>
      </trkpt>
      <trkpt lat="43.74921" lon="7.14204">
        <ele>521</ele>
        <time>2012-04-20T07:18:07.000Z</time>
      </trkpt>
      <trkpt lat="43.74918" lon="7.14199">
        <ele>524</ele>
        <time>2012-04-20T07:18:14.000Z</time>
      </trkpt>
      <trkpt lat="43.74916" lon="7.14192">
        <ele>526</ele>
        <time>2012-04-20T07:18:21.000Z</time>
      </trkpt>
      <trkpt lat="43.74919" lon="7.14188">
        <ele>528</ele>
        <time>2012-04-20T07:18:34.000Z</time>
      </trkpt>
      <trkpt lat="43.74923" lon="7.14183">
        <ele>523</ele>
        <time>2012-04-20T07:18:43.000Z</time>
      </trkpt>
      <trkpt lat="43.74928" lon="7.14182">
        <ele>530</ele>
        <time>2012-04-20T07:19:02.000Z</time>
      </trkpt>
      <trkpt lat="43.74931" lon="7.14177">
        <ele>530</ele>
        <time>2012-04-20T07:19:34.000Z</time>
      </trkpt>
      <trkpt lat="43.74938" lon="7.14175">
        <ele>524</ele>
        <time>2012-04-20T07:19:56.000Z</time>
      </trkpt>
      <trkpt lat="43.74938" lon="7.14175">
        <ele>524</ele>
        <time>2012-04-20T07:19:56.000Z</time>
      </trkpt>
      <trkpt lat="43.74938" lon="7.14175">
        <ele>524</ele>
        <time>2012-04-20T07:19:58.000Z</time>
      </trkpt>
      <trkpt lat="43.74938" lon="7.14168">
        <ele>531</ele>
        <time>2012-04-20T07:21:05.000Z</time>
      </trkpt>
      <trkpt lat="43.74938" lon="7.14168">
        <ele>531</ele>
        <time>2012-04-20T07:21:05.000Z</time>
      </trkpt>
      <trkpt lat="43.74938" lon="7.14168">
        <ele>531</ele>
        <time>2012-04-20T07:21:08.000Z</time>
      </trkpt>
      <trkpt lat="43.74941" lon="7.14164">
        <ele>527</ele>
        <time>2012-04-20T07:21:58.000Z</time>
      </trkpt>
      <trkpt lat="43.74944" lon="7.14159">
        <ele>536</ele>
        <time>2012-04-20T07:22:08.000Z</time>
      </trkpt>
      <trkpt lat="43.74948" lon="7.14155">
        <ele>535</ele>
        <time>2012-04-20T07:22:16.000Z</time>
      </trkpt>
      <trkpt lat="43.74953" lon="7.14152">
        <ele>536</ele>
        <time>2012-04-20T07:22:23.000Z</time>
      </trkpt>
      <trkpt lat="43.74957" lon="7.14152">
        <ele>533</ele>
        <time>2012-04-20T07:22:33.000Z</time>
      </trkpt>
      <trkpt lat="43.74962" lon="7.14154">
        <ele>536</ele>
        <time>2012-04-20T07:22:44.000Z</time>
      </trkpt>
      <trkpt lat="43.74966" lon="7.14152">
        <ele>535</ele>
        <time>2012-04-20T07:22:49.000Z</time>
      </trkpt>
      <trkpt lat="43.7497" lon="7.14147">
        <ele>546</ele>
        <time>2012-04-20T07:23:07.000Z</time>
      </trkpt>
      <trkpt lat="43.74975" lon="7.14146">
        <ele>540</ele>
        <time>2012-04-20T07:23:12.000Z</time>
      </trkpt>
      <trkpt lat="43.7498" lon="7.14146">
        <ele>551</ele>
        <time>2012-04-20T07:23:18.000Z</time>
      </trkpt>
      <trkpt lat="43.74984" lon="7.14149">
        <ele>544</ele>
        <time>2012-04-20T07:23:30.000Z</time>
      </trkpt>
      <trkpt lat="43.74989" lon="7.14149">
        <ele>542</ele>
        <time>2012-04-20T07:23:36.000Z</time>
      </trkpt>
      <trkpt lat="43.74994" lon="7.1415">
        <ele>556</ele>
        <time>2012-04-20T07:24:18.000Z</time>
      </trkpt>
      <trkpt lat="43.74999" lon="7.14149">
        <ele>551</ele>
        <time>2012-04-20T07:24:24.000Z</time>
      </trkpt>
      <trkpt lat="43.75004" lon="7.14149">
        <ele>549</ele>
        <time>2012-04-20T07:24:30.000Z</time>
      </trkpt>
      <trkpt lat="43.75009" lon="7.1415">
        <ele>550</ele>
        <time>2012-04-20T07:24:36.000Z</time>
      </trkpt>
      <trkpt lat="43.75012" lon="7.14155">
        <ele>547</ele>
        <time>2012-04-20T07:24:42.000Z</time>
      </trkpt>
      <trkpt lat="43.75017" lon="7.14158">
        <ele>552</ele>
        <time>2012-04-20T07:24:50.000Z</time>
      </trkpt>
      <trkpt lat="43.7502" lon="7.14162">
        <ele>558</ele>
        <time>2012-04-20T07:24:59.000Z</time>
      </trkpt>
      <trkpt lat="43.75025" lon="7.14164">
        <ele>564</ele>
        <time>2012-04-20T07:25:05.000Z</time>
      </trkpt>
      <trkpt lat="43.7503" lon="7.14167">
        <ele>552</ele>
        <time>2012-04-20T07:25:25.000Z</time>
      </trkpt>
      <trkpt lat="43.75034" lon="7.14168">
        <ele>554</ele>
        <time>2012-04-20T07:25:31.000Z</time>
      </trkpt>
      <trkpt lat="43.75039" lon="7.14167">
        <ele>553</ele>
        <time>2012-04-20T07:25:36.000Z</time>
      </trkpt>
      <trkpt lat="43.75043" lon="7.14164">
        <ele>555</ele>
        <time>2012-04-20T07:25:42.000Z</time>
      </trkpt>
      <trkpt lat="43.75044" lon="7.1417">
        <ele>572</ele>
        <time>2012-04-20T07:28:35.000Z</time>
      </trkpt>
      <trkpt lat="43.75049" lon="7.14168">
        <ele>562</ele>
        <time>2012-04-20T07:31:40.000Z</time>
      </trkpt>
      <trkpt lat="43.75054" lon="7.14167">
        <ele>563</ele>
        <time>2012-04-20T07:31:45.000Z</time>
      </trkpt>
      <trkpt lat="43.75059" lon="7.14167">
        <ele>565</ele>
        <time>2012-04-20T07:31:52.000Z</time>
      </trkpt>
      <trkpt lat="43.75063" lon="7.14168">
        <ele>564</ele>
        <time>2012-04-20T07:31:59.000Z</time>
      </trkpt>
      <trkpt lat="43.75068" lon="7.14171">
        <ele>567</ele>
        <time>2012-04-20T07:32:10.000Z</time>
      </trkpt>
      <trkpt lat="43.75071" lon="7.14175">
        <ele>574</ele>
        <time>2012-04-20T07:32:17.000Z</time>
      </trkpt>
      <trkpt lat="43.75076" lon="7.14177">
        <ele>572</ele>
        <time>2012-04-20T07:32:23.000Z</time>
      </trkpt>
      <trkpt lat="43.7508" lon="7.14175">
        <ele>580</ele>
        <time>2012-04-20T07:32:29.000Z</time>
      </trkpt>
      <trkpt lat="43.75084" lon="7.14179">
        <ele>578</ele>
        <time>2012-04-20T07:33:38.000Z</time>
      </trkpt>
      <trkpt lat="43.75089" lon="7.1418">
        <ele>573</ele>
        <time>2012-04-20T07:33:45.000Z</time>
      </trkpt>
      <trkpt lat="43.75093" lon="7.14184">
        <ele>576</ele>
        <time>2012-04-20T07:33:53.000Z</time>
      </trkpt>
      <trkpt lat="43.75097" lon="7.14187">
        <ele>578</ele>
        <time>2012-04-20T07:34:03.000Z</time>
      </trkpt>
      <trkpt lat="43.75101" lon="7.14185">
        <ele>569</ele>
        <time>2012-04-20T07:34:11.000Z</time>
      </trkpt>
      <trkpt lat="43.75106" lon="7.14184">
        <ele>577</ele>
        <time>2012-04-20T07:34:17.000Z</time>
      </trkpt>
      <trkpt lat="43.75111" lon="7.14184">
        <ele>570</ele>
        <time>2012-04-20T07:34:22.000Z</time>
      </trkpt>
      <trkpt lat="43.75115" lon="7.14184">
        <ele>582</ele>
        <time>2012-04-20T07:34:29.000Z</time>
      </trkpt>
      <trkpt lat="43.75119" lon="7.14187">
        <ele>575</ele>
        <time>2012-04-20T07:34:43.000Z</time>
      </trkpt>
      <trkpt lat="43.75124" lon="7.1419">
        <ele>575</ele>
        <time>2012-04-20T07:34:50.000Z</time>
      </trkpt>
      <trkpt lat="43.75128" lon="7.14193">
        <ele>601</ele>
        <time>2012-04-20T07:35:01.000Z</time>
      </trkpt>
      <trkpt lat="43.75128" lon="7.14193">
        <ele>601</ele>
        <time>2012-04-20T07:35:01.000Z</time>
      </trkpt>
      <trkpt lat="43.75128" lon="7.14193">
        <ele>601</ele>
        <time>2012-04-20T07:35:08.000Z</time>
      </trkpt>
      <trkpt lat="43.75133" lon="7.14193">
        <ele>583</ele>
        <time>2012-04-20T07:35:19.000Z</time>
      </trkpt>
      <trkpt lat="43.75135" lon="7.14199">
        <ele>586</ele>
        <time>2012-04-20T07:35:39.000Z</time>
      </trkpt>
      <trkpt lat="43.75139" lon="7.14202">
        <ele>588</ele>
        <time>2012-04-20T07:35:46.000Z</time>
      </trkpt>
      <trkpt lat="43.75143" lon="7.14206">
        <ele>584</ele>
        <time>2012-04-20T07:35:51.000Z</time>
      </trkpt>
      <trkpt lat="43.75147" lon="7.1421">
        <ele>584</ele>
        <time>2012-04-20T07:35:56.000Z</time>
      </trkpt>
      <trkpt lat="43.75152" lon="7.14212">
        <ele>583</ele>
        <time>2012-04-20T07:36:01.000Z</time>
      </trkpt>
      <trkpt lat="43.75157" lon="7.14213">
        <ele>580</ele>
        <time>2012-04-20T07:36:07.000Z</time>
      </trkpt>
      <trkpt lat="43.75162" lon="7.14214">
        <ele>577</ele>
        <time>2012-04-20T07:36:14.000Z</time>
      </trkpt>
      <trkpt lat="43.75166" lon="7.14214">
        <ele>584</ele>
        <time>2012-04-20T07:36:19.000Z</time>
      </trkpt>
      <trkpt lat="43.75171" lon="7.14215">
        <ele>580</ele>
        <time>2012-04-20T07:36:24.000Z</time>
      </trkpt>
      <trkpt lat="43.75176" lon="7.14215">
        <ele>586</ele>
        <time>2012-04-20T07:36:30.000Z</time>
      </trkpt>
      <trkpt lat="43.75181" lon="7.14217">
        <ele>585</ele>
        <time>2012-04-20T07:36:38.000Z</time>
      </trkpt>
      <trkpt lat="43.75185" lon="7.14221">
        <ele>586</ele>
        <time>2012-04-20T07:36:43.000Z</time>
      </trkpt>
      <trkpt lat="43.75189" lon="7.14225">
        <ele>587</ele>
        <time>2012-04-20T07:36:48.000Z</time>
      </trkpt>
      <trkpt lat="43.75192" lon="7.1423">
        <ele>593</ele>
        <time>2012-04-20T07:36:54.000Z</time>
      </trkpt>
      <trkpt lat="43.75196" lon="7.14234">
        <ele>592</ele>
        <time>2012-04-20T07:37:00.000Z</time>
      </trkpt>
      <trkpt lat="43.75199" lon="7.14239">
        <ele>588</ele>
        <time>2012-04-20T07:37:07.000Z</time>
      </trkpt>
      <trkpt lat="43.75203" lon="7.14242">
        <ele>586</ele>
        <time>2012-04-20T07:37:13.000Z</time>
      </trkpt>
      <trkpt lat="43.75207" lon="7.14246">
        <ele>585</ele>
        <time>2012-04-20T07:37:20.000Z</time>
      </trkpt>
      <trkpt lat="43.75212" lon="7.14247">
        <ele>594</ele>
        <time>2012-04-20T07:37:25.000Z</time>
      </trkpt>
      <trkpt lat="43.75216" lon="7.14249">
        <ele>590</ele>
        <time>2012-04-20T07:37:31.000Z</time>
      </trkpt>
      <trkpt lat="43.75221" lon="7.14248">
        <ele>589</ele>
        <time>2012-04-20T07:37:39.000Z</time>
      </trkpt>
      <trkpt lat="43.75225" lon="7.1425">
        <ele>589</ele>
        <time>2012-04-20T07:37:45.000Z</time>
      </trkpt>
      <trkpt lat="43.7523" lon="7.14252">
        <ele>590</ele>
        <time>2012-04-20T07:37:52.000Z</time>
      </trkpt>
      <trkpt lat="43.75235" lon="7.14253">
        <ele>588</ele>
        <time>2012-04-20T07:37:59.000Z</time>
      </trkpt>
      <trkpt lat="43.7524" lon="7.14252">
        <ele>587</ele>
        <time>2012-04-20T07:38:07.000Z</time>
      </trkpt>
      <trkpt lat="43.75244" lon="7.14252">
        <ele>593</ele>
        <time>2012-04-20T07:38:14.000Z</time>
      </trkpt>
      <trkpt lat="43.75249" lon="7.14253">
        <ele>593</ele>
        <time>2012-04-20T07:38:24.000Z</time>
      </trkpt>
      <trkpt lat="43.75253" lon="7.14254">
        <ele>598</ele>
        <time>2012-04-20T07:38:30.000Z</time>
      </trkpt>
      <trkpt lat="43.75258" lon="7.14254">
        <ele>598</ele>
        <time>2012-04-20T07:38:37.000Z</time>
      </trkpt>
      <trkpt lat="43.75263" lon="7.14254">
        <ele>595</ele>
        <time>2012-04-20T07:38:47.000Z</time>
      </trkpt>
      <trkpt lat="43.75267" lon="7.14256">
        <ele>591</ele>
        <time>2012-04-20T07:39:01.000Z</time>
      </trkpt>
      <trkpt lat="43.75272" lon="7.14258">
        <ele>588</ele>
        <time>2012-04-20T07:39:08.000Z</time>
      </trkpt>
      <trkpt lat="43.75277" lon="7.14256">
        <ele>597</ele>
        <time>2012-04-20T07:39:15.000Z</time>
      </trkpt>
      <trkpt lat="43.75281" lon="7.14257">
        <ele>605</ele>
        <time>2012-04-20T07:39:21.000Z</time>
      </trkpt>
      <trkpt lat="43.75286" lon="7.14258">
        <ele>597</ele>
        <time>2012-04-20T07:39:26.000Z</time>
      </trkpt>
      <trkpt lat="43.7529" lon="7.1426">
        <ele>595</ele>
        <time>2012-04-20T07:39:32.000Z</time>
      </trkpt>
      <trkpt lat="43.75295" lon="7.14261">
        <ele>592</ele>
        <time>2012-04-20T07:39:38.000Z</time>
      </trkpt>
      <trkpt lat="43.753" lon="7.14264">
        <ele>604</ele>
        <time>2012-04-20T07:39:45.000Z</time>
      </trkpt>
      <trkpt lat="43.75302" lon="7.1427">
        <ele>604</ele>
        <time>2012-04-20T07:39:52.000Z</time>
      </trkpt>
      <trkpt lat="43.75306" lon="7.14274">
        <ele>602</ele>
        <time>2012-04-20T07:39:59.000Z</time>
      </trkpt>
      <trkpt lat="43.75309" lon="7.14279">
        <ele>603</ele>
        <time>2012-04-20T07:40:06.000Z</time>
      </trkpt>
      <trkpt lat="43.75314" lon="7.14282">
        <ele>599</ele>
        <time>2012-04-20T07:40:13.000Z</time>
      </trkpt>
      <trkpt lat="43.75318" lon="7.14283">
        <ele>602</ele>
        <time>2012-04-20T07:40:19.000Z</time>
      </trkpt>
      <trkpt lat="43.75323" lon="7.14285">
        <ele>592</ele>
        <time>2012-04-20T07:40:33.000Z</time>
      </trkpt>
      <trkpt lat="43.75328" lon="7.14286">
        <ele>597</ele>
        <time>2012-04-20T07:40:41.000Z</time>
      </trkpt>
      <trkpt lat="43.75333" lon="7.14286">
        <ele>600</ele>
        <time>2012-04-20T07:40:48.000Z</time>
      </trkpt>
      <trkpt lat="43.75338" lon="7.14285">
        <ele>606</ele>
        <time>2012-04-20T07:40:56.000Z</time>
      </trkpt>
      <trkpt lat="43.75341" lon="7.14289">
        <ele>605</ele>
        <time>2012-04-20T07:41:02.000Z</time>
      </trkpt>
      <trkpt lat="43.75346" lon="7.14292">
        <ele>605</ele>
        <time>2012-04-20T07:41:08.000Z</time>
      </trkpt>
      <trkpt lat="43.7535" lon="7.14294">
        <ele>598</ele>
        <time>2012-04-20T07:41:18.000Z</time>
      </trkpt>
      <trkpt lat="43.75355" lon="7.14294">
        <ele>609</ele>
        <time>2012-04-20T07:41:25.000Z</time>
      </trkpt>
      <trkpt lat="43.75359" lon="7.14297">
        <ele>603</ele>
        <time>2012-04-20T07:41:31.000Z</time>
      </trkpt>
      <trkpt lat="43.75363" lon="7.14299">
        <ele>605</ele>
        <time>2012-04-20T07:41:39.000Z</time>
      </trkpt>
      <trkpt lat="43.75368" lon="7.143">
        <ele>610</ele>
        <time>2012-04-20T07:41:46.000Z</time>
      </trkpt>
      <trkpt lat="43.75373" lon="7.143">
        <ele>609</ele>
        <time>2012-04-20T07:41:53.000Z</time>
      </trkpt>
      <trkpt lat="43.75378" lon="7.143">
        <ele>606</ele>
        <time>2012-04-20T07:42:04.000Z</time>
      </trkpt>
      <trkpt lat="43.75383" lon="7.143">
        <ele>605</ele>
        <time>2012-04-20T07:42:17.000Z</time>
      </trkpt>
      <trkpt lat="43.75381" lon="7.14294">
        <ele>605</ele>
        <time>2012-04-20T07:42:31.000Z</time>
      </trkpt>
      <trkpt lat="43.75377" lon="7.14291">
        <ele>609</ele>
        <time>2012-04-20T07:42:40.000Z</time>
      </trkpt>
      <trkpt lat="43.75374" lon="7.14286">
        <ele>618</ele>
        <time>2012-04-20T07:44:22.000Z</time>
      </trkpt>
      <trkpt lat="43.7537" lon="7.14282">
        <ele>608</ele>
        <time>2012-04-20T07:45:16.000Z</time>
      </trkpt>
      <trkpt lat="43.75366" lon="7.14278">
        <ele>616</ele>
        <time>2012-04-20T07:45:23.000Z</time>
      </trkpt>
      <trkpt lat="43.75362" lon="7.14272">
        <ele>609</ele>
        <time>2012-04-20T07:45:29.000Z</time>
      </trkpt>
      <trkpt lat="43.75358" lon="7.14267">
        <ele>613</ele>
        <time>2012-04-20T07:45:36.000Z</time>
      </trkpt>
      <trkpt lat="43.75355" lon="7.14263">
        <ele>617</ele>
        <time>2012-04-20T07:45:51.000Z</time>
      </trkpt>
      <trkpt lat="43.75359" lon="7.1426">
        <ele>616</ele>
        <time>2012-04-20T07:46:27.000Z</time>
      </trkpt>
      <trkpt lat="43.75363" lon="7.14258">
        <ele>612</ele>
        <time>2012-04-20T07:46:35.000Z</time>
      </trkpt>
      <trkpt lat="43.75368" lon="7.1426">
        <ele>615</ele>
        <time>2012-04-20T07:46:45.000Z</time>
      </trkpt>
      <trkpt lat="43.75373" lon="7.1426">
        <ele>615</ele>
        <time>2012-04-20T07:46:51.000Z</time>
      </trkpt>
      <trkpt lat="43.75377" lon="7.14262">
        <ele>616</ele>
        <time>2012-04-20T07:47:04.000Z</time>
      </trkpt>
      <trkpt lat="43.75382" lon="7.14263">
        <ele>622</ele>
        <time>2012-04-20T07:47:12.000Z</time>
      </trkpt>
      <trkpt lat="43.75386" lon="7.14264">
        <ele>619</ele>
        <time>2012-04-20T07:47:21.000Z</time>
      </trkpt>
      <trkpt lat="43.75391" lon="7.14266">
        <ele>624</ele>
        <time>2012-04-20T07:47:30.000Z</time>
      </trkpt>
      <trkpt lat="43.75395" lon="7.14265">
        <ele>623</ele>
        <time>2012-04-20T07:47:41.000Z</time>
      </trkpt>
      <trkpt lat="43.75398" lon="7.1427">
        <ele>624</ele>
        <time>2012-04-20T07:47:51.000Z</time>
      </trkpt>
      <trkpt lat="43.75403" lon="7.14273">
        <ele>631</ele>
        <time>2012-04-20T07:47:59.000Z</time>
      </trkpt>
      <trkpt lat="43.75407" lon="7.14275">
        <ele>629</ele>
        <time>2012-04-20T07:48:09.000Z</time>
      </trkpt>
      <trkpt lat="43.7541" lon="7.14279">
        <ele>625</ele>
        <time>2012-04-20T07:48:15.000Z</time>
      </trkpt>
      <trkpt lat="43.75415" lon="7.14283">
        <ele>626</ele>
        <time>2012-04-20T07:48:20.000Z</time>
      </trkpt>
      <trkpt lat="43.75419" lon="7.14285">
        <ele>627</ele>
        <time>2012-04-20T07:48:27.000Z</time>
      </trkpt>
      <trkpt lat="43.75424" lon="7.14288">
        <ele>622</ele>
        <time>2012-04-20T07:48:38.000Z</time>
      </trkpt>
      <trkpt lat="43.75429" lon="7.14289">
        <ele>620</ele>
        <time>2012-04-20T07:48:46.000Z</time>
      </trkpt>
      <trkpt lat="43.75432" lon="7.14293">
        <ele>631</ele>
        <time>2012-04-20T07:48:52.000Z</time>
      </trkpt>
      <trkpt lat="43.75437" lon="7.14295">
        <ele>629</ele>
        <time>2012-04-20T07:48:59.000Z</time>
      </trkpt>
      <trkpt lat="43.75442" lon="7.14298">
        <ele>627</ele>
        <time>2012-04-20T07:49:26.000Z</time>
      </trkpt>
      <trkpt lat="43.75446" lon="7.14302">
        <ele>630</ele>
        <time>2012-04-20T07:49:30.000Z</time>
      </trkpt>
      <trkpt lat="43.75451" lon="7.14305">
        <ele>633</ele>
        <time>2012-04-20T07:52:26.000Z</time>
      </trkpt>
      <trkpt lat="43.75456" lon="7.14307">
        <ele>630</ele>
        <time>2012-04-20T07:52:32.000Z</time>
      </trkpt>
      <trkpt lat="43.75459" lon="7.14311">
        <ele>636</ele>
        <time>2012-04-20T07:52:39.000Z</time>
      </trkpt>
      <trkpt lat="43.75462" lon="7.14317">
        <ele>636</ele>
        <time>2012-04-20T07:52:47.000Z</time>
      </trkpt>
      <trkpt lat="43.75467" lon="7.14318">
        <ele>621</ele>
        <time>2012-04-20T07:52:56.000Z</time>
      </trkpt>
      <trkpt lat="43.75472" lon="7.14317">
        <ele>626</ele>
        <time>2012-04-20T07:53:02.000Z</time>
      </trkpt>
      <trkpt lat="43.75476" lon="7.14317">
        <ele>637</ele>
        <time>2012-04-20T07:53:08.000Z</time>
      </trkpt>
      <trkpt lat="43.75481" lon="7.14316">
        <ele>638</ele>
        <time>2012-04-20T07:53:15.000Z</time>
      </trkpt>
      <trkpt lat="43.75485" lon="7.14319">
        <ele>639</ele>
        <time>2012-04-20T07:53:22.000Z</time>
      </trkpt>
      <trkpt lat="43.75489" lon="7.14321">
        <ele>637</ele>
        <time>2012-04-20T07:53:27.000Z</time>
      </trkpt>
      <trkpt lat="43.75494" lon="7.14323">
        <ele>639</ele>
        <time>2012-04-20T07:53:36.000Z</time>
      </trkpt>
      <trkpt lat="43.75498" lon="7.14326">
        <ele>642</ele>
        <time>2012-04-20T07:53:41.000Z</time>
      </trkpt>
      <trkpt lat="43.75503" lon="7.14325">
        <ele>636</ele>
        <time>2012-04-20T07:53:47.000Z</time>
      </trkpt>
      <trkpt lat="43.75508" lon="7.14328">
        <ele>640</ele>
        <time>2012-04-20T07:53:55.000Z</time>
      </trkpt>
      <trkpt lat="43.75512" lon="7.14331">
        <ele>633</ele>
        <time>2012-04-20T07:54:03.000Z</time>
      </trkpt>
      <trkpt lat="43.75517" lon="7.14332">
        <ele>645</ele>
        <time>2012-04-20T07:54:11.000Z</time>
      </trkpt>
      <trkpt lat="43.75522" lon="7.14333">
        <ele>642</ele>
        <time>2012-04-20T07:54:19.000Z</time>
      </trkpt>
      <trkpt lat="43.75527" lon="7.14332">
        <ele>649</ele>
        <time>2012-04-20T07:54:28.000Z</time>
      </trkpt>
      <trkpt lat="43.75531" lon="7.14331">
        <ele>640</ele>
        <time>2012-04-20T07:54:33.000Z</time>
      </trkpt>
      <trkpt lat="43.75536" lon="7.1433">
        <ele>645</ele>
        <time>2012-04-20T07:54:42.000Z</time>
      </trkpt>
      <trkpt lat="43.7554" lon="7.14329">
        <ele>650</ele>
        <time>2012-04-20T07:54:52.000Z</time>
      </trkpt>
      <trkpt lat="43.75545" lon="7.14328">
        <ele>652</ele>
        <time>2012-04-20T07:55:03.000Z</time>
      </trkpt>
      <trkpt lat="43.7555" lon="7.14327">
        <ele>652</ele>
        <time>2012-04-20T07:55:10.000Z</time>
      </trkpt>
      <trkpt lat="43.75554" lon="7.14326">
        <ele>651</ele>
        <time>2012-04-20T07:55:17.000Z</time>
      </trkpt>
      <trkpt lat="43.75559" lon="7.14328">
        <ele>649</ele>
        <time>2012-04-20T07:55:24.000Z</time>
      </trkpt>
      <trkpt lat="43.75564" lon="7.14329">
        <ele>652</ele>
        <time>2012-04-20T07:55:31.000Z</time>
      </trkpt>
      <trkpt lat="43.75568" lon="7.14329">
        <ele>648</ele>
        <time>2012-04-20T07:55:38.000Z</time>
      </trkpt>
      <trkpt lat="43.75573" lon="7.1433">
        <ele>652</ele>
        <time>2012-04-20T07:55:48.000Z</time>
      </trkpt>
      <trkpt lat="43.75578" lon="7.14329">
        <ele>654</ele>
        <time>2012-04-20T07:56:01.000Z</time>
      </trkpt>
      <trkpt lat="43.75582" lon="7.14328">
        <ele>653</ele>
        <time>2012-04-20T07:56:07.000Z</time>
      </trkpt>
      <trkpt lat="43.75587" lon="7.14328">
        <ele>654</ele>
        <time>2012-04-20T07:56:17.000Z</time>
      </trkpt>
      <trkpt lat="43.75592" lon="7.1433">
        <ele>652</ele>
        <time>2012-04-20T07:56:24.000Z</time>
      </trkpt>
      <trkpt lat="43.75596" lon="7.14329">
        <ele>662</ele>
        <time>2012-04-20T07:56:32.000Z</time>
      </trkpt>
      <trkpt lat="43.75601" lon="7.14328">
        <ele>666</ele>
        <time>2012-04-20T07:56:42.000Z</time>
      </trkpt>
      <trkpt lat="43.75605" lon="7.14326">
        <ele>659</ele>
        <time>2012-04-20T07:56:50.000Z</time>
      </trkpt>
      <trkpt lat="43.7561" lon="7.14325">
        <ele>657</ele>
        <time>2012-04-20T07:56:58.000Z</time>
      </trkpt>
      <trkpt lat="43.75615" lon="7.14323">
        <ele>665</ele>
        <time>2012-04-20T07:57:17.000Z</time>
      </trkpt>
      <trkpt lat="43.7562" lon="7.14322">
        <ele>662</ele>
        <time>2012-04-20T07:57:36.000Z</time>
      </trkpt>
      <trkpt lat="43.75624" lon="7.14322">
        <ele>661</ele>
        <time>2012-04-20T07:57:42.000Z</time>
      </trkpt>
      <trkpt lat="43.75629" lon="7.14321">
        <ele>666</ele>
        <time>2012-04-20T07:57:53.000Z</time>
      </trkpt>
      <trkpt lat="43.75633" lon="7.14318">
        <ele>660</ele>
        <time>2012-04-20T07:58:00.000Z</time>
      </trkpt>
      <trkpt lat="43.75638" lon="7.14317">
        <ele>661</ele>
        <time>2012-04-20T07:58:08.000Z</time>
      </trkpt>
      <trkpt lat="43.75642" lon="7.14317">
        <ele>664</ele>
        <time>2012-04-20T07:58:17.000Z</time>
      </trkpt>
      <trkpt lat="43.75647" lon="7.14316">
        <ele>665</ele>
        <time>2012-04-20T07:58:30.000Z</time>
      </trkpt>
      <trkpt lat="43.75652" lon="7.14314">
        <ele>666</ele>
        <time>2012-04-20T07:58:37.000Z</time>
      </trkpt>
      <trkpt lat="43.75657" lon="7.14314">
        <ele>665</ele>
        <time>2012-04-20T07:58:44.000Z</time>
      </trkpt>
      <trkpt lat="43.75661" lon="7.14315">
        <ele>672</ele>
        <time>2012-04-20T07:58:51.000Z</time>
      </trkpt>
      <trkpt lat="43.75666" lon="7.14314">
        <ele>668</ele>
        <time>2012-04-20T07:58:59.000Z</time>
      </trkpt>
      <trkpt lat="43.75671" lon="7.14314">
        <ele>668</ele>
        <time>2012-04-20T07:59:08.000Z</time>
      </trkpt>
      <trkpt lat="43.75676" lon="7.14314">
        <ele>668</ele>
        <time>2012-04-20T07:59:18.000Z</time>
      </trkpt>
      <trkpt lat="43.7568" lon="7.14314">
        <ele>670</ele>
        <time>2012-04-20T07:59:59.000Z</time>
      </trkpt>
      <trkpt lat="43.75685" lon="7.14314">
        <ele>669</ele>
        <time>2012-04-20T08:00:07.000Z</time>
      </trkpt>
      <trkpt lat="43.7569" lon="7.14312">
        <ele>670</ele>
        <time>2012-04-20T08:00:16.000Z</time>
      </trkpt>
      <trkpt lat="43.75695" lon="7.14311">
        <ele>673</ele>
        <time>2012-04-20T08:00:22.000Z</time>
      </trkpt>
      <trkpt lat="43.75699" lon="7.14311">
        <ele>674</ele>
        <time>2012-04-20T08:00:29.000Z</time>
      </trkpt>
      <trkpt lat="43.75704" lon="7.14312">
        <ele>679</ele>
        <time>2012-04-20T08:00:38.000Z</time>
      </trkpt>
      <trkpt lat="43.75709" lon="7.14313">
        <ele>676</ele>
        <time>2012-04-20T08:00:48.000Z</time>
      </trkpt>
      <trkpt lat="43.75714" lon="7.14316">
        <ele>680</ele>
        <time>2012-04-20T08:00:56.000Z</time>
      </trkpt>
      <trkpt lat="43.75718" lon="7.14318">
        <ele>676</ele>
        <time>2012-04-20T08:01:04.000Z</time>
      </trkpt>
      <trkpt lat="43.75723" lon="7.1432">
        <ele>673</ele>
        <time>2012-04-20T08:01:10.000Z</time>
      </trkpt>
      <trkpt lat="43.75728" lon="7.14322">
        <ele>679</ele>
        <time>2012-04-20T08:01:17.000Z</time>
      </trkpt>
      <trkpt lat="43.75732" lon="7.14323">
        <ele>683</ele>
        <time>2012-04-20T08:01:29.000Z</time>
      </trkpt>
      <trkpt lat="43.75738" lon="7.14323">
        <ele>686</ele>
        <time>2012-04-20T08:01:54.000Z</time>
      </trkpt>
      <trkpt lat="43.75742" lon="7.14324">
        <ele>687</ele>
        <time>2012-04-20T08:02:03.000Z</time>
      </trkpt>
      <trkpt lat="43.75746" lon="7.14328">
        <ele>689</ele>
        <time>2012-04-20T08:03:38.000Z</time>
      </trkpt>
      <trkpt lat="43.75751" lon="7.14328">
        <ele>687</ele>
        <time>2012-04-20T08:03:49.000Z</time>
      </trkpt>
      <trkpt lat="43.75755" lon="7.14327">
        <ele>680</ele>
        <time>2012-04-20T08:04:13.000Z</time>
      </trkpt>
      <trkpt lat="43.7576" lon="7.14326">
        <ele>686</ele>
        <time>2012-04-20T08:04:38.000Z</time>
      </trkpt>
      <trkpt lat="43.75764" lon="7.14327">
        <ele>683</ele>
        <time>2012-04-20T08:04:44.000Z</time>
      </trkpt>
      <trkpt lat="43.75769" lon="7.14328">
        <ele>684</ele>
        <time>2012-04-20T08:04:50.000Z</time>
      </trkpt>
      <trkpt lat="43.75774" lon="7.14327">
        <ele>682</ele>
        <time>2012-04-20T08:04:54.000Z</time>
      </trkpt>
      <trkpt lat="43.75779" lon="7.14326">
        <ele>687</ele>
        <time>2012-04-20T08:04:59.000Z</time>
      </trkpt>
      <trkpt lat="43.75784" lon="7.14325">
        <ele>687</ele>
        <time>2012-04-20T08:05:10.000Z</time>
      </trkpt>
      <trkpt lat="43.75789" lon="7.14323">
        <ele>682</ele>
        <time>2012-04-20T08:05:17.000Z</time>
      </trkpt>
      <trkpt lat="43.75793" lon="7.1432">
        <ele>692</ele>
        <time>2012-04-20T08:06:29.000Z</time>
      </trkpt>
      <trkpt lat="43.75797" lon="7.14317">
        <ele>694</ele>
        <time>2012-04-20T08:06:35.000Z</time>
      </trkpt>
      <trkpt lat="43.75801" lon="7.14314">
        <ele>689</ele>
        <time>2012-04-20T08:06:41.000Z</time>
      </trkpt>
      <trkpt lat="43.75805" lon="7.14311">
        <ele>695</ele>
        <time>2012-04-20T08:06:47.000Z</time>
      </trkpt>
      <trkpt lat="43.7581" lon="7.1431">
        <ele>693</ele>
        <time>2012-04-20T08:06:52.000Z</time>
      </trkpt>
      <trkpt lat="43.75815" lon="7.14308">
        <ele>692</ele>
        <time>2012-04-20T08:06:57.000Z</time>
      </trkpt>
      <trkpt lat="43.7582" lon="7.14308">
        <ele>687</ele>
        <time>2012-04-20T08:07:02.000Z</time>
      </trkpt>
      <trkpt lat="43.75824" lon="7.14307">
        <ele>689</ele>
        <time>2012-04-20T08:07:08.000Z</time>
      </trkpt>
      <trkpt lat="43.75828" lon="7.14305">
        <ele>691</ele>
        <time>2012-04-20T08:07:13.000Z</time>
      </trkpt>
      <trkpt lat="43.75834" lon="7.14303">
        <ele>685</ele>
        <time>2012-04-20T08:07:18.000Z</time>
      </trkpt>
      <trkpt lat="43.75838" lon="7.14302">
        <ele>684</ele>
        <time>2012-04-20T08:07:25.000Z</time>
      </trkpt>
      <trkpt lat="43.75843" lon="7.14299">
        <ele>681</ele>
        <time>2012-04-20T08:07:30.000Z</time>
      </trkpt>
      <trkpt lat="43.75847" lon="7.14297">
        <ele>691</ele>
        <time>2012-04-20T08:07:37.000Z</time>
      </trkpt>
      <trkpt lat="43.75852" lon="7.14297">
        <ele>693</ele>
        <time>2012-04-20T08:08:12.000Z</time>
      </trkpt>
      <trkpt lat="43.75856" lon="7.14298">
        <ele>688</ele>
        <time>2012-04-20T08:08:26.000Z</time>
      </trkpt>
      <trkpt lat="43.75861" lon="7.14296">
        <ele>695</ele>
        <time>2012-04-20T08:08:30.000Z</time>
      </trkpt>
      <trkpt lat="43.75866" lon="7.14295">
        <ele>691</ele>
        <time>2012-04-20T08:08:34.000Z</time>
      </trkpt>
      <trkpt lat="43.75872" lon="7.14293">
        <ele>692</ele>
        <time>2012-04-20T08:08:39.000Z</time>
      </trkpt>
      <trkpt lat="43.75876" lon="7.14291">
        <ele>698</ele>
        <time>2012-04-20T08:08:44.000Z</time>
      </trkpt>
      <trkpt lat="43.7588" lon="7.14291">
        <ele>692</ele>
        <time>2012-04-20T08:08:54.000Z</time>
      </trkpt>
      <trkpt lat="43.75885" lon="7.14291">
        <ele>694</ele>
        <time>2012-04-20T08:09:01.000Z</time>
      </trkpt>
      <trkpt lat="43.75888" lon="7.14296">
        <ele>686</ele>
        <time>2012-04-20T08:09:07.000Z</time>
      </trkpt>
      <trkpt lat="43.75891" lon="7.14302">
        <ele>698</ele>
        <time>2012-04-20T08:09:14.000Z</time>
      </trkpt>
      <trkpt lat="43.75895" lon="7.14298">
        <ele>698</ele>
        <time>2012-04-20T08:09:21.000Z</time>
      </trkpt>
      <trkpt lat="43.759" lon="7.14298">
        <ele>700</ele>
        <time>2012-04-20T08:09:27.000Z</time>
      </trkpt>
      <trkpt lat="43.75906" lon="7.14297">
        <ele>698</ele>
        <time>2012-04-20T08:09:31.000Z</time>
      </trkpt>
      <trkpt lat="43.7591" lon="7.14298">
        <ele>702</ele>
        <time>2012-04-20T08:09:35.000Z</time>
      </trkpt>
      <trkpt lat="43.75915" lon="7.14298">
        <ele>699</ele>
        <time>2012-04-20T08:09:42.000Z</time>
      </trkpt>
      <trkpt lat="43.7592" lon="7.143">
        <ele>704</ele>
        <time>2012-04-20T08:09:49.000Z</time>
      </trkpt>
      <trkpt lat="43.75924" lon="7.14303">
        <ele>703</ele>
        <time>2012-04-20T08:13:20.000Z</time>
      </trkpt>
      <trkpt lat="43.75929" lon="7.14303">
        <ele>702</ele>
        <time>2012-04-20T08:13:27.000Z</time>
      </trkpt>
      <trkpt lat="43.75934" lon="7.14304">
        <ele>705</ele>
        <time>2012-04-20T08:13:36.000Z</time>
      </trkpt>
      <trkpt lat="43.75938" lon="7.14305">
        <ele>702</ele>
        <time>2012-04-20T08:13:44.000Z</time>
      </trkpt>
      <trkpt lat="43.75944" lon="7.14307">
        <ele>707</ele>
        <time>2012-04-20T08:13:50.000Z</time>
      </trkpt>
      <trkpt lat="43.75948" lon="7.14308">
        <ele>704</ele>
        <time>2012-04-20T08:13:56.000Z</time>
      </trkpt>
      <trkpt lat="43.75953" lon="7.14308">
        <ele>705</ele>
        <time>2012-04-20T08:14:02.000Z</time>
      </trkpt>
      <trkpt lat="43.75958" lon="7.14306">
        <ele>705</ele>
        <time>2012-04-20T08:14:09.000Z</time>
      </trkpt>
      <trkpt lat="43.75962" lon="7.14305">
        <ele>707</ele>
        <time>2012-04-20T08:14:16.000Z</time>
      </trkpt>
      <trkpt lat="43.75967" lon="7.14306">
        <ele>705</ele>
        <time>2012-04-20T08:14:23.000Z</time>
      </trkpt>
      <trkpt lat="43.75972" lon="7.14307">
        <ele>706</ele>
        <time>2012-04-20T08:14:31.000Z</time>
      </trkpt>
      <trkpt lat="43.75976" lon="7.14307">
        <ele>704</ele>
        <time>2012-04-20T08:14:38.000Z</time>
      </trkpt>
      <trkpt lat="43.75981" lon="7.14306">
        <ele>708</ele>
        <time>2012-04-20T08:14:45.000Z</time>
      </trkpt>
      <trkpt lat="43.75986" lon="7.14309">
        <ele>705</ele>
        <time>2012-04-20T08:15:27.000Z</time>
      </trkpt>
      <trkpt lat="43.75991" lon="7.14312">
        <ele>715</ele>
        <time>2012-04-20T08:15:30.000Z</time>
      </trkpt>
      <trkpt lat="43.75997" lon="7.14313">
        <ele>713</ele>
        <time>2012-04-20T08:15:35.000Z</time>
      </trkpt>
      <trkpt lat="43.76002" lon="7.14312">
        <ele>709</ele>
        <time>2012-04-20T08:15:42.000Z</time>
      </trkpt>
      <trkpt lat="43.76006" lon="7.14309">
        <ele>716</ele>
        <time>2012-04-20T08:15:47.000Z</time>
      </trkpt>
      <trkpt lat="43.7601" lon="7.14308">
        <ele>712</ele>
        <time>2012-04-20T08:15:52.000Z</time>
      </trkpt>
      <trkpt lat="43.76016" lon="7.14309">
        <ele>716</ele>
        <time>2012-04-20T08:15:59.000Z</time>
      </trkpt>
      <trkpt lat="43.76021" lon="7.14311">
        <ele>716</ele>
        <time>2012-04-20T08:16:05.000Z</time>
      </trkpt>
      <trkpt lat="43.76025" lon="7.14314">
        <ele>712</ele>
        <time>2012-04-20T08:16:10.000Z</time>
      </trkpt>
      <trkpt lat="43.76029" lon="7.14316">
        <ele>708</ele>
        <time>2012-04-20T08:16:16.000Z</time>
      </trkpt>
      <trkpt lat="43.76034" lon="7.1432">
        <ele>711</ele>
        <time>2012-04-20T08:16:22.000Z</time>
      </trkpt>
      <trkpt lat="43.76038" lon="7.14322">
        <ele>707</ele>
        <time>2012-04-20T08:16:47.000Z</time>
      </trkpt>
      <trkpt lat="43.76042" lon="7.14326">
        <ele>713</ele>
        <time>2012-04-20T08:16:50.000Z</time>
      </trkpt>
      <trkpt lat="43.76047" lon="7.1433">
        <ele>708</ele>
        <time>2012-04-20T08:16:54.000Z</time>
      </trkpt>
      <trkpt lat="43.76051" lon="7.14332">
        <ele>712</ele>
        <time>2012-04-20T08:16:58.000Z</time>
      </trkpt>
      <trkpt lat="43.76055" lon="7.14335">
        <ele>705</ele>
        <time>2012-04-20T08:17:02.000Z</time>
      </trkpt>
      <trkpt lat="43.7606" lon="7.14337">
        <ele>708</ele>
        <time>2012-04-20T08:17:06.000Z</time>
      </trkpt>
      <trkpt lat="43.76065" lon="7.14341">
        <ele>716</ele>
        <time>2012-04-20T08:17:11.000Z</time>
      </trkpt>
      <trkpt lat="43.76069" lon="7.14345">
        <ele>716</ele>
        <time>2012-04-20T08:17:16.000Z</time>
      </trkpt>
      <trkpt lat="43.76074" lon="7.14349">
        <ele>718</ele>
        <time>2012-04-20T08:17:21.000Z</time>
      </trkpt>
      <trkpt lat="43.76077" lon="7.14352">
        <ele>716</ele>
        <time>2012-04-20T08:17:28.000Z</time>
      </trkpt>
      <trkpt lat="43.76082" lon="7.14356">
        <ele>707</ele>
        <time>2012-04-20T08:17:34.000Z</time>
      </trkpt>
      <trkpt lat="43.76086" lon="7.14359">
        <ele>716</ele>
        <time>2012-04-20T08:17:39.000Z</time>
      </trkpt>
      <trkpt lat="43.7609" lon="7.14361">
        <ele>711</ele>
        <time>2012-04-20T08:17:43.000Z</time>
      </trkpt>
      <trkpt lat="43.76094" lon="7.14365">
        <ele>714</ele>
        <time>2012-04-20T08:17:47.000Z</time>
      </trkpt>
      <trkpt lat="43.76098" lon="7.1437">
        <ele>714</ele>
        <time>2012-04-20T08:17:51.000Z</time>
      </trkpt>
      <trkpt lat="43.76101" lon="7.14375">
        <ele>719</ele>
        <time>2012-04-20T08:17:57.000Z</time>
      </trkpt>
      <trkpt lat="43.76105" lon="7.14379">
        <ele>713</ele>
        <time>2012-04-20T08:18:02.000Z</time>
      </trkpt>
      <trkpt lat="43.76109" lon="7.14381">
        <ele>710</ele>
        <time>2012-04-20T08:18:07.000Z</time>
      </trkpt>
      <trkpt lat="43.76114" lon="7.14381">
        <ele>714</ele>
        <time>2012-04-20T08:18:12.000Z</time>
      </trkpt>
      <trkpt lat="43.76119" lon="7.14383">
        <ele>716</ele>
        <time>2012-04-20T08:18:17.000Z</time>
      </trkpt>
      <trkpt lat="43.76124" lon="7.14384">
        <ele>722</ele>
        <time>2012-04-20T08:18:23.000Z</time>
      </trkpt>
      <trkpt lat="43.76129" lon="7.14385">
        <ele>717</ele>
        <time>2012-04-20T08:18:27.000Z</time>
      </trkpt>
      <trkpt lat="43.76134" lon="7.14387">
        <ele>719</ele>
        <time>2012-04-20T08:18:32.000Z</time>
      </trkpt>
      <trkpt lat="43.76137" lon="7.1439">
        <ele>720</ele>
        <time>2012-04-20T08:18:37.000Z</time>
      </trkpt>
      <trkpt lat="43.76141" lon="7.14394">
        <ele>719</ele>
        <time>2012-04-20T08:18:45.000Z</time>
      </trkpt>
      <trkpt lat="43.76143" lon="7.144">
        <ele>705</ele>
        <time>2012-04-20T08:18:55.000Z</time>
      </trkpt>
      <trkpt lat="43.76146" lon="7.14404">
        <ele>719</ele>
        <time>2012-04-20T08:19:20.000Z</time>
      </trkpt>
      <trkpt lat="43.7615" lon="7.144">
        <ele>719</ele>
        <time>2012-04-20T08:21:57.000Z</time>
      </trkpt>
      <trkpt lat="43.76155" lon="7.14402">
        <ele>717</ele>
        <time>2012-04-20T08:22:03.000Z</time>
      </trkpt>
      <trkpt lat="43.76159" lon="7.14405">
        <ele>717</ele>
        <time>2012-04-20T08:22:09.000Z</time>
      </trkpt>
      <trkpt lat="43.76163" lon="7.14406">
        <ele>720</ele>
        <time>2012-04-20T08:22:13.000Z</time>
      </trkpt>
      <trkpt lat="43.76168" lon="7.14406">
        <ele>729</ele>
        <time>2012-04-20T08:22:19.000Z</time>
      </trkpt>
      <trkpt lat="43.76167" lon="7.14413">
        <ele>724</ele>
        <time>2012-04-20T08:22:49.000Z</time>
      </trkpt>
      <trkpt lat="43.76162" lon="7.14412">
        <ele>706</ele>
        <time>2012-04-20T08:23:40.000Z</time>
      </trkpt>
      <trkpt lat="43.76162" lon="7.14412">
        <ele>706</ele>
        <time>2012-04-20T08:23:40.000Z</time>
      </trkpt>
      <trkpt lat="43.76162" lon="7.14412">
        <ele>706</ele>
        <time>2012-04-20T08:23:43.000Z</time>
      </trkpt>
      <trkpt lat="43.76156" lon="7.14406">
        <ele>710</ele>
        <time>2012-04-20T08:24:16.000Z</time>
      </trkpt>
      <trkpt lat="43.76161" lon="7.14404">
        <ele>717</ele>
        <time>2012-04-20T08:25:06.000Z</time>
      </trkpt>
      <trkpt lat="43.76165" lon="7.14405">
        <ele>716</ele>
        <time>2012-04-20T08:25:12.000Z</time>
      </trkpt>
      <trkpt lat="43.7617" lon="7.14407">
        <ele>717</ele>
        <time>2012-04-20T08:25:17.000Z</time>
      </trkpt>
      <trkpt lat="43.76175" lon="7.14409">
        <ele>720</ele>
        <time>2012-04-20T08:25:22.000Z</time>
      </trkpt>
      <trkpt lat="43.7618" lon="7.1441">
        <ele>720</ele>
        <time>2012-04-20T08:25:27.000Z</time>
      </trkpt>
      <trkpt lat="43.76184" lon="7.14412">
        <ele>722</ele>
        <time>2012-04-20T08:25:32.000Z</time>
      </trkpt>
      <trkpt lat="43.76189" lon="7.14413">
        <ele>720</ele>
        <time>2012-04-20T08:25:39.000Z</time>
      </trkpt>
      <trkpt lat="43.76194" lon="7.14412">
        <ele>718</ele>
        <time>2012-04-20T08:25:45.000Z</time>
      </trkpt>
      <trkpt lat="43.76199" lon="7.14413">
        <ele>721</ele>
        <time>2012-04-20T08:25:51.000Z</time>
      </trkpt>
      <trkpt lat="43.76204" lon="7.14413">
        <ele>724</ele>
        <time>2012-04-20T08:25:58.000Z</time>
      </trkpt>
      <trkpt lat="43.76208" lon="7.14416">
        <ele>719</ele>
        <time>2012-04-20T08:26:04.000Z</time>
      </trkpt>
      <trkpt lat="43.76213" lon="7.14418">
        <ele>725</ele>
        <time>2012-04-20T08:26:09.000Z</time>
      </trkpt>
      <trkpt lat="43.76217" lon="7.1442">
        <ele>724</ele>
        <time>2012-04-20T08:26:14.000Z</time>
      </trkpt>
      <trkpt lat="43.76222" lon="7.14422">
        <ele>722</ele>
        <time>2012-04-20T08:26:21.000Z</time>
      </trkpt>
      <trkpt lat="43.76226" lon="7.14425">
        <ele>725</ele>
        <time>2012-04-20T08:26:26.000Z</time>
      </trkpt>
      <trkpt lat="43.76231" lon="7.14427">
        <ele>721</ele>
        <time>2012-04-20T08:26:31.000Z</time>
      </trkpt>
      <trkpt lat="43.76236" lon="7.14428">
        <ele>726</ele>
        <time>2012-04-20T08:26:36.000Z</time>
      </trkpt>
      <trkpt lat="43.76241" lon="7.14428">
        <ele>724</ele>
        <time>2012-04-20T08:26:41.000Z</time>
      </trkpt>
      <trkpt lat="43.76245" lon="7.14429">
        <ele>727</ele>
        <time>2012-04-20T08:26:46.000Z</time>
      </trkpt>
      <trkpt lat="43.7625" lon="7.14431">
        <ele>723</ele>
        <time>2012-04-20T08:26:51.000Z</time>
      </trkpt>
      <trkpt lat="43.76255" lon="7.14431">
        <ele>722</ele>
        <time>2012-04-20T08:26:56.000Z</time>
      </trkpt>
      <trkpt lat="43.7626" lon="7.14432">
        <ele>724</ele>
        <time>2012-04-20T08:27:02.000Z</time>
      </trkpt>
      <trkpt lat="43.76264" lon="7.14434">
        <ele>723</ele>
        <time>2012-04-20T08:27:08.000Z</time>
      </trkpt>
      <trkpt lat="43.7627" lon="7.14434">
        <ele>727</ele>
        <time>2012-04-20T08:27:13.000Z</time>
      </trkpt>
      <trkpt lat="43.76274" lon="7.14435">
        <ele>724</ele>
        <time>2012-04-20T08:27:18.000Z</time>
      </trkpt>
      <trkpt lat="43.76279" lon="7.14436">
        <ele>724</ele>
        <time>2012-04-20T08:27:23.000Z</time>
      </trkpt>
      <trkpt lat="43.76284" lon="7.14437">
        <ele>726</ele>
        <time>2012-04-20T08:27:29.000Z</time>
      </trkpt>
      <trkpt lat="43.76288" lon="7.1444">
        <ele>729</ele>
        <time>2012-04-20T08:27:35.000Z</time>
      </trkpt>
      <trkpt lat="43.76292" lon="7.14443">
        <ele>732</ele>
        <time>2012-04-20T08:27:42.000Z</time>
      </trkpt>
      <trkpt lat="43.76297" lon="7.14444">
        <ele>724</ele>
        <time>2012-04-20T08:27:49.000Z</time>
      </trkpt>
      <trkpt lat="43.76301" lon="7.14447">
        <ele>725</ele>
        <time>2012-04-20T08:27:56.000Z</time>
      </trkpt>
      <trkpt lat="43.76306" lon="7.14451">
        <ele>728</ele>
        <time>2012-04-20T08:28:03.000Z</time>
      </trkpt>
      <trkpt lat="43.76311" lon="7.14451">
        <ele>722</ele>
        <time>2012-04-20T08:28:08.000Z</time>
      </trkpt>
      <trkpt lat="43.76316" lon="7.14453">
        <ele>728</ele>
        <time>2012-04-20T08:28:13.000Z</time>
      </trkpt>
      <trkpt lat="43.76321" lon="7.14453">
        <ele>724</ele>
        <time>2012-04-20T08:28:20.000Z</time>
      </trkpt>
      <trkpt lat="43.76326" lon="7.14453">
        <ele>727</ele>
        <time>2012-04-20T08:28:24.000Z</time>
      </trkpt>
      <trkpt lat="43.7633" lon="7.14452">
        <ele>726</ele>
        <time>2012-04-20T08:28:28.000Z</time>
      </trkpt>
      <trkpt lat="43.76335" lon="7.14451">
        <ele>726</ele>
        <time>2012-04-20T08:28:34.000Z</time>
      </trkpt>
      <trkpt lat="43.7634" lon="7.14451">
        <ele>725</ele>
        <time>2012-04-20T08:28:41.000Z</time>
      </trkpt>
      <trkpt lat="43.76345" lon="7.14449">
        <ele>726</ele>
        <time>2012-04-20T08:28:47.000Z</time>
      </trkpt>
      <trkpt lat="43.7635" lon="7.14446">
        <ele>727</ele>
        <time>2012-04-20T08:28:52.000Z</time>
      </trkpt>
      <trkpt lat="43.76354" lon="7.14444">
        <ele>729</ele>
        <time>2012-04-20T08:28:56.000Z</time>
      </trkpt>
      <trkpt lat="43.76359" lon="7.14442">
        <ele>727</ele>
        <time>2012-04-20T08:29:03.000Z</time>
      </trkpt>
      <trkpt lat="43.76364" lon="7.14442">
        <ele>730</ele>
        <time>2012-04-20T08:29:11.000Z</time>
      </trkpt>
      <trkpt lat="43.76368" lon="7.14442">
        <ele>730</ele>
        <time>2012-04-20T08:29:16.000Z</time>
      </trkpt>
      <trkpt lat="43.76373" lon="7.14443">
        <ele>734</ele>
        <time>2012-04-20T08:29:23.000Z</time>
      </trkpt>
      <trkpt lat="43.76377" lon="7.14446">
        <ele>732</ele>
        <time>2012-04-20T08:29:28.000Z</time>
      </trkpt>
      <trkpt lat="43.76382" lon="7.14447">
        <ele>729</ele>
        <time>2012-04-20T08:29:33.000Z</time>
      </trkpt>
      <trkpt lat="43.76386" lon="7.14449">
        <ele>729</ele>
        <time>2012-04-20T08:29:39.000Z</time>
      </trkpt>
      <trkpt lat="43.76391" lon="7.14451">
        <ele>727</ele>
        <time>2012-04-20T08:29:45.000Z</time>
      </trkpt>
      <trkpt lat="43.76395" lon="7.14449">
        <ele>728</ele>
        <time>2012-04-20T08:29:49.000Z</time>
      </trkpt>
      <trkpt lat="43.76399" lon="7.14446">
        <ele>730</ele>
        <time>2012-04-20T08:29:54.000Z</time>
      </trkpt>
      <trkpt lat="43.76404" lon="7.14446">
        <ele>731</ele>
        <time>2012-04-20T08:30:00.000Z</time>
      </trkpt>
      <trkpt lat="43.76408" lon="7.14446">
        <ele>731</ele>
        <time>2012-04-20T08:30:06.000Z</time>
      </trkpt>
      <trkpt lat="43.76413" lon="7.14445">
        <ele>727</ele>
        <time>2012-04-20T08:30:12.000Z</time>
      </trkpt>
      <trkpt lat="43.76418" lon="7.14446">
        <ele>732</ele>
        <time>2012-04-20T08:30:19.000Z</time>
      </trkpt>
      <trkpt lat="43.76423" lon="7.14447">
        <ele>733</ele>
        <time>2012-04-20T08:30:27.000Z</time>
      </trkpt>
      <trkpt lat="43.76427" lon="7.1445">
        <ele>730</ele>
        <time>2012-04-20T08:30:34.000Z</time>
      </trkpt>
      <trkpt lat="43.76432" lon="7.14451">
        <ele>732</ele>
        <time>2012-04-20T08:30:41.000Z</time>
      </trkpt>
      <trkpt lat="43.76436" lon="7.14454">
        <ele>734</ele>
        <time>2012-04-20T08:30:46.000Z</time>
      </trkpt>
      <trkpt lat="43.7644" lon="7.14456">
        <ele>738</ele>
        <time>2012-04-20T08:30:55.000Z</time>
      </trkpt>
      <trkpt lat="43.76445" lon="7.14456">
        <ele>734</ele>
        <time>2012-04-20T08:31:01.000Z</time>
      </trkpt>
      <trkpt lat="43.7645" lon="7.14455">
        <ele>734</ele>
        <time>2012-04-20T08:31:07.000Z</time>
      </trkpt>
      <trkpt lat="43.76454" lon="7.14457">
        <ele>736</ele>
        <time>2012-04-20T08:31:14.000Z</time>
      </trkpt>
      <trkpt lat="43.76459" lon="7.14459">
        <ele>735</ele>
        <time>2012-04-20T08:31:21.000Z</time>
      </trkpt>
      <trkpt lat="43.76464" lon="7.1446">
        <ele>738</ele>
        <time>2012-04-20T08:31:26.000Z</time>
      </trkpt>
      <trkpt lat="43.76469" lon="7.1446">
        <ele>737</ele>
        <time>2012-04-20T08:31:31.000Z</time>
      </trkpt>
      <trkpt lat="43.76474" lon="7.14458">
        <ele>736</ele>
        <time>2012-04-20T08:31:37.000Z</time>
      </trkpt>
      <trkpt lat="43.76478" lon="7.14457">
        <ele>739</ele>
        <time>2012-04-20T08:31:44.000Z</time>
      </trkpt>
      <trkpt lat="43.76483" lon="7.14456">
        <ele>737</ele>
        <time>2012-04-20T08:31:53.000Z</time>
      </trkpt>
      <trkpt lat="43.76487" lon="7.14453">
        <ele>744</ele>
        <time>2012-04-20T08:32:01.000Z</time>
      </trkpt>
      <trkpt lat="43.76492" lon="7.14451">
        <ele>740</ele>
        <time>2012-04-20T08:32:08.000Z</time>
      </trkpt>
      <trkpt lat="43.76497" lon="7.14451">
        <ele>744</ele>
        <time>2012-04-20T08:32:17.000Z</time>
      </trkpt>
      <trkpt lat="43.76502" lon="7.1445">
        <ele>742</ele>
        <time>2012-04-20T08:32:24.000Z</time>
      </trkpt>
      <trkpt lat="43.76506" lon="7.14448">
        <ele>736</ele>
        <time>2012-04-20T08:32:31.000Z</time>
      </trkpt>
      <trkpt lat="43.76511" lon="7.14445">
        <ele>741</ele>
        <time>2012-04-20T08:32:38.000Z</time>
      </trkpt>
      <trkpt lat="43.76515" lon="7.14443">
        <ele>735</ele>
        <time>2012-04-20T08:32:50.000Z</time>
      </trkpt>
      <trkpt lat="43.7652" lon="7.14442">
        <ele>736</ele>
        <time>2012-04-20T08:32:56.000Z</time>
      </trkpt>
      <trkpt lat="43.76524" lon="7.14439">
        <ele>741</ele>
        <time>2012-04-20T08:33:05.000Z</time>
      </trkpt>
      <trkpt lat="43.76528" lon="7.14436">
        <ele>747</ele>
        <time>2012-04-20T08:33:11.000Z</time>
      </trkpt>
      <trkpt lat="43.76533" lon="7.14434">
        <ele>745</ele>
        <time>2012-04-20T08:33:17.000Z</time>
      </trkpt>
      <trkpt lat="43.76538" lon="7.14432">
        <ele>745</ele>
        <time>2012-04-20T08:33:23.000Z</time>
      </trkpt>
      <trkpt lat="43.76542" lon="7.1443">
        <ele>749</ele>
        <time>2012-04-20T08:33:29.000Z</time>
      </trkpt>
      <trkpt lat="43.76547" lon="7.14432">
        <ele>751</ele>
        <time>2012-04-20T08:33:36.000Z</time>
      </trkpt>
      <trkpt lat="43.76552" lon="7.14434">
        <ele>753</ele>
        <time>2012-04-20T08:33:42.000Z</time>
      </trkpt>
      <trkpt lat="43.76556" lon="7.14435">
        <ele>747</ele>
        <time>2012-04-20T08:33:48.000Z</time>
      </trkpt>
      <trkpt lat="43.76561" lon="7.14436">
        <ele>746</ele>
        <time>2012-04-20T08:33:54.000Z</time>
      </trkpt>
      <trkpt lat="43.76566" lon="7.14434">
        <ele>747</ele>
        <time>2012-04-20T08:33:59.000Z</time>
      </trkpt>
      <trkpt lat="43.7657" lon="7.14433">
        <ele>748</ele>
        <time>2012-04-20T08:34:04.000Z</time>
      </trkpt>
      <trkpt lat="43.76575" lon="7.14432">
        <ele>752</ele>
        <time>2012-04-20T08:34:10.000Z</time>
      </trkpt>
      <trkpt lat="43.7658" lon="7.14432">
        <ele>750</ele>
        <time>2012-04-20T08:34:17.000Z</time>
      </trkpt>
      <trkpt lat="43.76585" lon="7.14432">
        <ele>749</ele>
        <time>2012-04-20T08:34:23.000Z</time>
      </trkpt>
      <trkpt lat="43.7659" lon="7.1443">
        <ele>759</ele>
        <time>2012-04-20T08:34:30.000Z</time>
      </trkpt>
      <trkpt lat="43.76594" lon="7.14427">
        <ele>757</ele>
        <time>2012-04-20T08:34:37.000Z</time>
      </trkpt>
      <trkpt lat="43.76598" lon="7.14425">
        <ele>755</ele>
        <time>2012-04-20T08:34:43.000Z</time>
      </trkpt>
      <trkpt lat="43.76603" lon="7.14425">
        <ele>756</ele>
        <time>2012-04-20T08:34:50.000Z</time>
      </trkpt>
      <trkpt lat="43.76607" lon="7.14427">
        <ele>755</ele>
        <time>2012-04-20T08:34:57.000Z</time>
      </trkpt>
      <trkpt lat="43.76611" lon="7.14429">
        <ele>752</ele>
        <time>2012-04-20T08:35:02.000Z</time>
      </trkpt>
      <trkpt lat="43.76616" lon="7.14431">
        <ele>759</ele>
        <time>2012-04-20T08:35:09.000Z</time>
      </trkpt>
      <trkpt lat="43.76621" lon="7.14431">
        <ele>755</ele>
        <time>2012-04-20T08:35:15.000Z</time>
      </trkpt>
      <trkpt lat="43.76626" lon="7.1443">
        <ele>762</ele>
        <time>2012-04-20T08:35:23.000Z</time>
      </trkpt>
      <trkpt lat="43.7663" lon="7.14429">
        <ele>762</ele>
        <time>2012-04-20T08:35:29.000Z</time>
      </trkpt>
      <trkpt lat="43.76635" lon="7.14427">
        <ele>761</ele>
        <time>2012-04-20T08:35:34.000Z</time>
      </trkpt>
      <trkpt lat="43.7664" lon="7.14428">
        <ele>760</ele>
        <time>2012-04-20T08:35:41.000Z</time>
      </trkpt>
      <trkpt lat="43.76644" lon="7.14431">
        <ele>764</ele>
        <time>2012-04-20T08:35:48.000Z</time>
      </trkpt>
      <trkpt lat="43.76648" lon="7.14433">
        <ele>764</ele>
        <time>2012-04-20T08:35:56.000Z</time>
      </trkpt>
      <trkpt lat="43.76653" lon="7.14434">
        <ele>760</ele>
        <time>2012-04-20T08:36:04.000Z</time>
      </trkpt>
      <trkpt lat="43.76658" lon="7.14436">
        <ele>761</ele>
        <time>2012-04-20T08:36:12.000Z</time>
      </trkpt>
      <trkpt lat="43.76662" lon="7.14436">
        <ele>762</ele>
        <time>2012-04-20T08:36:19.000Z</time>
      </trkpt>
      <trkpt lat="43.76667" lon="7.14438">
        <ele>760</ele>
        <time>2012-04-20T08:36:26.000Z</time>
      </trkpt>
      <trkpt lat="43.76672" lon="7.14438">
        <ele>764</ele>
        <time>2012-04-20T08:36:33.000Z</time>
      </trkpt>
      <trkpt lat="43.76676" lon="7.14437">
        <ele>761</ele>
        <time>2012-04-20T08:36:39.000Z</time>
      </trkpt>
      <trkpt lat="43.7668" lon="7.14439">
        <ele>765</ele>
        <time>2012-04-20T08:36:47.000Z</time>
      </trkpt>
      <trkpt lat="43.76685" lon="7.14441">
        <ele>767</ele>
        <time>2012-04-20T08:36:57.000Z</time>
      </trkpt>
      <trkpt lat="43.7669" lon="7.14441">
        <ele>767</ele>
        <time>2012-04-20T08:37:03.000Z</time>
      </trkpt>
      <trkpt lat="43.76694" lon="7.1444">
        <ele>768</ele>
        <time>2012-04-20T08:37:09.000Z</time>
      </trkpt>
      <trkpt lat="43.76699" lon="7.14442">
        <ele>774</ele>
        <time>2012-04-20T08:37:17.000Z</time>
      </trkpt>
      <trkpt lat="43.76704" lon="7.14443">
        <ele>766</ele>
        <time>2012-04-20T08:37:25.000Z</time>
      </trkpt>
      <trkpt lat="43.76708" lon="7.14447">
        <ele>770</ele>
        <time>2012-04-20T08:37:32.000Z</time>
      </trkpt>
      <trkpt lat="43.76712" lon="7.14452">
        <ele>774</ele>
        <time>2012-04-20T08:37:40.000Z</time>
      </trkpt>
      <trkpt lat="43.76716" lon="7.14454">
        <ele>773</ele>
        <time>2012-04-20T08:37:47.000Z</time>
      </trkpt>
      <trkpt lat="43.76721" lon="7.14455">
        <ele>773</ele>
        <time>2012-04-20T08:37:54.000Z</time>
      </trkpt>
      <trkpt lat="43.76726" lon="7.14457">
        <ele>775</ele>
        <time>2012-04-20T08:38:00.000Z</time>
      </trkpt>
      <trkpt lat="43.7673" lon="7.1446">
        <ele>774</ele>
        <time>2012-04-20T08:38:06.000Z</time>
      </trkpt>
      <trkpt lat="43.76734" lon="7.14463">
        <ele>773</ele>
        <time>2012-04-20T08:38:13.000Z</time>
      </trkpt>
      <trkpt lat="43.76738" lon="7.14467">
        <ele>774</ele>
        <time>2012-04-20T08:38:21.000Z</time>
      </trkpt>
      <trkpt lat="43.76742" lon="7.14468">
        <ele>774</ele>
        <time>2012-04-20T08:38:30.000Z</time>
      </trkpt>
      <trkpt lat="43.76747" lon="7.14467">
        <ele>772</ele>
        <time>2012-04-20T08:38:37.000Z</time>
      </trkpt>
      <trkpt lat="43.7675" lon="7.14461">
        <ele>771</ele>
        <time>2012-04-20T08:38:43.000Z</time>
      </trkpt>
      <trkpt lat="43.76752" lon="7.14455">
        <ele>773</ele>
        <time>2012-04-20T08:38:51.000Z</time>
      </trkpt>
      <trkpt lat="43.76757" lon="7.14457">
        <ele>775</ele>
        <time>2012-04-20T08:39:00.000Z</time>
      </trkpt>
      <trkpt lat="43.76761" lon="7.1446">
        <ele>777</ele>
        <time>2012-04-20T08:39:09.000Z</time>
      </trkpt>
      <trkpt lat="43.76765" lon="7.14465">
        <ele>776</ele>
        <time>2012-04-20T08:39:16.000Z</time>
      </trkpt>
      <trkpt lat="43.7677" lon="7.14467">
        <ele>777</ele>
        <time>2012-04-20T08:39:23.000Z</time>
      </trkpt>
      <trkpt lat="43.76774" lon="7.14469">
        <ele>781</ele>
        <time>2012-04-20T08:39:31.000Z</time>
      </trkpt>
      <trkpt lat="43.76779" lon="7.1447">
        <ele>778</ele>
        <time>2012-04-20T08:39:40.000Z</time>
      </trkpt>
      <trkpt lat="43.76784" lon="7.1447">
        <ele>779</ele>
        <time>2012-04-20T08:39:48.000Z</time>
      </trkpt>
      <trkpt lat="43.76788" lon="7.14472">
        <ele>779</ele>
        <time>2012-04-20T08:39:53.000Z</time>
      </trkpt>
      <trkpt lat="43.76793" lon="7.14473">
        <ele>778</ele>
        <time>2012-04-20T08:39:58.000Z</time>
      </trkpt>
      <trkpt lat="43.76798" lon="7.14475">
        <ele>781</ele>
        <time>2012-04-20T08:40:04.000Z</time>
      </trkpt>
      <trkpt lat="43.76802" lon="7.14477">
        <ele>782</ele>
        <time>2012-04-20T08:40:19.000Z</time>
      </trkpt>
      <trkpt lat="43.76807" lon="7.14476">
        <ele>784</ele>
        <time>2012-04-20T08:40:27.000Z</time>
      </trkpt>
      <trkpt lat="43.76811" lon="7.14475">
        <ele>785</ele>
        <time>2012-04-20T08:40:37.000Z</time>
      </trkpt>
      <trkpt lat="43.76816" lon="7.14476">
        <ele>780</ele>
        <time>2012-04-20T08:40:43.000Z</time>
      </trkpt>
      <trkpt lat="43.76821" lon="7.14476">
        <ele>787</ele>
        <time>2012-04-20T08:40:50.000Z</time>
      </trkpt>
      <trkpt lat="43.76825" lon="7.14477">
        <ele>785</ele>
        <time>2012-04-20T08:41:00.000Z</time>
      </trkpt>
      <trkpt lat="43.7683" lon="7.14478">
        <ele>792</ele>
        <time>2012-04-20T08:41:10.000Z</time>
      </trkpt>
      <trkpt lat="43.76834" lon="7.14478">
        <ele>785</ele>
        <time>2012-04-20T08:41:19.000Z</time>
      </trkpt>
      <trkpt lat="43.76839" lon="7.14479">
        <ele>785</ele>
        <time>2012-04-20T08:41:26.000Z</time>
      </trkpt>
      <trkpt lat="43.76844" lon="7.1448">
        <ele>792</ele>
        <time>2012-04-20T08:41:32.000Z</time>
      </trkpt>
      <trkpt lat="43.76848" lon="7.1448">
        <ele>793</ele>
        <time>2012-04-20T08:41:39.000Z</time>
      </trkpt>
      <trkpt lat="43.76853" lon="7.14482">
        <ele>787</ele>
        <time>2012-04-20T08:42:06.000Z</time>
      </trkpt>
      <trkpt lat="43.76858" lon="7.14482">
        <ele>786</ele>
        <time>2012-04-20T08:42:11.000Z</time>
      </trkpt>
      <trkpt lat="43.76863" lon="7.14481">
        <ele>788</ele>
        <time>2012-04-20T08:42:16.000Z</time>
      </trkpt>
      <trkpt lat="43.76868" lon="7.14481">
        <ele>787</ele>
        <time>2012-04-20T08:42:22.000Z</time>
      </trkpt>
      <trkpt lat="43.76872" lon="7.14483">
        <ele>785</ele>
        <time>2012-04-20T08:42:27.000Z</time>
      </trkpt>
      <trkpt lat="43.76878" lon="7.14484">
        <ele>788</ele>
        <time>2012-04-20T08:42:33.000Z</time>
      </trkpt>
      <trkpt lat="43.76882" lon="7.14485">
        <ele>787</ele>
        <time>2012-04-20T08:42:37.000Z</time>
      </trkpt>
      <trkpt lat="43.76887" lon="7.14485">
        <ele>790</ele>
        <time>2012-04-20T08:42:43.000Z</time>
      </trkpt>
      <trkpt lat="43.76892" lon="7.14484">
        <ele>788</ele>
        <time>2012-04-20T08:44:33.000Z</time>
      </trkpt>
      <trkpt lat="43.76898" lon="7.14486">
        <ele>790</ele>
        <time>2012-04-20T08:44:37.000Z</time>
      </trkpt>
      <trkpt lat="43.76902" lon="7.14485">
        <ele>790</ele>
        <time>2012-04-20T08:44:42.000Z</time>
      </trkpt>
      <trkpt lat="43.76906" lon="7.14482">
        <ele>791</ele>
        <time>2012-04-20T08:44:48.000Z</time>
      </trkpt>
      <trkpt lat="43.76911" lon="7.1448">
        <ele>793</ele>
        <time>2012-04-20T08:44:54.000Z</time>
      </trkpt>
      <trkpt lat="43.76916" lon="7.1448">
        <ele>792</ele>
        <time>2012-04-20T08:45:00.000Z</time>
      </trkpt>
      <trkpt lat="43.7692" lon="7.14479">
        <ele>792</ele>
        <time>2012-04-20T08:45:07.000Z</time>
      </trkpt>
      <trkpt lat="43.76925" lon="7.14478">
        <ele>789</ele>
        <time>2012-04-20T08:45:14.000Z</time>
      </trkpt>
      <trkpt lat="43.7693" lon="7.14477">
        <ele>791</ele>
        <time>2012-04-20T08:45:21.000Z</time>
      </trkpt>
      <trkpt lat="43.76935" lon="7.14476">
        <ele>796</ele>
        <time>2012-04-20T08:45:27.000Z</time>
      </trkpt>
      <trkpt lat="43.76939" lon="7.14476">
        <ele>797</ele>
        <time>2012-04-20T08:45:32.000Z</time>
      </trkpt>
      <trkpt lat="43.76944" lon="7.14475">
        <ele>795</ele>
        <time>2012-04-20T08:45:39.000Z</time>
      </trkpt>
      <trkpt lat="43.76948" lon="7.14472">
        <ele>794</ele>
        <time>2012-04-20T08:45:47.000Z</time>
      </trkpt>
      <trkpt lat="43.76953" lon="7.14473">
        <ele>796</ele>
        <time>2012-04-20T08:45:56.000Z</time>
      </trkpt>
      <trkpt lat="43.76953" lon="7.14473">
        <ele>796</ele>
        <time>2012-04-20T08:45:56.000Z</time>
      </trkpt>
      <trkpt lat="43.76953" lon="7.14473">
        <ele>796</ele>
        <time>2012-04-20T08:46:04.000Z</time>
      </trkpt>
      <trkpt lat="43.76957" lon="7.14471">
        <ele>795</ele>
        <time>2012-04-20T08:46:12.000Z</time>
      </trkpt>
      <trkpt lat="43.76952" lon="7.14474">
        <ele>795</ele>
        <time>2012-04-20T08:46:58.000Z</time>
      </trkpt>
      <trkpt lat="43.76956" lon="7.14476">
        <ele>789</ele>
        <time>2012-04-20T08:47:08.000Z</time>
      </trkpt>
      <trkpt lat="43.76962" lon="7.14476">
        <ele>796</ele>
        <time>2012-04-20T08:47:15.000Z</time>
      </trkpt>
      <trkpt lat="43.76966" lon="7.14478">
        <ele>793</ele>
        <time>2012-04-20T08:47:19.000Z</time>
      </trkpt>
      <trkpt lat="43.76968" lon="7.14484">
        <ele>791</ele>
        <time>2012-04-20T08:47:24.000Z</time>
      </trkpt>
      <trkpt lat="43.76964" lon="7.14488">
        <ele>798</ele>
        <time>2012-04-20T08:47:35.000Z</time>
      </trkpt>
      <trkpt lat="43.7696" lon="7.14492">
        <ele>791</ele>
        <time>2012-04-20T08:47:42.000Z</time>
      </trkpt>
      <trkpt lat="43.76957" lon="7.14496">
        <ele>798</ele>
        <time>2012-04-20T08:48:05.000Z</time>
      </trkpt>
      <trkpt lat="43.76957" lon="7.14496">
        <ele>798</ele>
        <time>2012-04-20T08:48:05.000Z</time>
      </trkpt>
      <trkpt lat="43.76957" lon="7.14496">
        <ele>798</ele>
        <time>2012-04-20T08:48:07.000Z</time>
      </trkpt>
      <trkpt lat="43.76961" lon="7.14492">
        <ele>793</ele>
        <time>2012-04-20T08:49:59.000Z</time>
      </trkpt>
      <trkpt lat="43.76965" lon="7.14494">
        <ele>794</ele>
        <time>2012-04-20T08:50:12.000Z</time>
      </trkpt>
      <trkpt lat="43.7696" lon="7.14494">
        <ele>784</ele>
        <time>2012-04-20T08:53:37.000Z</time>
      </trkpt>
      <trkpt lat="43.76958" lon="7.145">
        <ele>785</ele>
        <time>2012-04-20T08:53:45.000Z</time>
      </trkpt>
      <trkpt lat="43.76953" lon="7.14498">
        <ele>796</ele>
        <time>2012-04-20T09:05:11.000Z</time>
      </trkpt>
      <trkpt lat="43.76948" lon="7.145">
        <ele>792</ele>
        <time>2012-04-20T09:05:18.000Z</time>
      </trkpt>
      <trkpt lat="43.76944" lon="7.14503">
        <ele>789</ele>
        <time>2012-04-20T09:05:23.000Z</time>
      </trkpt>
      <trkpt lat="43.76939" lon="7.14505">
        <ele>799</ele>
        <time>2012-04-20T09:05:29.000Z</time>
      </trkpt>
      <trkpt lat="43.76935" lon="7.14509">
        <ele>798</ele>
        <time>2012-04-20T09:05:36.000Z</time>
      </trkpt>
      <trkpt lat="43.76931" lon="7.14514">
        <ele>790</ele>
        <time>2012-04-20T09:05:42.000Z</time>
      </trkpt>
      <trkpt lat="43.7693" lon="7.14519">
        <ele>790</ele>
        <time>2012-04-20T09:05:51.000Z</time>
      </trkpt>
      <trkpt lat="43.76925" lon="7.14522">
        <ele>788</ele>
        <time>2012-04-20T09:05:58.000Z</time>
      </trkpt>
      <trkpt lat="43.7692" lon="7.14523">
        <ele>796</ele>
        <time>2012-04-20T09:06:06.000Z</time>
      </trkpt>
      <trkpt lat="43.76916" lon="7.14522">
        <ele>799</ele>
        <time>2012-04-20T09:06:34.000Z</time>
      </trkpt>
      <trkpt lat="43.76916" lon="7.14522">
        <ele>799</ele>
        <time>2012-04-20T09:06:34.000Z</time>
      </trkpt>
      <trkpt lat="43.76916" lon="7.14522">
        <ele>799</ele>
        <time>2012-04-20T09:06:42.000Z</time>
      </trkpt>
      <trkpt lat="43.76913" lon="7.14528">
        <ele>790</ele>
        <time>2012-04-20T09:06:55.000Z</time>
      </trkpt>
      <trkpt lat="43.76908" lon="7.14528">
        <ele>793</ele>
        <time>2012-04-20T09:07:01.000Z</time>
      </trkpt>
      <trkpt lat="43.76903" lon="7.14526">
        <ele>798</ele>
        <time>2012-04-20T09:07:10.000Z</time>
      </trkpt>
      <trkpt lat="43.76899" lon="7.14522">
        <ele>789</ele>
        <time>2012-04-20T09:07:20.000Z</time>
      </trkpt>
      <trkpt lat="43.76894" lon="7.1452">
        <ele>790</ele>
        <time>2012-04-20T09:07:24.000Z</time>
      </trkpt>
      <trkpt lat="43.7689" lon="7.14516">
        <ele>792</ele>
        <time>2012-04-20T09:07:29.000Z</time>
      </trkpt>
      <trkpt lat="43.76895" lon="7.1452">
        <ele>801</ele>
        <time>2012-04-20T09:08:05.000Z</time>
      </trkpt>
      <trkpt lat="43.76899" lon="7.14523">
        <ele>799</ele>
        <time>2012-04-20T09:08:11.000Z</time>
      </trkpt>
      <trkpt lat="43.76903" lon="7.14527">
        <ele>800</ele>
        <time>2012-04-20T09:08:19.000Z</time>
      </trkpt>
      <trkpt lat="43.76908" lon="7.14528">
        <ele>800</ele>
        <time>2012-04-20T09:08:25.000Z</time>
      </trkpt>
      <trkpt lat="43.76913" lon="7.14528">
        <ele>801</ele>
        <time>2012-04-20T09:08:30.000Z</time>
      </trkpt>
      <trkpt lat="43.76918" lon="7.14528">
        <ele>799</ele>
        <time>2012-04-20T09:08:37.000Z</time>
      </trkpt>
      <trkpt lat="43.76923" lon="7.14527">
        <ele>798</ele>
        <time>2012-04-20T09:08:43.000Z</time>
      </trkpt>
      <trkpt lat="43.76925" lon="7.14533">
        <ele>795</ele>
        <time>2012-04-20T09:08:56.000Z</time>
      </trkpt>
      <trkpt lat="43.76921" lon="7.14537">
        <ele>793</ele>
        <time>2012-04-20T09:09:26.000Z</time>
      </trkpt>
      <trkpt lat="43.76922" lon="7.14544">
        <ele>805</ele>
        <time>2012-04-20T09:09:54.000Z</time>
      </trkpt>
      <trkpt lat="43.76922" lon="7.14544">
        <ele>805</ele>
        <time>2012-04-20T09:09:54.000Z</time>
      </trkpt>
      <trkpt lat="43.76922" lon="7.14544">
        <ele>805</ele>
        <time>2012-04-20T09:09:55.000Z</time>
      </trkpt>
      <trkpt lat="43.76922" lon="7.1455">
        <ele>807</ele>
        <time>2012-04-20T09:10:31.000Z</time>
      </trkpt>
      <trkpt lat="43.76919" lon="7.14555">
        <ele>808</ele>
        <time>2012-04-20T09:11:30.000Z</time>
      </trkpt>
      <trkpt lat="43.76916" lon="7.14561">
        <ele>804</ele>
        <time>2012-04-20T09:11:43.000Z</time>
      </trkpt>
      <trkpt lat="43.76916" lon="7.14568">
        <ele>809</ele>
        <time>2012-04-20T09:11:55.000Z</time>
      </trkpt>
      <trkpt lat="43.76916" lon="7.14574">
        <ele>809</ele>
        <time>2012-04-20T09:12:01.000Z</time>
      </trkpt>
      <trkpt lat="43.76919" lon="7.14579">
        <ele>818</ele>
        <time>2012-04-20T09:12:40.000Z</time>
      </trkpt>
      <trkpt lat="43.76915" lon="7.14583">
        <ele>809</ele>
        <time>2012-04-20T09:13:14.000Z</time>
      </trkpt>
      <trkpt lat="43.7691" lon="7.14585">
        <ele>813</ele>
        <time>2012-04-20T09:13:47.000Z</time>
      </trkpt>
      <trkpt lat="43.76905" lon="7.14588">
        <ele>814</ele>
        <time>2012-04-20T09:13:53.000Z</time>
      </trkpt>
      <trkpt lat="43.76902" lon="7.14593">
        <ele>814</ele>
        <time>2012-04-20T09:14:06.000Z</time>
      </trkpt>
      <trkpt lat="43.769" lon="7.14599">
        <ele>815</ele>
        <time>2012-04-20T09:14:15.000Z</time>
      </trkpt>
      <trkpt lat="43.76896" lon="7.14603">
        <ele>814</ele>
        <time>2012-04-20T09:14:27.000Z</time>
      </trkpt>
      <trkpt lat="43.76892" lon="7.14606">
        <ele>819</ele>
        <time>2012-04-20T09:14:36.000Z</time>
      </trkpt>
      <trkpt lat="43.76888" lon="7.14609">
        <ele>816</ele>
        <time>2012-04-20T09:14:43.000Z</time>
      </trkpt>
      <trkpt lat="43.76884" lon="7.14614">
        <ele>820</ele>
        <time>2012-04-20T09:14:52.000Z</time>
      </trkpt>
      <trkpt lat="43.7688" lon="7.14618">
        <ele>821</ele>
        <time>2012-04-20T09:15:11.000Z</time>
      </trkpt>
      <trkpt lat="43.76876" lon="7.1462">
        <ele>824</ele>
        <time>2012-04-20T09:15:18.000Z</time>
      </trkpt>
      <trkpt lat="43.76872" lon="7.14625">
        <ele>820</ele>
        <time>2012-04-20T09:15:24.000Z</time>
      </trkpt>
      <trkpt lat="43.76869" lon="7.14629">
        <ele>820</ele>
        <time>2012-04-20T09:15:31.000Z</time>
      </trkpt>
      <trkpt lat="43.76865" lon="7.14633">
        <ele>819</ele>
        <time>2012-04-20T09:15:40.000Z</time>
      </trkpt>
      <trkpt lat="43.76863" lon="7.14639">
        <ele>820</ele>
        <time>2012-04-20T09:15:47.000Z</time>
      </trkpt>
      <trkpt lat="43.76859" lon="7.14644">
        <ele>824</ele>
        <time>2012-04-20T09:15:55.000Z</time>
      </trkpt>
      <trkpt lat="43.76855" lon="7.14647">
        <ele>820</ele>
        <time>2012-04-20T09:16:01.000Z</time>
      </trkpt>
      <trkpt lat="43.76851" lon="7.14651">
        <ele>826</ele>
        <time>2012-04-20T09:16:08.000Z</time>
      </trkpt>
      <trkpt lat="43.76847" lon="7.14654">
        <ele>828</ele>
        <time>2012-04-20T09:16:14.000Z</time>
      </trkpt>
      <trkpt lat="43.76843" lon="7.14659">
        <ele>828</ele>
        <time>2012-04-20T09:16:21.000Z</time>
      </trkpt>
      <trkpt lat="43.76839" lon="7.14663">
        <ele>830</ele>
        <time>2012-04-20T09:16:26.000Z</time>
      </trkpt>
      <trkpt lat="43.76836" lon="7.14668">
        <ele>827</ele>
        <time>2012-04-20T09:16:32.000Z</time>
      </trkpt>
      <trkpt lat="43.76833" lon="7.14674">
        <ele>829</ele>
        <time>2012-04-20T09:16:41.000Z</time>
      </trkpt>
      <trkpt lat="43.76829" lon="7.14678">
        <ele>826</ele>
        <time>2012-04-20T09:16:48.000Z</time>
      </trkpt>
      <trkpt lat="43.76825" lon="7.14682">
        <ele>831</ele>
        <time>2012-04-20T09:16:55.000Z</time>
      </trkpt>
      <trkpt lat="43.76821" lon="7.14684">
        <ele>833</ele>
        <time>2012-04-20T09:17:02.000Z</time>
      </trkpt>
      <trkpt lat="43.76816" lon="7.14686">
        <ele>834</ele>
        <time>2012-04-20T09:17:14.000Z</time>
      </trkpt>
      <trkpt lat="43.76813" lon="7.14682">
        <ele>833</ele>
        <time>2012-04-20T09:17:23.000Z</time>
      </trkpt>
      <trkpt lat="43.76808" lon="7.1468">
        <ele>836</ele>
        <time>2012-04-20T09:17:32.000Z</time>
      </trkpt>
      <trkpt lat="43.76803" lon="7.14679">
        <ele>835</ele>
        <time>2012-04-20T09:17:39.000Z</time>
      </trkpt>
      <trkpt lat="43.76798" lon="7.14679">
        <ele>829</ele>
        <time>2012-04-20T09:17:48.000Z</time>
      </trkpt>
      <trkpt lat="43.76794" lon="7.1468">
        <ele>821</ele>
        <time>2012-04-20T09:17:56.000Z</time>
      </trkpt>
      <trkpt lat="43.76794" lon="7.14686">
        <ele>819</ele>
        <time>2012-04-20T09:19:29.000Z</time>
      </trkpt>
      <trkpt lat="43.76791" lon="7.14692">
        <ele>823</ele>
        <time>2012-04-20T09:19:36.000Z</time>
      </trkpt>
      <trkpt lat="43.76786" lon="7.14692">
        <ele>833</ele>
        <time>2012-04-20T09:19:42.000Z</time>
      </trkpt>
      <trkpt lat="43.76782" lon="7.14689">
        <ele>831</ele>
        <time>2012-04-20T09:19:46.000Z</time>
      </trkpt>
      <trkpt lat="43.76777" lon="7.14688">
        <ele>834</ele>
        <time>2012-04-20T09:19:51.000Z</time>
      </trkpt>
      <trkpt lat="43.76772" lon="7.14685">
        <ele>834</ele>
        <time>2012-04-20T09:20:06.000Z</time>
      </trkpt>
      <trkpt lat="43.76768" lon="7.1468">
        <ele>839</ele>
        <time>2012-04-20T09:20:54.000Z</time>
      </trkpt>
      <trkpt lat="43.76768" lon="7.1468">
        <ele>839</ele>
        <time>2012-04-20T09:20:54.000Z</time>
      </trkpt>
      <trkpt lat="43.76768" lon="7.1468">
        <ele>839</ele>
        <time>2012-04-20T09:20:57.000Z</time>
      </trkpt>
      <trkpt lat="43.76764" lon="7.14684">
        <ele>842</ele>
        <time>2012-04-20T09:21:14.000Z</time>
      </trkpt>
      <trkpt lat="43.76764" lon="7.14684">
        <ele>842</ele>
        <time>2012-04-20T09:21:14.000Z</time>
      </trkpt>
      <trkpt lat="43.76764" lon="7.14684">
        <ele>842</ele>
        <time>2012-04-20T09:21:18.000Z</time>
      </trkpt>
      <trkpt lat="43.76765" lon="7.14676">
        <ele>845</ele>
        <time>2012-04-20T09:22:55.000Z</time>
      </trkpt>
      <trkpt lat="43.7676" lon="7.14672">
        <ele>842</ele>
        <time>2012-04-20T09:23:00.000Z</time>
      </trkpt>
      <trkpt lat="43.76755" lon="7.1467">
        <ele>842</ele>
        <time>2012-04-20T09:23:04.000Z</time>
      </trkpt>
      <trkpt lat="43.7675" lon="7.1467">
        <ele>842</ele>
        <time>2012-04-20T09:23:08.000Z</time>
      </trkpt>
      <trkpt lat="43.76745" lon="7.14673">
        <ele>842</ele>
        <time>2012-04-20T09:23:15.000Z</time>
      </trkpt>
      <trkpt lat="43.76741" lon="7.14676">
        <ele>834</ele>
        <time>2012-04-20T09:23:33.000Z</time>
      </trkpt>
      <trkpt lat="43.76737" lon="7.1468">
        <ele>836</ele>
        <time>2012-04-20T09:23:38.000Z</time>
      </trkpt>
      <trkpt lat="43.76732" lon="7.14683">
        <ele>839</ele>
        <time>2012-04-20T09:23:44.000Z</time>
      </trkpt>
      <trkpt lat="43.76728" lon="7.14684">
        <ele>852</ele>
        <time>2012-04-20T09:23:59.000Z</time>
      </trkpt>
      <trkpt lat="43.76723" lon="7.14683">
        <ele>849</ele>
        <time>2012-04-20T09:24:05.000Z</time>
      </trkpt>
      <trkpt lat="43.76718" lon="7.14685">
        <ele>850</ele>
        <time>2012-04-20T09:24:11.000Z</time>
      </trkpt>
      <trkpt lat="43.76714" lon="7.14687">
        <ele>845</ele>
        <time>2012-04-20T09:24:21.000Z</time>
      </trkpt>
      <trkpt lat="43.76709" lon="7.14687">
        <ele>845</ele>
        <time>2012-04-20T09:24:31.000Z</time>
      </trkpt>
      <trkpt lat="43.76704" lon="7.14689">
        <ele>849</ele>
        <time>2012-04-20T09:24:38.000Z</time>
      </trkpt>
      <trkpt lat="43.767" lon="7.14691">
        <ele>851</ele>
        <time>2012-04-20T09:24:43.000Z</time>
      </trkpt>
      <trkpt lat="43.76695" lon="7.14692">
        <ele>858</ele>
        <time>2012-04-20T09:25:14.000Z</time>
      </trkpt>
      <trkpt lat="43.76691" lon="7.14691">
        <ele>858</ele>
        <time>2012-04-20T09:25:20.000Z</time>
      </trkpt>
      <trkpt lat="43.76686" lon="7.14691">
        <ele>855</ele>
        <time>2012-04-20T09:25:25.000Z</time>
      </trkpt>
      <trkpt lat="43.76684" lon="7.14685">
        <ele>846</ele>
        <time>2012-04-20T09:26:08.000Z</time>
      </trkpt>
      <trkpt lat="43.76681" lon="7.1469">
        <ele>855</ele>
        <time>2012-04-20T09:26:16.000Z</time>
      </trkpt>
      <trkpt lat="43.76677" lon="7.14694">
        <ele>848</ele>
        <time>2012-04-20T09:26:21.000Z</time>
      </trkpt>
      <trkpt lat="43.76674" lon="7.14697">
        <ele>855</ele>
        <time>2012-04-20T09:26:26.000Z</time>
      </trkpt>
      <trkpt lat="43.76678" lon="7.14699">
        <ele>832</ele>
        <time>2012-04-20T09:29:56.000Z</time>
      </trkpt>
      <trkpt lat="43.76678" lon="7.14699">
        <ele>832</ele>
        <time>2012-04-20T09:29:56.000Z</time>
      </trkpt>
      <trkpt lat="43.76678" lon="7.14699">
        <ele>832</ele>
        <time>2012-04-20T09:29:58.000Z</time>
      </trkpt>
      <trkpt lat="43.76674" lon="7.14701">
        <ele>860</ele>
        <time>2012-04-20T09:31:35.000Z</time>
      </trkpt>
      <trkpt lat="43.76669" lon="7.14704">
        <ele>852</ele>
        <time>2012-04-20T09:31:43.000Z</time>
      </trkpt>
      <trkpt lat="43.76664" lon="7.14705">
        <ele>850</ele>
        <time>2012-04-20T09:31:50.000Z</time>
      </trkpt>
      <trkpt lat="43.76659" lon="7.14705">
        <ele>851</ele>
        <time>2012-04-20T09:31:57.000Z</time>
      </trkpt>
      <trkpt lat="43.76655" lon="7.14708">
        <ele>856</ele>
        <time>2012-04-20T09:32:03.000Z</time>
      </trkpt>
      <trkpt lat="43.7665" lon="7.14711">
        <ele>853</ele>
        <time>2012-04-20T09:32:12.000Z</time>
      </trkpt>
      <trkpt lat="43.76646" lon="7.14714">
        <ele>856</ele>
        <time>2012-04-20T09:32:17.000Z</time>
      </trkpt>
      <trkpt lat="43.76642" lon="7.14719">
        <ele>853</ele>
        <time>2012-04-20T09:32:22.000Z</time>
      </trkpt>
      <trkpt lat="43.76638" lon="7.14722">
        <ele>858</ele>
        <time>2012-04-20T09:32:27.000Z</time>
      </trkpt>
      <trkpt lat="43.76634" lon="7.14726">
        <ele>857</ele>
        <time>2012-04-20T09:32:33.000Z</time>
      </trkpt>
      <trkpt lat="43.76629" lon="7.14727">
        <ele>856</ele>
        <time>2012-04-20T09:32:39.000Z</time>
      </trkpt>
      <trkpt lat="43.76624" lon="7.1473">
        <ele>854</ele>
        <time>2012-04-20T09:32:44.000Z</time>
      </trkpt>
      <trkpt lat="43.7662" lon="7.14733">
        <ele>853</ele>
        <time>2012-04-20T09:32:48.000Z</time>
      </trkpt>
      <trkpt lat="43.76616" lon="7.14736">
        <ele>854</ele>
        <time>2012-04-20T09:32:52.000Z</time>
      </trkpt>
      <trkpt lat="43.76613" lon="7.1474">
        <ele>860</ele>
        <time>2012-04-20T09:32:58.000Z</time>
      </trkpt>
      <trkpt lat="43.76609" lon="7.14745">
        <ele>858</ele>
        <time>2012-04-20T09:33:09.000Z</time>
      </trkpt>
      <trkpt lat="43.76605" lon="7.1475">
        <ele>861</ele>
        <time>2012-04-20T09:33:15.000Z</time>
      </trkpt>
      <trkpt lat="43.76602" lon="7.14754">
        <ele>861</ele>
        <time>2012-04-20T09:33:21.000Z</time>
      </trkpt>
      <trkpt lat="43.76598" lon="7.14758">
        <ele>859</ele>
        <time>2012-04-20T09:33:28.000Z</time>
      </trkpt>
      <trkpt lat="43.76594" lon="7.14763">
        <ele>860</ele>
        <time>2012-04-20T09:34:00.000Z</time>
      </trkpt>
      <trkpt lat="43.76589" lon="7.14764">
        <ele>867</ele>
        <time>2012-04-20T09:34:07.000Z</time>
      </trkpt>
      <trkpt lat="43.76585" lon="7.1476">
        <ele>859</ele>
        <time>2012-04-20T09:34:16.000Z</time>
      </trkpt>
      <trkpt lat="43.76579" lon="7.1476">
        <ele>861</ele>
        <time>2012-04-20T09:34:22.000Z</time>
      </trkpt>
      <trkpt lat="43.76575" lon="7.14763">
        <ele>859</ele>
        <time>2012-04-20T09:34:28.000Z</time>
      </trkpt>
      <trkpt lat="43.76571" lon="7.14766">
        <ele>859</ele>
        <time>2012-04-20T09:34:35.000Z</time>
      </trkpt>
      <trkpt lat="43.76566" lon="7.14767">
        <ele>863</ele>
        <time>2012-04-20T09:34:43.000Z</time>
      </trkpt>
      <trkpt lat="43.76561" lon="7.14769">
        <ele>860</ele>
        <time>2012-04-20T09:34:49.000Z</time>
      </trkpt>
      <trkpt lat="43.76556" lon="7.14769">
        <ele>860</ele>
        <time>2012-04-20T09:34:55.000Z</time>
      </trkpt>
      <trkpt lat="43.76551" lon="7.1477">
        <ele>859</ele>
        <time>2012-04-20T09:35:01.000Z</time>
      </trkpt>
      <trkpt lat="43.76546" lon="7.14772">
        <ele>856</ele>
        <time>2012-04-20T09:35:09.000Z</time>
      </trkpt>
      <trkpt lat="43.76542" lon="7.14773">
        <ele>858</ele>
        <time>2012-04-20T09:35:15.000Z</time>
      </trkpt>
      <trkpt lat="43.76537" lon="7.14776">
        <ele>860</ele>
        <time>2012-04-20T09:35:20.000Z</time>
      </trkpt>
      <trkpt lat="43.76534" lon="7.14781">
        <ele>861</ele>
        <time>2012-04-20T09:35:26.000Z</time>
      </trkpt>
      <trkpt lat="43.7653" lon="7.14784">
        <ele>860</ele>
        <time>2012-04-20T09:35:34.000Z</time>
      </trkpt>
      <trkpt lat="43.76526" lon="7.14789">
        <ele>862</ele>
        <time>2012-04-20T09:35:41.000Z</time>
      </trkpt>
      <trkpt lat="43.76522" lon="7.14794">
        <ele>866</ele>
        <time>2012-04-20T09:35:48.000Z</time>
      </trkpt>
      <trkpt lat="43.76518" lon="7.14796">
        <ele>865</ele>
        <time>2012-04-20T09:35:54.000Z</time>
      </trkpt>
      <trkpt lat="43.76514" lon="7.148">
        <ele>866</ele>
        <time>2012-04-20T09:35:59.000Z</time>
      </trkpt>
      <trkpt lat="43.7651" lon="7.14804">
        <ele>866</ele>
        <time>2012-04-20T09:36:04.000Z</time>
      </trkpt>
      <trkpt lat="43.76505" lon="7.14807">
        <ele>871</ele>
        <time>2012-04-20T09:36:10.000Z</time>
      </trkpt>
      <trkpt lat="43.76501" lon="7.14811">
        <ele>866</ele>
        <time>2012-04-20T09:36:15.000Z</time>
      </trkpt>
      <trkpt lat="43.76497" lon="7.14814">
        <ele>865</ele>
        <time>2012-04-20T09:36:23.000Z</time>
      </trkpt>
      <trkpt lat="43.76493" lon="7.14819">
        <ele>867</ele>
        <time>2012-04-20T09:36:31.000Z</time>
      </trkpt>
      <trkpt lat="43.7649" lon="7.14824">
        <ele>864</ele>
        <time>2012-04-20T09:36:37.000Z</time>
      </trkpt>
      <trkpt lat="43.76486" lon="7.14827">
        <ele>870</ele>
        <time>2012-04-20T09:36:42.000Z</time>
      </trkpt>
      <trkpt lat="43.7648" lon="7.14829">
        <ele>869</ele>
        <time>2012-04-20T09:36:48.000Z</time>
      </trkpt>
      <trkpt lat="43.76476" lon="7.14831">
        <ele>868</ele>
        <time>2012-04-20T09:36:53.000Z</time>
      </trkpt>
      <trkpt lat="43.76471" lon="7.14832">
        <ele>871</ele>
        <time>2012-04-20T09:36:59.000Z</time>
      </trkpt>
      <trkpt lat="43.76467" lon="7.14835">
        <ele>868</ele>
        <time>2012-04-20T09:37:05.000Z</time>
      </trkpt>
      <trkpt lat="43.76464" lon="7.14841">
        <ele>870</ele>
        <time>2012-04-20T09:37:13.000Z</time>
      </trkpt>
      <trkpt lat="43.76459" lon="7.14845">
        <ele>870</ele>
        <time>2012-04-20T09:37:21.000Z</time>
      </trkpt>
      <trkpt lat="43.76455" lon="7.14846">
        <ele>872</ele>
        <time>2012-04-20T09:37:26.000Z</time>
      </trkpt>
      <trkpt lat="43.76452" lon="7.14851">
        <ele>873</ele>
        <time>2012-04-20T09:37:31.000Z</time>
      </trkpt>
      <trkpt lat="43.7645" lon="7.14857">
        <ele>871</ele>
        <time>2012-04-20T09:37:37.000Z</time>
      </trkpt>
      <trkpt lat="43.76446" lon="7.14861">
        <ele>872</ele>
        <time>2012-04-20T09:37:42.000Z</time>
      </trkpt>
      <trkpt lat="43.76441" lon="7.14864">
        <ele>871</ele>
        <time>2012-04-20T09:37:48.000Z</time>
      </trkpt>
      <trkpt lat="43.76438" lon="7.14869">
        <ele>870</ele>
        <time>2012-04-20T09:37:53.000Z</time>
      </trkpt>
      <trkpt lat="43.76435" lon="7.14874">
        <ele>871</ele>
        <time>2012-04-20T09:38:00.000Z</time>
      </trkpt>
      <trkpt lat="43.7643" lon="7.14876">
        <ele>868</ele>
        <time>2012-04-20T09:38:08.000Z</time>
      </trkpt>
      <trkpt lat="43.76424" lon="7.14878">
        <ele>870</ele>
        <time>2012-04-20T09:38:13.000Z</time>
      </trkpt>
      <trkpt lat="43.7642" lon="7.14883">
        <ele>872</ele>
        <time>2012-04-20T09:38:18.000Z</time>
      </trkpt>
      <trkpt lat="43.76416" lon="7.14886">
        <ele>872</ele>
        <time>2012-04-20T09:38:23.000Z</time>
      </trkpt>
      <trkpt lat="43.76411" lon="7.14887">
        <ele>870</ele>
        <time>2012-04-20T09:38:29.000Z</time>
      </trkpt>
      <trkpt lat="43.76407" lon="7.1489">
        <ele>866</ele>
        <time>2012-04-20T09:38:37.000Z</time>
      </trkpt>
      <trkpt lat="43.76402" lon="7.14894">
        <ele>868</ele>
        <time>2012-04-20T09:38:45.000Z</time>
      </trkpt>
      <trkpt lat="43.76397" lon="7.14894">
        <ele>869</ele>
        <time>2012-04-20T09:38:53.000Z</time>
      </trkpt>
      <trkpt lat="43.76392" lon="7.14894">
        <ele>872</ele>
        <time>2012-04-20T09:39:07.000Z</time>
      </trkpt>
      <trkpt lat="43.76387" lon="7.14895">
        <ele>871</ele>
        <time>2012-04-20T09:39:11.000Z</time>
      </trkpt>
      <trkpt lat="43.76382" lon="7.14899">
        <ele>870</ele>
        <time>2012-04-20T09:39:17.000Z</time>
      </trkpt>
      <trkpt lat="43.76378" lon="7.14903">
        <ele>868</ele>
        <time>2012-04-20T09:39:24.000Z</time>
      </trkpt>
      <trkpt lat="43.76373" lon="7.14906">
        <ele>867</ele>
        <time>2012-04-20T09:39:30.000Z</time>
      </trkpt>
      <trkpt lat="43.76368" lon="7.14907">
        <ele>869</ele>
        <time>2012-04-20T09:39:37.000Z</time>
      </trkpt>
      <trkpt lat="43.76364" lon="7.1491">
        <ele>869</ele>
        <time>2012-04-20T09:39:45.000Z</time>
      </trkpt>
      <trkpt lat="43.76359" lon="7.1491">
        <ele>869</ele>
        <time>2012-04-20T09:39:52.000Z</time>
      </trkpt>
      <trkpt lat="43.76355" lon="7.1491">
        <ele>867</ele>
        <time>2012-04-20T09:39:58.000Z</time>
      </trkpt>
      <trkpt lat="43.7635" lon="7.14911">
        <ele>868</ele>
        <time>2012-04-20T09:40:03.000Z</time>
      </trkpt>
      <trkpt lat="43.76345" lon="7.14913">
        <ele>870</ele>
        <time>2012-04-20T09:40:09.000Z</time>
      </trkpt>
      <trkpt lat="43.7634" lon="7.14914">
        <ele>869</ele>
        <time>2012-04-20T09:40:14.000Z</time>
      </trkpt>
      <trkpt lat="43.76335" lon="7.14916">
        <ele>867</ele>
        <time>2012-04-20T09:40:20.000Z</time>
      </trkpt>
      <trkpt lat="43.7633" lon="7.14918">
        <ele>870</ele>
        <time>2012-04-20T09:40:25.000Z</time>
      </trkpt>
      <trkpt lat="43.76325" lon="7.1492">
        <ele>869</ele>
        <time>2012-04-20T09:40:30.000Z</time>
      </trkpt>
      <trkpt lat="43.7632" lon="7.14924">
        <ele>870</ele>
        <time>2012-04-20T09:40:35.000Z</time>
      </trkpt>
      <trkpt lat="43.76316" lon="7.14925">
        <ele>867</ele>
        <time>2012-04-20T09:40:57.000Z</time>
      </trkpt>
      <trkpt lat="43.76311" lon="7.14927">
        <ele>868</ele>
        <time>2012-04-20T09:41:03.000Z</time>
      </trkpt>
      <trkpt lat="43.76307" lon="7.14923">
        <ele>870</ele>
        <time>2012-04-20T09:41:09.000Z</time>
      </trkpt>
      <trkpt lat="43.76303" lon="7.1492">
        <ele>877</ele>
        <time>2012-04-20T09:41:33.000Z</time>
      </trkpt>
      <trkpt lat="43.76303" lon="7.1492">
        <ele>877</ele>
        <time>2012-04-20T09:41:33.000Z</time>
      </trkpt>
      <trkpt lat="43.76303" lon="7.1492">
        <ele>877</ele>
        <time>2012-04-20T09:41:43.000Z</time>
      </trkpt>
      <trkpt lat="43.76299" lon="7.14917">
        <ele>868</ele>
        <time>2012-04-20T09:42:25.000Z</time>
      </trkpt>
      <trkpt lat="43.76294" lon="7.14918">
        <ele>867</ele>
        <time>2012-04-20T09:42:30.000Z</time>
      </trkpt>
      <trkpt lat="43.76289" lon="7.14918">
        <ele>867</ele>
        <time>2012-04-20T09:42:35.000Z</time>
      </trkpt>
      <trkpt lat="43.76284" lon="7.14919">
        <ele>869</ele>
        <time>2012-04-20T09:42:41.000Z</time>
      </trkpt>
      <trkpt lat="43.76279" lon="7.14919">
        <ele>869</ele>
        <time>2012-04-20T09:42:46.000Z</time>
      </trkpt>
      <trkpt lat="43.76274" lon="7.1492">
        <ele>869</ele>
        <time>2012-04-20T09:42:53.000Z</time>
      </trkpt>
      <trkpt lat="43.7627" lon="7.14924">
        <ele>866</ele>
        <time>2012-04-20T09:43:00.000Z</time>
      </trkpt>
      <trkpt lat="43.76265" lon="7.14923">
        <ele>868</ele>
        <time>2012-04-20T09:43:08.000Z</time>
      </trkpt>
      <trkpt lat="43.7626" lon="7.14925">
        <ele>872</ele>
        <time>2012-04-20T09:43:15.000Z</time>
      </trkpt>
      <trkpt lat="43.76255" lon="7.14924">
        <ele>870</ele>
        <time>2012-04-20T09:43:23.000Z</time>
      </trkpt>
      <trkpt lat="43.76251" lon="7.14925">
        <ele>873</ele>
        <time>2012-04-20T09:43:33.000Z</time>
      </trkpt>
      <trkpt lat="43.76246" lon="7.14928">
        <ele>875</ele>
        <time>2012-04-20T09:43:41.000Z</time>
      </trkpt>
      <trkpt lat="43.76242" lon="7.14927">
        <ele>876</ele>
        <time>2012-04-20T09:43:50.000Z</time>
      </trkpt>
      <trkpt lat="43.76237" lon="7.14927">
        <ele>875</ele>
        <time>2012-04-20T09:43:59.000Z</time>
      </trkpt>
      <trkpt lat="43.76233" lon="7.14924">
        <ele>879</ele>
        <time>2012-04-20T09:44:08.000Z</time>
      </trkpt>
      <trkpt lat="43.76229" lon="7.14926">
        <ele>879</ele>
        <time>2012-04-20T09:44:46.000Z</time>
      </trkpt>
      <trkpt lat="43.76224" lon="7.14925">
        <ele>878</ele>
        <time>2012-04-20T09:44:51.000Z</time>
      </trkpt>
      <trkpt lat="43.76219" lon="7.14923">
        <ele>880</ele>
        <time>2012-04-20T09:44:57.000Z</time>
      </trkpt>
      <trkpt lat="43.76215" lon="7.14921">
        <ele>882</ele>
        <time>2012-04-20T09:45:04.000Z</time>
      </trkpt>
      <trkpt lat="43.7621" lon="7.14918">
        <ele>882</ele>
        <time>2012-04-20T09:45:10.000Z</time>
      </trkpt>
      <trkpt lat="43.76206" lon="7.14914">
        <ele>883</ele>
        <time>2012-04-20T09:45:17.000Z</time>
      </trkpt>
      <trkpt lat="43.76202" lon="7.14911">
        <ele>885</ele>
        <time>2012-04-20T09:45:23.000Z</time>
      </trkpt>
      <trkpt lat="43.76198" lon="7.14908">
        <ele>884</ele>
        <time>2012-04-20T09:45:30.000Z</time>
      </trkpt>
      <trkpt lat="43.76195" lon="7.14902">
        <ele>886</ele>
        <time>2012-04-20T09:45:36.000Z</time>
      </trkpt>
      <trkpt lat="43.76193" lon="7.14896">
        <ele>885</ele>
        <time>2012-04-20T09:45:46.000Z</time>
      </trkpt>
      <trkpt lat="43.76191" lon="7.1489">
        <ele>884</ele>
        <time>2012-04-20T09:45:55.000Z</time>
      </trkpt>
      <trkpt lat="43.76189" lon="7.14885">
        <ele>886</ele>
        <time>2012-04-20T09:49:03.000Z</time>
      </trkpt>
      <trkpt lat="43.76184" lon="7.14883">
        <ele>889</ele>
        <time>2012-04-20T09:49:09.000Z</time>
      </trkpt>
      <trkpt lat="43.7618" lon="7.1488">
        <ele>886</ele>
        <time>2012-04-20T09:49:16.000Z</time>
      </trkpt>
      <trkpt lat="43.76175" lon="7.1488">
        <ele>883</ele>
        <time>2012-04-20T09:49:32.000Z</time>
      </trkpt>
      <trkpt lat="43.7617" lon="7.14882">
        <ele>881</ele>
        <time>2012-04-20T09:49:38.000Z</time>
      </trkpt>
      <trkpt lat="43.76166" lon="7.14883">
        <ele>884</ele>
        <time>2012-04-20T09:49:43.000Z</time>
      </trkpt>
      <trkpt lat="43.7616" lon="7.14883">
        <ele>884</ele>
        <time>2012-04-20T09:49:48.000Z</time>
      </trkpt>
      <trkpt lat="43.76156" lon="7.14884">
        <ele>882</ele>
        <time>2012-04-20T09:49:53.000Z</time>
      </trkpt>
      <trkpt lat="43.76151" lon="7.14884">
        <ele>883</ele>
        <time>2012-04-20T09:49:58.000Z</time>
      </trkpt>
      <trkpt lat="43.76146" lon="7.14887">
        <ele>885</ele>
        <time>2012-04-20T09:50:03.000Z</time>
      </trkpt>
      <trkpt lat="43.76141" lon="7.14887">
        <ele>888</ele>
        <time>2012-04-20T09:50:08.000Z</time>
      </trkpt>
      <trkpt lat="43.76136" lon="7.14888">
        <ele>889</ele>
        <time>2012-04-20T09:50:14.000Z</time>
      </trkpt>
      <trkpt lat="43.76132" lon="7.14887">
        <ele>887</ele>
        <time>2012-04-20T09:50:21.000Z</time>
      </trkpt>
      <trkpt lat="43.76127" lon="7.14886">
        <ele>886</ele>
        <time>2012-04-20T09:50:28.000Z</time>
      </trkpt>
      <trkpt lat="43.76122" lon="7.14885">
        <ele>887</ele>
        <time>2012-04-20T09:50:36.000Z</time>
      </trkpt>
      <trkpt lat="43.76117" lon="7.14885">
        <ele>889</ele>
        <time>2012-04-20T09:50:43.000Z</time>
      </trkpt>
      <trkpt lat="43.76112" lon="7.14885">
        <ele>891</ele>
        <time>2012-04-20T09:50:51.000Z</time>
      </trkpt>
      <trkpt lat="43.76107" lon="7.14884">
        <ele>891</ele>
        <time>2012-04-20T09:50:56.000Z</time>
      </trkpt>
      <trkpt lat="43.76102" lon="7.14884">
        <ele>888</ele>
        <time>2012-04-20T09:51:03.000Z</time>
      </trkpt>
      <trkpt lat="43.76098" lon="7.14887">
        <ele>885</ele>
        <time>2012-04-20T09:51:24.000Z</time>
      </trkpt>
      <trkpt lat="43.76094" lon="7.14883">
        <ele>890</ele>
        <time>2012-04-20T09:52:35.000Z</time>
      </trkpt>
      <trkpt lat="43.76089" lon="7.14882">
        <ele>891</ele>
        <time>2012-04-20T09:52:41.000Z</time>
      </trkpt>
      <trkpt lat="43.76084" lon="7.14878">
        <ele>891</ele>
        <time>2012-04-20T09:52:47.000Z</time>
      </trkpt>
      <trkpt lat="43.76081" lon="7.14873">
        <ele>892</ele>
        <time>2012-04-20T09:52:55.000Z</time>
      </trkpt>
      <trkpt lat="43.76076" lon="7.14871">
        <ele>891</ele>
        <time>2012-04-20T09:53:03.000Z</time>
      </trkpt>
      <trkpt lat="43.76071" lon="7.14873">
        <ele>891</ele>
        <time>2012-04-20T09:53:10.000Z</time>
      </trkpt>
      <trkpt lat="43.76067" lon="7.14869">
        <ele>887</ele>
        <time>2012-04-20T09:53:17.000Z</time>
      </trkpt>
      <trkpt lat="43.76064" lon="7.14864">
        <ele>888</ele>
        <time>2012-04-20T09:53:23.000Z</time>
      </trkpt>
      <trkpt lat="43.76059" lon="7.14863">
        <ele>888</ele>
        <time>2012-04-20T09:53:32.000Z</time>
      </trkpt>
      <trkpt lat="43.76054" lon="7.14862">
        <ele>890</ele>
        <time>2012-04-20T09:53:39.000Z</time>
      </trkpt>
      <trkpt lat="43.7605" lon="7.1486">
        <ele>887</ele>
        <time>2012-04-20T09:53:47.000Z</time>
      </trkpt>
      <trkpt lat="43.76045" lon="7.14859">
        <ele>883</ele>
        <time>2012-04-20T09:54:08.000Z</time>
      </trkpt>
      <trkpt lat="43.7604" lon="7.14858">
        <ele>882</ele>
        <time>2012-04-20T09:54:14.000Z</time>
      </trkpt>
      <trkpt lat="43.76035" lon="7.14858">
        <ele>883</ele>
        <time>2012-04-20T09:54:20.000Z</time>
      </trkpt>
      <trkpt lat="43.76031" lon="7.14859">
        <ele>881</ele>
        <time>2012-04-20T09:54:27.000Z</time>
      </trkpt>
      <trkpt lat="43.76026" lon="7.14857">
        <ele>881</ele>
        <time>2012-04-20T09:54:33.000Z</time>
      </trkpt>
      <trkpt lat="43.76021" lon="7.14857">
        <ele>880</ele>
        <time>2012-04-20T09:54:38.000Z</time>
      </trkpt>
      <trkpt lat="43.76016" lon="7.14853">
        <ele>880</ele>
        <time>2012-04-20T09:54:44.000Z</time>
      </trkpt>
      <trkpt lat="43.76013" lon="7.14848">
        <ele>881</ele>
        <time>2012-04-20T09:54:49.000Z</time>
      </trkpt>
      <trkpt lat="43.76009" lon="7.14845">
        <ele>879</ele>
        <time>2012-04-20T09:54:57.000Z</time>
      </trkpt>
      <trkpt lat="43.76005" lon="7.14841">
        <ele>879</ele>
        <time>2012-04-20T09:55:02.000Z</time>
      </trkpt>
      <trkpt lat="43.76" lon="7.14842">
        <ele>876</ele>
        <time>2012-04-20T09:55:09.000Z</time>
      </trkpt>
      <trkpt lat="43.75995" lon="7.14842">
        <ele>877</ele>
        <time>2012-04-20T09:55:19.000Z</time>
      </trkpt>
      <trkpt lat="43.7599" lon="7.14844">
        <ele>876</ele>
        <time>2012-04-20T09:55:25.000Z</time>
      </trkpt>
      <trkpt lat="43.75986" lon="7.14848">
        <ele>874</ele>
        <time>2012-04-20T09:55:31.000Z</time>
      </trkpt>
      <trkpt lat="43.75982" lon="7.14851">
        <ele>871</ele>
        <time>2012-04-20T09:55:37.000Z</time>
      </trkpt>
      <trkpt lat="43.75977" lon="7.14854">
        <ele>870</ele>
        <time>2012-04-20T09:55:42.000Z</time>
      </trkpt>
      <trkpt lat="43.75973" lon="7.14856">
        <ele>871</ele>
        <time>2012-04-20T09:55:47.000Z</time>
      </trkpt>
      <trkpt lat="43.75969" lon="7.14859">
        <ele>872</ele>
        <time>2012-04-20T09:55:51.000Z</time>
      </trkpt>
      <trkpt lat="43.75965" lon="7.14863">
        <ele>875</ele>
        <time>2012-04-20T09:55:55.000Z</time>
      </trkpt>
      <trkpt lat="43.7596" lon="7.14865">
        <ele>873</ele>
        <time>2012-04-20T09:56:02.000Z</time>
      </trkpt>
      <trkpt lat="43.75955" lon="7.14864">
        <ele>873</ele>
        <time>2012-04-20T09:56:07.000Z</time>
      </trkpt>
      <trkpt lat="43.7595" lon="7.14863">
        <ele>874</ele>
        <time>2012-04-20T09:56:13.000Z</time>
      </trkpt>
      <trkpt lat="43.75944" lon="7.14864">
        <ele>870</ele>
        <time>2012-04-20T09:56:18.000Z</time>
      </trkpt>
      <trkpt lat="43.75939" lon="7.14862">
        <ele>870</ele>
        <time>2012-04-20T09:56:23.000Z</time>
      </trkpt>
      <trkpt lat="43.75935" lon="7.1486">
        <ele>874</ele>
        <time>2012-04-20T09:56:27.000Z</time>
      </trkpt>
      <trkpt lat="43.7593" lon="7.14858">
        <ele>872</ele>
        <time>2012-04-20T09:56:32.000Z</time>
      </trkpt>
      <trkpt lat="43.75926" lon="7.14853">
        <ele>874</ele>
        <time>2012-04-20T09:56:38.000Z</time>
      </trkpt>
      <trkpt lat="43.75921" lon="7.14851">
        <ele>872</ele>
        <time>2012-04-20T09:56:43.000Z</time>
      </trkpt>
      <trkpt lat="43.75917" lon="7.14847">
        <ele>868</ele>
        <time>2012-04-20T09:56:49.000Z</time>
      </trkpt>
      <trkpt lat="43.75913" lon="7.14844">
        <ele>868</ele>
        <time>2012-04-20T09:57:56.000Z</time>
      </trkpt>
      <trkpt lat="43.75908" lon="7.14844">
        <ele>869</ele>
        <time>2012-04-20T09:58:01.000Z</time>
      </trkpt>
      <trkpt lat="43.75903" lon="7.14844">
        <ele>867</ele>
        <time>2012-04-20T09:58:05.000Z</time>
      </trkpt>
      <trkpt lat="43.75898" lon="7.14848">
        <ele>864</ele>
        <time>2012-04-20T09:58:11.000Z</time>
      </trkpt>
      <trkpt lat="43.75894" lon="7.14851">
        <ele>863</ele>
        <time>2012-04-20T09:58:16.000Z</time>
      </trkpt>
      <trkpt lat="43.7589" lon="7.14853">
        <ele>864</ele>
        <time>2012-04-20T09:58:20.000Z</time>
      </trkpt>
      <trkpt lat="43.75885" lon="7.14855">
        <ele>867</ele>
        <time>2012-04-20T09:58:24.000Z</time>
      </trkpt>
      <trkpt lat="43.7588" lon="7.14858">
        <ele>865</ele>
        <time>2012-04-20T09:58:29.000Z</time>
      </trkpt>
      <trkpt lat="43.75875" lon="7.14861">
        <ele>865</ele>
        <time>2012-04-20T09:58:35.000Z</time>
      </trkpt>
      <trkpt lat="43.7587" lon="7.14864">
        <ele>867</ele>
        <time>2012-04-20T09:58:40.000Z</time>
      </trkpt>
      <trkpt lat="43.75864" lon="7.14865">
        <ele>867</ele>
        <time>2012-04-20T09:58:45.000Z</time>
      </trkpt>
      <trkpt lat="43.75859" lon="7.14866">
        <ele>869</ele>
        <time>2012-04-20T09:58:51.000Z</time>
      </trkpt>
      <trkpt lat="43.75854" lon="7.14867">
        <ele>869</ele>
        <time>2012-04-20T09:58:55.000Z</time>
      </trkpt>
      <trkpt lat="43.7585" lon="7.1487">
        <ele>866</ele>
        <time>2012-04-20T09:59:01.000Z</time>
      </trkpt>
      <trkpt lat="43.75846" lon="7.14874">
        <ele>870</ele>
        <time>2012-04-20T09:59:07.000Z</time>
      </trkpt>
      <trkpt lat="43.75843" lon="7.14879">
        <ele>868</ele>
        <time>2012-04-20T09:59:12.000Z</time>
      </trkpt>
      <trkpt lat="43.75841" lon="7.14885">
        <ele>864</ele>
        <time>2012-04-20T09:59:20.000Z</time>
      </trkpt>
      <trkpt lat="43.75837" lon="7.14887">
        <ele>865</ele>
        <time>2012-04-20T09:59:27.000Z</time>
      </trkpt>
      <trkpt lat="43.75832" lon="7.1489">
        <ele>865</ele>
        <time>2012-04-20T09:59:34.000Z</time>
      </trkpt>
      <trkpt lat="43.75828" lon="7.14894">
        <ele>865</ele>
        <time>2012-04-20T09:59:42.000Z</time>
      </trkpt>
      <trkpt lat="43.75824" lon="7.14896">
        <ele>868</ele>
        <time>2012-04-20T09:59:49.000Z</time>
      </trkpt>
      <trkpt lat="43.75819" lon="7.14896">
        <ele>864</ele>
        <time>2012-04-20T09:59:54.000Z</time>
      </trkpt>
      <trkpt lat="43.75814" lon="7.14898">
        <ele>865</ele>
        <time>2012-04-20T09:59:59.000Z</time>
      </trkpt>
      <trkpt lat="43.75809" lon="7.149">
        <ele>871</ele>
        <time>2012-04-20T10:00:05.000Z</time>
      </trkpt>
      <trkpt lat="43.75804" lon="7.149">
        <ele>867</ele>
        <time>2012-04-20T10:00:16.000Z</time>
      </trkpt>
      <trkpt lat="43.758" lon="7.14901">
        <ele>863</ele>
        <time>2012-04-20T10:00:22.000Z</time>
      </trkpt>
      <trkpt lat="43.75795" lon="7.149">
        <ele>863</ele>
        <time>2012-04-20T10:00:29.000Z</time>
      </trkpt>
      <trkpt lat="43.7579" lon="7.14898">
        <ele>861</ele>
        <time>2012-04-20T10:00:35.000Z</time>
      </trkpt>
      <trkpt lat="43.75785" lon="7.14896">
        <ele>862</ele>
        <time>2012-04-20T10:00:42.000Z</time>
      </trkpt>
      <trkpt lat="43.7578" lon="7.14897">
        <ele>863</ele>
        <time>2012-04-20T10:00:51.000Z</time>
      </trkpt>
      <trkpt lat="43.75775" lon="7.14897">
        <ele>864</ele>
        <time>2012-04-20T10:00:58.000Z</time>
      </trkpt>
      <trkpt lat="43.7577" lon="7.14899">
        <ele>867</ele>
        <time>2012-04-20T10:01:05.000Z</time>
      </trkpt>
      <trkpt lat="43.75765" lon="7.14896">
        <ele>860</ele>
        <time>2012-04-20T10:01:26.000Z</time>
      </trkpt>
      <trkpt lat="43.75761" lon="7.14894">
        <ele>860</ele>
        <time>2012-04-20T10:01:38.000Z</time>
      </trkpt>
      <trkpt lat="43.75756" lon="7.14896">
        <ele>856</ele>
        <time>2012-04-20T10:01:47.000Z</time>
      </trkpt>
      <trkpt lat="43.75752" lon="7.14898">
        <ele>859</ele>
        <time>2012-04-20T10:01:52.000Z</time>
      </trkpt>
      <trkpt lat="43.75747" lon="7.14896">
        <ele>851</ele>
        <time>2012-04-20T10:01:58.000Z</time>
      </trkpt>
      <trkpt lat="43.75743" lon="7.14892">
        <ele>852</ele>
        <time>2012-04-20T10:02:06.000Z</time>
      </trkpt>
      <trkpt lat="43.75739" lon="7.14888">
        <ele>854</ele>
        <time>2012-04-20T10:02:11.000Z</time>
      </trkpt>
      <trkpt lat="43.75735" lon="7.14887">
        <ele>856</ele>
        <time>2012-04-20T10:02:17.000Z</time>
      </trkpt>
      <trkpt lat="43.75731" lon="7.14883">
        <ele>851</ele>
        <time>2012-04-20T10:02:52.000Z</time>
      </trkpt>
      <trkpt lat="43.75734" lon="7.14878">
        <ele>848</ele>
        <time>2012-04-20T10:02:58.000Z</time>
      </trkpt>
      <trkpt lat="43.75735" lon="7.14871">
        <ele>852</ele>
        <time>2012-04-20T10:05:16.000Z</time>
      </trkpt>
      <trkpt lat="43.75735" lon="7.14871">
        <ele>852</ele>
        <time>2012-04-20T10:05:16.000Z</time>
      </trkpt>
      <trkpt lat="43.75735" lon="7.14871">
        <ele>852</ele>
        <time>2012-04-20T10:05:22.000Z</time>
      </trkpt>
      <trkpt lat="43.75734" lon="7.14865">
        <ele>842</ele>
        <time>2012-04-20T10:05:33.000Z</time>
      </trkpt>
      <trkpt lat="43.75734" lon="7.14857">
        <ele>843</ele>
        <time>2012-04-20T10:05:44.000Z</time>
      </trkpt>
      <trkpt lat="43.75736" lon="7.14852">
        <ele>843</ele>
        <time>2012-04-20T10:05:53.000Z</time>
      </trkpt>
      <trkpt lat="43.7574" lon="7.14847">
        <ele>842</ele>
        <time>2012-04-20T10:06:17.000Z</time>
      </trkpt>
      <trkpt lat="43.75742" lon="7.14841">
        <ele>845</ele>
        <time>2012-04-20T10:06:21.000Z</time>
      </trkpt>
      <trkpt lat="43.75742" lon="7.14834">
        <ele>846</ele>
        <time>2012-04-20T10:06:26.000Z</time>
      </trkpt>
      <trkpt lat="43.75742" lon="7.14826">
        <ele>844</ele>
        <time>2012-04-20T10:06:31.000Z</time>
      </trkpt>
      <trkpt lat="43.75741" lon="7.14818">
        <ele>843</ele>
        <time>2012-04-20T10:06:50.000Z</time>
      </trkpt>
      <trkpt lat="43.75738" lon="7.14811">
        <ele>845</ele>
        <time>2012-04-20T10:06:54.000Z</time>
      </trkpt>
      <trkpt lat="43.75743" lon="7.14813">
        <ele>844</ele>
        <time>2012-04-20T10:07:07.000Z</time>
      </trkpt>
      <trkpt lat="43.75747" lon="7.14809">
        <ele>845</ele>
        <time>2012-04-20T10:07:27.000Z</time>
      </trkpt>
      <trkpt lat="43.7575" lon="7.14803">
        <ele>848</ele>
        <time>2012-04-20T10:07:31.000Z</time>
      </trkpt>
      <trkpt lat="43.75753" lon="7.14798">
        <ele>846</ele>
        <time>2012-04-20T10:07:35.000Z</time>
      </trkpt>
      <trkpt lat="43.75756" lon="7.14794">
        <ele>841</ele>
        <time>2012-04-20T10:07:39.000Z</time>
      </trkpt>
      <trkpt lat="43.7576" lon="7.1479">
        <ele>843</ele>
        <time>2012-04-20T10:07:46.000Z</time>
      </trkpt>
      <trkpt lat="43.75763" lon="7.14785">
        <ele>842</ele>
        <time>2012-04-20T10:08:00.000Z</time>
      </trkpt>
      <trkpt lat="43.75766" lon="7.14779">
        <ele>847</ele>
        <time>2012-04-20T10:08:12.000Z</time>
      </trkpt>
      <trkpt lat="43.75769" lon="7.14775">
        <ele>847</ele>
        <time>2012-04-20T10:08:21.000Z</time>
      </trkpt>
      <trkpt lat="43.75771" lon="7.1477">
        <ele>850</ele>
        <time>2012-04-20T10:09:16.000Z</time>
      </trkpt>
      <trkpt lat="43.75767" lon="7.14771">
        <ele>845</ele>
        <time>2012-04-20T10:10:40.000Z</time>
      </trkpt>
      <trkpt lat="43.75771" lon="7.14766">
        <ele>850</ele>
        <time>2012-04-20T10:21:37.000Z</time>
      </trkpt>
      <trkpt lat="43.75771" lon="7.14766">
        <ele>850</ele>
        <time>2012-04-20T10:21:37.000Z</time>
      </trkpt>
      <trkpt lat="43.75771" lon="7.14766">
        <ele>845</ele>
        <time>2012-04-20T10:24:10.000Z</time>
      </trkpt>
      <trkpt lat="43.75774" lon="7.14772">
        <ele>834</ele>
        <time>2012-04-20T10:25:08.887Z</time>
      </trkpt>
      <trkpt lat="43.75774" lon="7.14772">
        <ele>834</ele>
        <time>2012-04-20T10:25:08.887Z</time>
      </trkpt>
      <trkpt lat="43.75774" lon="7.14772">
        <ele>834</ele>
        <time>2012-04-20T10:25:16.887Z</time>
      </trkpt>
      <trkpt lat="43.7577" lon="7.14766">
        <ele>846</ele>
        <time>2012-04-20T10:25:18.000Z</time>
      </trkpt>
      <trkpt lat="43.7577" lon="7.14766">
        <ele>846</ele>
        <time>2012-04-20T10:25:18.000Z</time>
      </trkpt>
      <trkpt lat="43.7577" lon="7.14766">
        <ele>846</ele>
        <time>2012-04-20T10:25:31.000Z</time>
      </trkpt>
      <trkpt lat="43.75766" lon="7.14775">
        <ele>838</ele>
        <time>2012-04-20T10:31:07.875Z</time>
      </trkpt>
      <trkpt lat="43.75766" lon="7.14775">
        <ele>838</ele>
        <time>2012-04-20T10:31:07.875Z</time>
      </trkpt>
      <trkpt lat="43.75766" lon="7.14775">
        <ele>838</ele>
        <time>2012-04-20T10:31:36.000Z</time>
      </trkpt>
      <trkpt lat="43.75769" lon="7.14765">
        <ele>840</ele>
        <time>2012-04-20T10:32:20.000Z</time>
      </trkpt>
      <trkpt lat="43.75772" lon="7.14766">
        <ele>845</ele>
        <time>2012-04-20T10:35:20.000Z</time>
      </trkpt>
      <trkpt lat="43.75772" lon="7.14766">
        <ele>845</ele>
        <time>2012-04-20T10:35:20.000Z</time>
      </trkpt>
      <trkpt lat="43.75772" lon="7.14766">
        <ele>840</ele>
        <time>2012-04-20T10:35:48.000Z</time>
      </trkpt>
      <trkpt lat="43.75772" lon="7.14766">
        <ele>840</ele>
        <time>2012-04-20T10:35:50.000Z</time>
      </trkpt>
      <trkpt lat="43.75772" lon="7.14766">
        <ele>840</ele>
        <time>2012-04-20T10:35:50.000Z</time>
      </trkpt>
      <trkpt lat="43.75772" lon="7.14766">
        <ele>843</ele>
        <time>2012-04-20T10:36:44.000Z</time>
      </trkpt>
      <trkpt lat="43.75772" lon="7.14766">
        <ele>844</ele>
        <time>2012-04-20T10:36:46.000Z</time>
      </trkpt>
      <trkpt lat="43.75772" lon="7.14766">
        <ele>844</ele>
        <time>2012-04-20T10:36:46.000Z</time>
      </trkpt>
      <trkpt lat="43.75772" lon="7.14766">
        <ele>843</ele>
        <time>2012-04-20T10:37:43.000Z</time>
      </trkpt>
      <trkpt lat="43.75772" lon="7.14766">
        <ele>843</ele>
        <time>2012-04-20T10:37:45.000Z</time>
      </trkpt>
      <trkpt lat="43.75772" lon="7.14766">
        <ele>843</ele>
        <time>2012-04-20T10:37:45.000Z</time>
      </trkpt>
      <trkpt lat="43.75772" lon="7.14766">
        <ele>844</ele>
        <time>2012-04-20T10:37:49.000Z</time>
      </trkpt>
      <trkpt lat="43.75764" lon="7.14773">
        <ele>834</ele>
        <time>2012-04-20T10:38:07.000Z</time>
      </trkpt>
      <trkpt lat="43.75769" lon="7.14767">
        <ele>842</ele>
        <time>2012-04-20T10:39:04.000Z</time>
      </trkpt>
      <trkpt lat="43.75771" lon="7.14768">
        <ele>838</ele>
        <time>2012-04-20T10:40:51.000Z</time>
      </trkpt>
      <trkpt lat="43.75771" lon="7.14768">
        <ele>838</ele>
        <time>2012-04-20T10:40:51.000Z</time>
      </trkpt>
      <trkpt lat="43.75771" lon="7.14768">
        <ele>844</ele>
        <time>2012-04-20T10:41:03.000Z</time>
      </trkpt>
      <trkpt lat="43.7577" lon="7.14777">
        <ele>842</ele>
        <time>2012-04-20T10:41:25.000Z</time>
      </trkpt>
      <trkpt lat="43.75765" lon="7.14782">
        <ele>840</ele>
        <time>2012-04-20T10:42:19.000Z</time>
      </trkpt>
      <trkpt lat="43.75765" lon="7.14789">
        <ele>850</ele>
        <time>2012-04-20T10:52:45.000Z</time>
      </trkpt>
      <trkpt lat="43.75761" lon="7.14792">
        <ele>846</ele>
        <time>2012-04-20T10:53:07.000Z</time>
      </trkpt>
      <trkpt lat="43.75761" lon="7.14792">
        <ele>846</ele>
        <time>2012-04-20T10:53:07.000Z</time>
      </trkpt>
      <trkpt lat="43.75761" lon="7.14792">
        <ele>846</ele>
        <time>2012-04-20T10:30:46.000Z</time>
      </trkpt>
      <trkpt lat="43.75758" lon="7.14797">
        <ele>843</ele>
        <time>2012-04-20T10:53:35.000Z</time>
      </trkpt>
      <trkpt lat="43.75756" lon="7.14803">
        <ele>841</ele>
        <time>2012-04-20T10:53:45.000Z</time>
      </trkpt>
      <trkpt lat="43.75753" lon="7.14808">
        <ele>841</ele>
        <time>2012-04-20T10:24:11.000Z</time>
      </trkpt>
      <trkpt lat="43.75749" lon="7.14812">
        <ele>846</ele>
        <time>2012-04-20T10:24:11.000Z</time>
      </trkpt>
      <trkpt lat="43.75749" lon="7.14812">
        <ele>846</ele>
        <time>2012-04-20T10:24:11.000Z</time>
      </trkpt>
      <trkpt lat="43.75749" lon="7.14812">
        <ele>846</ele>
        <time>2012-04-20T10:30:46.000Z</time>
      </trkpt>
      <trkpt lat="43.75746" lon="7.14818">
        <ele>853</ele>
        <time>2012-04-20T10:54:48.000Z</time>
      </trkpt>
      <trkpt lat="43.75746" lon="7.14818">
        <ele>853</ele>
        <time>2012-04-20T10:54:48.000Z</time>
      </trkpt>
      <trkpt lat="43.75746" lon="7.14818">
        <ele>853</ele>
        <time>2012-04-20T10:30:46.000Z</time>
      </trkpt>
      <trkpt lat="43.75744" lon="7.14824">
        <ele>851</ele>
        <time>2012-04-20T10:55:02.000Z</time>
      </trkpt>
      <trkpt lat="43.75741" lon="7.14829">
        <ele>846</ele>
        <time>2012-04-20T10:24:11.000Z</time>
      </trkpt>
      <trkpt lat="43.75738" lon="7.14834">
        <ele>842</ele>
        <time>2012-04-20T10:55:25.000Z</time>
      </trkpt>
      <trkpt lat="43.75736" lon="7.1484">
        <ele>842</ele>
        <time>2012-04-20T10:55:37.000Z</time>
      </trkpt>
      <trkpt lat="43.75734" lon="7.14846">
        <ele>853</ele>
        <time>2012-04-20T10:55:46.000Z</time>
      </trkpt>
      <trkpt lat="43.75732" lon="7.14852">
        <ele>856</ele>
        <time>2012-04-20T10:24:11.000Z</time>
      </trkpt>
      <trkpt lat="43.75732" lon="7.14852">
        <ele>856</ele>
        <time>2012-04-20T10:24:11.000Z</time>
      </trkpt>
      <trkpt lat="43.75732" lon="7.14852">
        <ele>856</ele>
        <time>2012-04-20T10:30:46.000Z</time>
      </trkpt>
      <trkpt lat="43.7573" lon="7.14859">
        <ele>854</ele>
        <time>2012-04-20T10:24:11.000Z</time>
      </trkpt>
      <trkpt lat="43.75735" lon="7.14861">
        <ele>867</ele>
        <time>2012-04-20T10:57:53.000Z</time>
      </trkpt>
      <trkpt lat="43.75739" lon="7.14861">
        <ele>868</ele>
        <time>2012-04-20T10:58:09.000Z</time>
      </trkpt>
      <trkpt lat="43.75744" lon="7.14861">
        <ele>864</ele>
        <time>2012-04-20T10:58:37.000Z</time>
      </trkpt>
      <trkpt lat="43.75749" lon="7.14862">
        <ele>865</ele>
        <time>2012-04-20T10:58:55.000Z</time>
      </trkpt>
      <trkpt lat="43.75754" lon="7.14862">
        <ele>868</ele>
        <time>2012-04-20T10:59:16.000Z</time>
      </trkpt>
      <trkpt lat="43.75758" lon="7.14864">
        <ele>866</ele>
        <time>2012-04-20T11:00:46.000Z</time>
      </trkpt>
      <trkpt lat="43.75846" lon="7.1488">
        <ele>860</ele>
        <time>2012-04-20T11:00:58.000Z</time>
      </trkpt>
      <trkpt lat="43.75759" lon="7.14864">
        <ele>865</ele>
        <time>2012-04-20T10:30:46.000Z</time>
      </trkpt>
      <trkpt lat="43.75759" lon="7.14864">
        <ele>865</ele>
        <time>2012-04-20T10:30:46.000Z</time>
      </trkpt>
      <trkpt lat="43.75759" lon="7.14864">
        <ele>865</ele>
        <time>2012-04-20T10:30:46.000Z</time>
      </trkpt>
      <trkpt lat="43.75764" lon="7.14864">
        <ele>863</ele>
        <time>2012-04-20T10:24:11.000Z</time>
      </trkpt>
      <trkpt lat="43.75764" lon="7.14864">
        <ele>863</ele>
        <time>2012-04-20T10:24:11.000Z</time>
      </trkpt>
      <trkpt lat="43.75764" lon="7.14864">
        <ele>863</ele>
        <time>2012-04-20T10:30:46.000Z</time>
      </trkpt>
      <trkpt lat="43.75768" lon="7.14866">
        <ele>863</ele>
        <time>2012-04-20T11:02:15.000Z</time>
      </trkpt>
      <trkpt lat="43.75773" lon="7.14866">
        <ele>864</ele>
        <time>2012-04-20T11:02:23.000Z</time>
      </trkpt>
      <trkpt lat="43.75778" lon="7.14866">
        <ele>864</ele>
        <time>2012-04-20T11:02:30.000Z</time>
      </trkpt>
      <trkpt lat="43.75866" lon="7.14864">
        <ele>866</ele>
        <time>2012-04-20T11:02:31.000Z</time>
      </trkpt>
      <trkpt lat="43.75778" lon="7.14866">
        <ele>864</ele>
        <time>2012-04-20T10:30:46.000Z</time>
      </trkpt>
      <trkpt lat="43.75783" lon="7.14866">
        <ele>863</ele>
        <time>2012-04-20T11:02:38.000Z</time>
      </trkpt>
      <trkpt lat="43.75789" lon="7.14866">
        <ele>863</ele>
        <time>2012-04-20T11:02:46.000Z</time>
      </trkpt>
      <trkpt lat="43.75794" lon="7.14866">
        <ele>869</ele>
        <time>2012-04-20T11:02:54.000Z</time>
      </trkpt>
      <trkpt lat="43.75798" lon="7.14866">
        <ele>868</ele>
        <time>2012-04-20T11:03:00.000Z</time>
      </trkpt>
      <trkpt lat="43.75803" lon="7.14866">
        <ele>866</ele>
        <time>2012-04-20T11:03:06.000Z</time>
      </trkpt>
      <trkpt lat="43.7581" lon="7.14865">
        <ele>868</ele>
        <time>2012-04-20T11:03:16.000Z</time>
      </trkpt>
      <trkpt lat="43.75815" lon="7.14864">
        <ele>871</ele>
        <time>2012-04-20T11:03:23.000Z</time>
      </trkpt>
      <trkpt lat="43.7582" lon="7.14864">
        <ele>869</ele>
        <time>2012-04-20T11:03:29.000Z</time>
      </trkpt>
      <trkpt lat="43.75825" lon="7.14863">
        <ele>870</ele>
        <time>2012-04-20T11:03:36.000Z</time>
      </trkpt>
      <trkpt lat="43.75832" lon="7.14862">
        <ele>871</ele>
        <time>2012-04-20T11:03:45.000Z</time>
      </trkpt>
      <trkpt lat="43.75836" lon="7.14861">
        <ele>870</ele>
        <time>2012-04-20T11:03:51.000Z</time>
      </trkpt>
      <trkpt lat="43.75841" lon="7.14859">
        <ele>867</ele>
        <time>2012-04-20T11:03:58.000Z</time>
      </trkpt>
      <trkpt lat="43.75846" lon="7.14858">
        <ele>866</ele>
        <time>2012-04-20T11:04:04.000Z</time>
      </trkpt>
      <trkpt lat="43.7585" lon="7.14856">
        <ele>867</ele>
        <time>2012-04-20T10:24:11.000Z</time>
      </trkpt>
      <trkpt lat="43.75856" lon="7.14854">
        <ele>868</ele>
        <time>2012-04-20T11:04:18.000Z</time>
      </trkpt>
      <trkpt lat="43.7586" lon="7.14852">
        <ele>863</ele>
        <time>2012-04-20T11:04:26.000Z</time>
      </trkpt>
      <trkpt lat="43.75865" lon="7.1485">
        <ele>863</ele>
        <time>2012-04-20T10:24:11.000Z</time>
      </trkpt>
      <trkpt lat="43.7587" lon="7.14848">
        <ele>862</ele>
        <time>2012-04-20T11:04:40.000Z</time>
      </trkpt>
      <trkpt lat="43.75874" lon="7.14846">
        <ele>861</ele>
        <time>2012-04-20T10:24:11.000Z</time>
      </trkpt>
      <trkpt lat="43.75879" lon="7.14844">
        <ele>860</ele>
        <time>2012-04-20T10:24:11.000Z</time>
      </trkpt>
      <trkpt lat="43.75883" lon="7.14842">
        <ele>874</ele>
        <time>2012-04-20T11:05:03.000Z</time>
      </trkpt>
      <trkpt lat="43.75887" lon="7.14839">
        <ele>875</ele>
        <time>2012-04-20T11:05:11.000Z</time>
      </trkpt>
      <trkpt lat="43.75893" lon="7.14835">
        <ele>876</ele>
        <time>2012-04-20T11:05:21.000Z</time>
      </trkpt>
      <trkpt lat="43.75897" lon="7.14832">
        <ele>877</ele>
        <time>2012-04-20T11:05:28.000Z</time>
      </trkpt>
      <trkpt lat="43.75902" lon="7.1483">
        <ele>875</ele>
        <time>2012-04-20T11:05:36.000Z</time>
      </trkpt>
      <trkpt lat="43.75906" lon="7.14827">
        <ele>874</ele>
        <time>2012-04-20T11:05:44.000Z</time>
      </trkpt>
      <trkpt lat="43.75911" lon="7.14824">
        <ele>876</ele>
        <time>2012-04-20T11:05:52.000Z</time>
      </trkpt>
      <trkpt lat="43.75916" lon="7.14821">
        <ele>870</ele>
        <time>2012-04-20T11:05:59.000Z</time>
      </trkpt>
      <trkpt lat="43.7592" lon="7.14818">
        <ele>870</ele>
        <time>2012-04-20T11:06:06.000Z</time>
      </trkpt>
      <trkpt lat="43.75924" lon="7.14815">
        <ele>869</ele>
        <time>2012-04-20T11:06:13.000Z</time>
      </trkpt>
      <trkpt lat="43.75928" lon="7.14812">
        <ele>869</ele>
        <time>2012-04-20T11:06:21.000Z</time>
      </trkpt>
      <trkpt lat="43.75932" lon="7.14808">
        <ele>866</ele>
        <time>2012-04-20T11:06:42.000Z</time>
      </trkpt>
      <trkpt lat="43.75933" lon="7.14802">
        <ele>855</ele>
        <time>2012-04-20T11:06:56.000Z</time>
      </trkpt>
      <trkpt lat="43.75936" lon="7.14796">
        <ele>858</ele>
        <time>2012-04-20T10:24:11.000Z</time>
      </trkpt>
      <trkpt lat="43.75939" lon="7.14791">
        <ele>861</ele>
        <time>2012-04-20T11:07:15.000Z</time>
      </trkpt>
      <trkpt lat="43.75943" lon="7.14786">
        <ele>857</ele>
        <time>2012-04-20T11:07:24.000Z</time>
      </trkpt>
      <trkpt lat="43.75946" lon="7.14781">
        <ele>861</ele>
        <time>2012-04-20T11:07:40.000Z</time>
      </trkpt>
      <trkpt lat="43.75946" lon="7.14781">
        <ele>861</ele>
        <time>2012-04-20T11:07:40.000Z</time>
      </trkpt>
      <trkpt lat="43.75946" lon="7.14781">
        <ele>861</ele>
        <time>2012-04-20T10:30:46.000Z</time>
      </trkpt>
      <trkpt lat="43.75948" lon="7.14775">
        <ele>856</ele>
        <time>2012-04-20T11:07:52.000Z</time>
      </trkpt>
      <trkpt lat="43.75948" lon="7.14775">
        <ele>856</ele>
        <time>2012-04-20T11:07:52.000Z</time>
      </trkpt>
      <trkpt lat="43.75948" lon="7.14775">
        <ele>856</ele>
        <time>2012-04-20T10:30:46.000Z</time>
      </trkpt>
      <trkpt lat="43.75951" lon="7.14771">
        <ele>847</ele>
        <time>2012-04-20T10:24:11.000Z</time>
      </trkpt>
      <trkpt lat="43.75951" lon="7.14771">
        <ele>847</ele>
        <time>2012-04-20T10:24:11.000Z</time>
      </trkpt>
      <trkpt lat="43.75951" lon="7.14771">
        <ele>847</ele>
        <time>2012-04-20T10:30:46.000Z</time>
      </trkpt>
      <trkpt lat="43.75954" lon="7.14766">
        <ele>855</ele>
        <time>2012-04-20T11:08:49.000Z</time>
      </trkpt>
      <trkpt lat="43.75958" lon="7.14761">
        <ele>856</ele>
        <time>2012-04-20T11:08:57.000Z</time>
      </trkpt>
      <trkpt lat="43.75961" lon="7.14757">
        <ele>853</ele>
        <time>2012-04-20T11:09:04.000Z</time>
      </trkpt>
      <trkpt lat="43.75965" lon="7.14753">
        <ele>856</ele>
        <time>2012-04-20T11:09:13.000Z</time>
      </trkpt>
      <trkpt lat="43.75965" lon="7.14753">
        <ele>856</ele>
        <time>2012-04-20T11:09:13.000Z</time>
      </trkpt>
      <trkpt lat="43.75965" lon="7.14753">
        <ele>856</ele>
        <time>2012-04-20T10:30:46.000Z</time>
      </trkpt>
      <trkpt lat="43.75968" lon="7.14749">
        <ele>851</ele>
        <time>2012-04-20T11:09:23.000Z</time>
      </trkpt>
      <trkpt lat="43.75971" lon="7.14744">
        <ele>849</ele>
        <time>2012-04-20T11:09:32.000Z</time>
      </trkpt>
      <trkpt lat="43.75976" lon="7.1474">
        <ele>849</ele>
        <time>2012-04-20T10:24:11.000Z</time>
      </trkpt>
      <trkpt lat="43.7598" lon="7.14736">
        <ele>829</ele>
        <time>2012-04-20T11:10:14.000Z</time>
      </trkpt>
      <trkpt lat="43.75983" lon="7.14732">
        <ele>830</ele>
        <time>2012-04-20T11:11:21.000Z</time>
      </trkpt>
      <trkpt lat="43.75983" lon="7.14732">
        <ele>830</ele>
        <time>2012-04-20T11:11:21.000Z</time>
      </trkpt>
      <trkpt lat="43.75983" lon="7.14732">
        <ele>830</ele>
        <time>2012-04-20T10:30:46.000Z</time>
      </trkpt>
      <trkpt lat="43.75979" lon="7.14728">
        <ele>821</ele>
        <time>2012-04-20T11:13:35.000Z</time>
      </trkpt>
      <trkpt lat="43.75977" lon="7.14722">
        <ele>822</ele>
        <time>2012-04-20T10:24:11.000Z</time>
      </trkpt>
      <trkpt lat="43.75973" lon="7.14719">
        <ele>815</ele>
        <time>2012-04-20T10:24:11.000Z</time>
      </trkpt>
      <trkpt lat="43.75975" lon="7.14713">
        <ele>824</ele>
        <time>2012-04-20T10:24:11.000Z</time>
      </trkpt>
      <trkpt lat="43.75978" lon="7.14709">
        <ele>821</ele>
        <time>2012-04-20T10:30:46.000Z</time>
      </trkpt>
      <trkpt lat="43.75982" lon="7.14705">
        <ele>836</ele>
        <time>2012-04-20T11:15:49.000Z</time>
      </trkpt>
      <trkpt lat="43.75985" lon="7.147">
        <ele>822</ele>
        <time>2012-04-20T10:24:11.000Z</time>
      </trkpt>
      <trkpt lat="43.76033" lon="7.1461">
        <ele>825</ele>
        <time>2012-04-20T11:16:06.000Z</time>
      </trkpt>
      <trkpt lat="43.76029" lon="7.14607">
        <ele>803</ele>
        <time>2012-04-20T10:24:11.000Z</time>
      </trkpt>
      <trkpt lat="43.76025" lon="7.14608">
        <ele>802</ele>
        <time>2012-04-20T11:16:54.000Z</time>
      </trkpt>
      <trkpt lat="43.76025" lon="7.14608">
        <ele>802</ele>
        <time>2012-04-20T11:16:54.000Z</time>
      </trkpt>
      <trkpt lat="43.76025" lon="7.14608">
        <ele>802</ele>
        <time>2012-04-20T10:30:46.000Z</time>
      </trkpt>
      <trkpt lat="43.7602" lon="7.14606">
        <ele>800</ele>
        <time>2012-04-20T10:24:11.000Z</time>
      </trkpt>
      <trkpt lat="43.76016" lon="7.14606">
        <ele>801</ele>
        <time>2012-04-20T11:17:24.000Z</time>
      </trkpt>
      <trkpt lat="43.76011" lon="7.14605">
        <ele>799</ele>
        <time>2012-04-20T10:24:11.000Z</time>
      </trkpt>
      <trkpt lat="43.76006" lon="7.14606">
        <ele>799</ele>
        <time>2012-04-20T10:24:11.000Z</time>
      </trkpt>
      <trkpt lat="43.76001" lon="7.14605">
        <ele>795</ele>
        <time>2012-04-20T11:17:59.000Z</time>
      </trkpt>
      <trkpt lat="43.75997" lon="7.14605">
        <ele>791</ele>
        <time>2012-04-20T10:24:11.000Z</time>
      </trkpt>
      <trkpt lat="43.75992" lon="7.14605">
        <ele>791</ele>
        <time>2012-04-20T10:24:11.000Z</time>
      </trkpt>
      <trkpt lat="43.75988" lon="7.14604">
        <ele>785</ele>
        <time>2012-04-20T10:24:11.000Z</time>
      </trkpt>
      <trkpt lat="43.75983" lon="7.14572">
        <ele>792</ele>
        <time>2012-04-20T11:19:06.000Z</time>
      </trkpt>
      <trkpt lat="43.75979" lon="7.1457">
        <ele>784</ele>
        <time>2012-04-20T11:19:53.000Z</time>
      </trkpt>
      <trkpt lat="43.75975" lon="7.14564">
        <ele>780</ele>
        <time>2012-04-20T11:20:06.000Z</time>
      </trkpt>
      <trkpt lat="43.75971" lon="7.14562">
        <ele>779</ele>
        <time>2012-04-20T11:20:19.000Z</time>
      </trkpt>
      <trkpt lat="43.75966" lon="7.14563">
        <ele>780</ele>
        <time>2012-04-20T10:24:11.000Z</time>
      </trkpt>
      <trkpt lat="43.75962" lon="7.14556">
        <ele>778</ele>
        <time>2012-04-20T11:21:06.000Z</time>
      </trkpt>
      <trkpt lat="43.75962" lon="7.14554">
        <ele>781</ele>
        <time>2012-04-20T11:21:27.000Z</time>
      </trkpt>
      <trkpt lat="43.75962" lon="7.14548">
        <ele>779</ele>
        <time>2012-04-20T11:21:40.000Z</time>
      </trkpt>
      <trkpt lat="43.75961" lon="7.14542">
        <ele>785</ele>
        <time>2012-04-20T11:22:00.000Z</time>
      </trkpt>
      <trkpt lat="43.75963" lon="7.14536">
        <ele>783</ele>
        <time>2012-04-20T11:22:06.000Z</time>
      </trkpt>
      <trkpt lat="43.75964" lon="7.1453">
        <ele>772</ele>
        <time>2012-04-20T11:22:46.000Z</time>
      </trkpt>
      <trkpt lat="43.75958" lon="7.1453">
        <ele>785</ele>
        <time>2012-04-20T11:23:12.000Z</time>
      </trkpt>
      <trkpt lat="43.75954" lon="7.14529">
        <ele>765</ele>
        <time>2012-04-20T10:30:46.000Z</time>
      </trkpt>
      <trkpt lat="43.75949" lon="7.14528">
        <ele>764</ele>
        <time>2012-04-20T11:24:52.000Z</time>
      </trkpt>
      <trkpt lat="43.75945" lon="7.14529">
        <ele>767</ele>
        <time>2012-04-20T11:25:02.000Z</time>
      </trkpt>
      <trkpt lat="43.75938" lon="7.14523">
        <ele>765</ele>
        <time>2012-04-20T11:25:06.000Z</time>
      </trkpt>
      <trkpt lat="43.75937" lon="7.14522">
        <ele>780</ele>
        <time>2012-04-20T11:25:20.000Z</time>
      </trkpt>
      <trkpt lat="43.75937" lon="7.14522">
        <ele>780</ele>
        <time>2012-04-20T11:25:20.000Z</time>
      </trkpt>
      <trkpt lat="43.75937" lon="7.14522">
        <ele>762</ele>
        <time>2012-04-20T11:25:38.000Z</time>
      </trkpt>
      <trkpt lat="43.75936" lon="7.14518">
        <ele>757</ele>
        <time>2012-04-20T11:26:10.000Z</time>
      </trkpt>
      <trkpt lat="43.75936" lon="7.14518">
        <ele>757</ele>
        <time>2012-04-20T11:26:10.000Z</time>
      </trkpt>
      <trkpt lat="43.75936" lon="7.14518">
        <ele>754</ele>
        <time>2012-04-20T11:26:18.000Z</time>
      </trkpt>
      <trkpt lat="43.75933" lon="7.14522">
        <ele>763</ele>
        <time>2012-04-20T11:27:01.000Z</time>
      </trkpt>
      <trkpt lat="43.75929" lon="7.14516">
        <ele>761</ele>
        <time>2012-04-20T11:28:06.000Z</time>
      </trkpt>
      <trkpt lat="43.75925" lon="7.14513">
        <ele>759</ele>
        <time>2012-04-20T11:28:12.000Z</time>
      </trkpt>
      <trkpt lat="43.7592" lon="7.14511">
        <ele>747</ele>
        <time>2012-04-20T10:24:11.000Z</time>
      </trkpt>
      <trkpt lat="43.75921" lon="7.14505">
        <ele>754</ele>
        <time>2012-04-20T11:28:48.000Z</time>
      </trkpt>
      <trkpt lat="43.75934" lon="7.14489">
        <ele>745</ele>
        <time>2012-04-20T11:29:06.000Z</time>
      </trkpt>
      <trkpt lat="43.75929" lon="7.1449">
        <ele>748</ele>
        <time>2012-04-20T11:29:21.000Z</time>
      </trkpt>
      <trkpt lat="43.75925" lon="7.14486">
        <ele>747</ele>
        <time>2012-04-20T10:30:46.000Z</time>
      </trkpt>
      <trkpt lat="43.75925" lon="7.14486">
        <ele>747</ele>
        <time>2012-04-20T10:30:46.000Z</time>
      </trkpt>
      <trkpt lat="43.75925" lon="7.14486">
        <ele>747</ele>
        <time>2012-04-20T10:30:46.000Z</time>
      </trkpt>
      <trkpt lat="43.75932" lon="7.14465">
        <ele>748</ele>
        <time>2012-04-20T11:30:06.000Z</time>
      </trkpt>
      <trkpt lat="43.75934" lon="7.1446">
        <ele>751</ele>
        <time>2012-04-20T11:30:24.000Z</time>
      </trkpt>
      <trkpt lat="43.75941" lon="7.14451">
        <ele>733</ele>
        <time>2012-04-20T11:31:06.000Z</time>
      </trkpt>
      <trkpt lat="43.7594" lon="7.1445">
        <ele>742</ele>
        <time>2012-04-20T11:31:16.000Z</time>
      </trkpt>
      <trkpt lat="43.7594" lon="7.1445">
        <ele>742</ele>
        <time>2012-04-20T11:31:16.000Z</time>
      </trkpt>
      <trkpt lat="43.7594" lon="7.1445">
        <ele>742</ele>
        <time>2012-04-20T11:31:17.000Z</time>
      </trkpt>
      <trkpt lat="43.75939" lon="7.14444">
        <ele>732</ele>
        <time>2012-04-20T10:30:46.000Z</time>
      </trkpt>
      <trkpt lat="43.75935" lon="7.14443">
        <ele>732</ele>
        <time>2012-04-20T11:32:04.000Z</time>
      </trkpt>
      <trkpt lat="43.7593" lon="7.14442">
        <ele>732</ele>
        <time>2012-04-20T11:32:10.000Z</time>
      </trkpt>
      <trkpt lat="43.75926" lon="7.14443">
        <ele>725</ele>
        <time>2012-04-20T11:32:21.000Z</time>
      </trkpt>
      <trkpt lat="43.75921" lon="7.14443">
        <ele>731</ele>
        <time>2012-04-20T10:24:11.000Z</time>
      </trkpt>
      <trkpt lat="43.75913" lon="7.14436">
        <ele>728</ele>
        <time>2012-04-20T11:33:07.000Z</time>
      </trkpt>
      <trkpt lat="43.75913" lon="7.14436">
        <ele>727</ele>
        <time>2012-04-20T11:33:10.000Z</time>
      </trkpt>
      <trkpt lat="43.75908" lon="7.14436">
        <ele>726</ele>
        <time>2012-04-20T10:24:11.000Z</time>
      </trkpt>
      <trkpt lat="43.75904" lon="7.14435">
        <ele>722</ele>
        <time>2012-04-20T10:24:11.000Z</time>
      </trkpt>
      <trkpt lat="43.75899" lon="7.14435">
        <ele>718</ele>
        <time>2012-04-20T10:24:11.000Z</time>
      </trkpt>
      <trkpt lat="43.75897" lon="7.14424">
        <ele>719</ele>
        <time>2012-04-20T11:34:07.000Z</time>
      </trkpt>
      <trkpt lat="43.75897" lon="7.14417">
        <ele>722</ele>
        <time>2012-04-20T11:34:24.000Z</time>
      </trkpt>
      <trkpt lat="43.75893" lon="7.14418">
        <ele>718</ele>
        <time>2012-04-20T10:24:11.000Z</time>
      </trkpt>
      <trkpt lat="43.75888" lon="7.14416">
        <ele>715</ele>
        <time>2012-04-20T11:35:07.000Z</time>
      </trkpt>
      <trkpt lat="43.75887" lon="7.14409">
        <ele>716</ele>
        <time>2012-04-20T11:35:32.000Z</time>
      </trkpt>
      <trkpt lat="43.75885" lon="7.14404">
        <ele>717</ele>
        <time>2012-04-20T10:24:11.000Z</time>
      </trkpt>
      <trkpt lat="43.75895" lon="7.14378">
        <ele>722</ele>
        <time>2012-04-20T11:36:07.000Z</time>
      </trkpt>
      <trkpt lat="43.75897" lon="7.14372">
        <ele>714</ele>
        <time>2012-04-20T11:36:23.000Z</time>
      </trkpt>
      <trkpt lat="43.759" lon="7.14366">
        <ele>709</ele>
        <time>2012-04-20T11:36:35.000Z</time>
      </trkpt>
      <trkpt lat="43.75903" lon="7.14361">
        <ele>706</ele>
        <time>2012-04-20T11:36:59.000Z</time>
      </trkpt>
      <trkpt lat="43.75905" lon="7.14354">
        <ele>709</ele>
        <time>2012-04-20T11:37:30.000Z</time>
      </trkpt>
      <trkpt lat="43.75906" lon="7.14348">
        <ele>718</ele>
        <time>2012-04-20T10:24:11.000Z</time>
      </trkpt>
      <trkpt lat="43.75923" lon="7.14324">
        <ele>698</ele>
        <time>2012-04-20T11:38:07.000Z</time>
      </trkpt>
      <trkpt lat="43.75918" lon="7.14324">
        <ele>696</ele>
        <time>2012-04-20T11:38:30.000Z</time>
      </trkpt>
      <trkpt lat="43.75922" lon="7.14312">
        <ele>696</ele>
        <time>2012-04-20T11:39:07.000Z</time>
      </trkpt>
      <trkpt lat="43.75919" lon="7.14307">
        <ele>688</ele>
        <time>2012-04-20T11:39:37.000Z</time>
      </trkpt>
      <trkpt lat="43.75914" lon="7.14307">
        <ele>688</ele>
        <time>2012-04-20T11:39:46.000Z</time>
      </trkpt>
      <trkpt lat="43.7591" lon="7.14308">
        <ele>690</ele>
        <time>2012-04-20T11:39:56.000Z</time>
      </trkpt>
      <trkpt lat="43.75905" lon="7.14309">
        <ele>689</ele>
        <time>2012-04-20T10:24:11.000Z</time>
      </trkpt>
      <trkpt lat="43.75899" lon="7.14308">
        <ele>688</ele>
        <time>2012-04-20T11:40:07.000Z</time>
      </trkpt>
      <trkpt lat="43.75895" lon="7.14308">
        <ele>686</ele>
        <time>2012-04-20T10:24:11.000Z</time>
      </trkpt>
      <trkpt lat="43.75892" lon="7.14302">
        <ele>687</ele>
        <time>2012-04-20T10:24:11.000Z</time>
      </trkpt>
      <trkpt lat="43.75888" lon="7.143">
        <ele>689</ele>
        <time>2012-04-20T10:24:11.000Z</time>
      </trkpt>
      <trkpt lat="43.75883" lon="7.14301">
        <ele>689</ele>
        <time>2012-04-20T11:40:36.000Z</time>
      </trkpt>
      <trkpt lat="43.75879" lon="7.14303">
        <ele>694</ele>
        <time>2012-04-20T11:41:02.000Z</time>
      </trkpt>
      <trkpt lat="43.75867" lon="7.14304">
        <ele>684</ele>
        <time>2012-04-20T11:41:07.000Z</time>
      </trkpt>
      <trkpt lat="43.75862" lon="7.14306">
        <ele>686</ele>
        <time>2012-04-20T11:41:12.000Z</time>
      </trkpt>
      <trkpt lat="43.75857" lon="7.14308">
        <ele>688</ele>
        <time>2012-04-20T11:41:18.000Z</time>
      </trkpt>
      <trkpt lat="43.75852" lon="7.1431">
        <ele>683</ele>
        <time>2012-04-20T10:24:11.000Z</time>
      </trkpt>
      <trkpt lat="43.75848" lon="7.14311">
        <ele>681</ele>
        <time>2012-04-20T11:41:30.000Z</time>
      </trkpt>
      <trkpt lat="43.75843" lon="7.14313">
        <ele>679</ele>
        <time>2012-04-20T11:41:37.000Z</time>
      </trkpt>
      <trkpt lat="43.75839" lon="7.14314">
        <ele>678</ele>
        <time>2012-04-20T10:24:11.000Z</time>
      </trkpt>
      <trkpt lat="43.75839" lon="7.14314">
        <ele>678</ele>
        <time>2012-04-20T10:24:11.000Z</time>
      </trkpt>
      <trkpt lat="43.75839" lon="7.14314">
        <ele>678</ele>
        <time>2012-04-20T10:30:46.000Z</time>
      </trkpt>
      <trkpt lat="43.75834" lon="7.14316">
        <ele>682</ele>
        <time>2012-04-20T10:24:11.000Z</time>
      </trkpt>
      <trkpt lat="43.7583" lon="7.14319">
        <ele>686</ele>
        <time>2012-04-20T11:42:02.000Z</time>
      </trkpt>
      <trkpt lat="43.75807" lon="7.14327">
        <ele>684</ele>
        <time>2012-04-20T11:42:07.000Z</time>
      </trkpt>
      <trkpt lat="43.75802" lon="7.1433">
        <ele>682</ele>
        <time>2012-04-20T11:42:12.000Z</time>
      </trkpt>
      <trkpt lat="43.75797" lon="7.14334">
        <ele>684</ele>
        <time>2012-04-20T11:42:18.000Z</time>
      </trkpt>
      <trkpt lat="43.75793" lon="7.14337">
        <ele>686</ele>
        <time>2012-04-20T10:24:11.000Z</time>
      </trkpt>
      <trkpt lat="43.75788" lon="7.14338">
        <ele>680</ele>
        <time>2012-04-20T11:42:32.000Z</time>
      </trkpt>
      <trkpt lat="43.75784" lon="7.1434">
        <ele>685</ele>
        <time>2012-04-20T10:24:11.000Z</time>
      </trkpt>
      <trkpt lat="43.75779" lon="7.14342">
        <ele>681</ele>
        <time>2012-04-20T11:42:48.000Z</time>
      </trkpt>
      <trkpt lat="43.75775" lon="7.14343">
        <ele>683</ele>
        <time>2012-04-20T11:42:56.000Z</time>
      </trkpt>
      <trkpt lat="43.7577" lon="7.14344">
        <ele>684</ele>
        <time>2012-04-20T11:43:04.000Z</time>
      </trkpt>
      <trkpt lat="43.75765" lon="7.14345">
        <ele>681</ele>
        <time>2012-04-20T11:43:14.000Z</time>
      </trkpt>
      <trkpt lat="43.75761" lon="7.14346">
        <ele>676</ele>
        <time>2012-04-20T10:24:11.000Z</time>
      </trkpt>
      <trkpt lat="43.75756" lon="7.14346">
        <ele>679</ele>
        <time>2012-04-20T11:43:31.000Z</time>
      </trkpt>
      <trkpt lat="43.75751" lon="7.14347">
        <ele>670</ele>
        <time>2012-04-20T10:24:11.000Z</time>
      </trkpt>
      <trkpt lat="43.75746" lon="7.14347">
        <ele>675</ele>
        <time>2012-04-20T10:24:11.000Z</time>
      </trkpt>
      <trkpt lat="43.75723" lon="7.14324">
        <ele>673</ele>
        <time>2012-04-20T11:44:00.000Z</time>
      </trkpt>
      <trkpt lat="43.75718" lon="7.14319">
        <ele>672</ele>
        <time>2012-04-20T11:44:07.000Z</time>
      </trkpt>
      <trkpt lat="43.75713" lon="7.14319">
        <ele>671</ele>
        <time>2012-04-20T10:24:11.000Z</time>
      </trkpt>
      <trkpt lat="43.75709" lon="7.14321">
        <ele>673</ele>
        <time>2012-04-20T10:24:11.000Z</time>
      </trkpt>
      <trkpt lat="43.75704" lon="7.14321">
        <ele>668</ele>
        <time>2012-04-20T10:24:11.000Z</time>
      </trkpt>
      <trkpt lat="43.75699" lon="7.1432">
        <ele>670</ele>
        <time>2012-04-20T10:30:46.000Z</time>
      </trkpt>
      <trkpt lat="43.75695" lon="7.14321">
        <ele>670</ele>
        <time>2012-04-20T10:24:11.000Z</time>
      </trkpt>
      <trkpt lat="43.75687" lon="7.14313">
        <ele>672</ele>
        <time>2012-04-20T11:45:07.000Z</time>
      </trkpt>
      <trkpt lat="43.75682" lon="7.14315">
        <ele>671</ele>
        <time>2012-04-20T11:45:12.000Z</time>
      </trkpt>
      <trkpt lat="43.75677" lon="7.14318">
        <ele>670</ele>
        <time>2012-04-20T11:45:20.000Z</time>
      </trkpt>
      <trkpt lat="43.75673" lon="7.14321">
        <ele>666</ele>
        <time>2012-04-20T11:45:31.000Z</time>
      </trkpt>
      <trkpt lat="43.75669" lon="7.14323">
        <ele>665</ele>
        <time>2012-04-20T11:45:42.000Z</time>
      </trkpt>
      <trkpt lat="43.75665" lon="7.14326">
        <ele>662</ele>
        <time>2012-04-20T10:24:11.000Z</time>
      </trkpt>
      <trkpt lat="43.7566" lon="7.14328">
        <ele>662</ele>
        <time>2012-04-20T11:46:00.000Z</time>
      </trkpt>
      <trkpt lat="43.75649" lon="7.14325">
        <ele>662</ele>
        <time>2012-04-20T11:46:07.000Z</time>
      </trkpt>
      <trkpt lat="43.75645" lon="7.14323">
        <ele>675</ele>
        <time>2012-04-20T11:46:26.000Z</time>
      </trkpt>
      <trkpt lat="43.75645" lon="7.14323">
        <ele>675</ele>
        <time>2012-04-20T11:46:26.000Z</time>
      </trkpt>
      <trkpt lat="43.75645" lon="7.14323">
        <ele>677</ele>
        <time>2012-04-20T11:46:36.000Z</time>
      </trkpt>
      <trkpt lat="43.7564" lon="7.14322">
        <ele>657</ele>
        <time>2012-04-20T11:47:39.000Z</time>
      </trkpt>
      <trkpt lat="43.7564" lon="7.14322">
        <ele>657</ele>
        <time>2012-04-20T11:47:39.000Z</time>
      </trkpt>
      <trkpt lat="43.7564" lon="7.14322">
        <ele>657</ele>
        <time>2012-04-20T10:30:46.000Z</time>
      </trkpt>
      <trkpt lat="43.75636" lon="7.14325">
        <ele>658</ele>
        <time>2012-04-20T10:24:11.000Z</time>
      </trkpt>
      <trkpt lat="43.75631" lon="7.14327">
        <ele>660</ele>
        <time>2012-04-20T10:24:11.000Z</time>
      </trkpt>
      <trkpt lat="43.75627" lon="7.1433">
        <ele>656</ele>
        <time>2012-04-20T10:24:11.000Z</time>
      </trkpt>
      <trkpt lat="43.75623" lon="7.14333">
        <ele>656</ele>
        <time>2012-04-20T10:30:46.000Z</time>
      </trkpt>
      <trkpt lat="43.75619" lon="7.14335">
        <ele>654</ele>
        <time>2012-04-20T10:24:11.000Z</time>
      </trkpt>
      <trkpt lat="43.75614" lon="7.14337">
        <ele>654</ele>
        <time>2012-04-20T11:48:32.000Z</time>
      </trkpt>
      <trkpt lat="43.7561" lon="7.14339">
        <ele>652</ele>
        <time>2012-04-20T10:24:11.000Z</time>
      </trkpt>
      <trkpt lat="43.75606" lon="7.14341">
        <ele>648</ele>
        <time>2012-04-20T10:30:46.000Z</time>
      </trkpt>
      <trkpt lat="43.75601" lon="7.14343">
        <ele>653</ele>
        <time>2012-04-20T11:48:58.000Z</time>
      </trkpt>
      <trkpt lat="43.75596" lon="7.14345">
        <ele>647</ele>
        <time>2012-04-20T10:24:11.000Z</time>
      </trkpt>
      <trkpt lat="43.75592" lon="7.14347">
        <ele>649</ele>
        <time>2012-04-20T11:49:13.000Z</time>
      </trkpt>
      <trkpt lat="43.75588" lon="7.14348">
        <ele>651</ele>
        <time>2012-04-20T10:24:11.000Z</time>
      </trkpt>
      <trkpt lat="43.75583" lon="7.14349">
        <ele>649</ele>
        <time>2012-04-20T10:30:46.000Z</time>
      </trkpt>
      <trkpt lat="43.75578" lon="7.1435">
        <ele>645</ele>
        <time>2012-04-20T11:49:39.000Z</time>
      </trkpt>
      <trkpt lat="43.75573" lon="7.14353">
        <ele>647</ele>
        <time>2012-04-20T11:49:48.000Z</time>
      </trkpt>
      <trkpt lat="43.75568" lon="7.14354">
        <ele>648</ele>
        <time>2012-04-20T11:49:56.000Z</time>
      </trkpt>
      <trkpt lat="43.75546" lon="7.14337">
        <ele>644</ele>
        <time>2012-04-20T11:50:07.000Z</time>
      </trkpt>
      <trkpt lat="43.75541" lon="7.14336">
        <ele>643</ele>
        <time>2012-04-20T11:50:20.000Z</time>
      </trkpt>
      <trkpt lat="43.75537" lon="7.14337">
        <ele>646</ele>
        <time>2012-04-20T10:24:11.000Z</time>
      </trkpt>
      <trkpt lat="43.75533" lon="7.1434">
        <ele>641</ele>
        <time>2012-04-20T10:24:11.000Z</time>
      </trkpt>
      <trkpt lat="43.75528" lon="7.14342">
        <ele>644</ele>
        <time>2012-04-20T10:24:11.000Z</time>
      </trkpt>
      <trkpt lat="43.7552" lon="7.14339">
        <ele>644</ele>
        <time>2012-04-20T11:51:07.000Z</time>
      </trkpt>
      <trkpt lat="43.75516" lon="7.1434">
        <ele>632</ele>
        <time>2012-04-20T11:51:32.000Z</time>
      </trkpt>
      <trkpt lat="43.75511" lon="7.14337">
        <ele>635</ele>
        <time>2012-04-20T11:51:42.000Z</time>
      </trkpt>
      <trkpt lat="43.75506" lon="7.14336">
        <ele>632</ele>
        <time>2012-04-20T11:51:53.000Z</time>
      </trkpt>
      <trkpt lat="43.75502" lon="7.14337">
        <ele>634</ele>
        <time>2012-04-20T10:24:11.000Z</time>
      </trkpt>
      <trkpt lat="43.75492" lon="7.14331">
        <ele>632</ele>
        <time>2012-04-20T11:52:07.000Z</time>
      </trkpt>
      <trkpt lat="43.75489" lon="7.14327">
        <ele>628</ele>
        <time>2012-04-20T11:52:17.000Z</time>
      </trkpt>
      <trkpt lat="43.75484" lon="7.14326">
        <ele>628</ele>
        <time>2012-04-20T10:24:11.000Z</time>
      </trkpt>
      <trkpt lat="43.7548" lon="7.14327">
        <ele>629</ele>
        <time>2012-04-20T10:24:11.000Z</time>
      </trkpt>
      <trkpt lat="43.75469" lon="7.14323">
        <ele>630</ele>
        <time>2012-04-20T11:53:07.000Z</time>
      </trkpt>
      <trkpt lat="43.75469" lon="7.14323">
        <ele>630</ele>
        <time>2012-04-20T11:53:07.000Z</time>
      </trkpt>
      <trkpt lat="43.75469" lon="7.14323">
        <ele>638</ele>
        <time>2012-04-20T11:53:10.000Z</time>
      </trkpt>
      <trkpt lat="43.75465" lon="7.1432">
        <ele>628</ele>
        <time>2012-04-20T10:24:11.000Z</time>
      </trkpt>
      <trkpt lat="43.75461" lon="7.14317">
        <ele>627</ele>
        <time>2012-04-20T11:53:29.000Z</time>
      </trkpt>
      <trkpt lat="43.75457" lon="7.14313">
        <ele>633</ele>
        <time>2012-04-20T11:53:36.000Z</time>
      </trkpt>
      <trkpt lat="43.75453" lon="7.14313">
        <ele>622</ele>
        <time>2012-04-20T10:24:11.000Z</time>
      </trkpt>
      <trkpt lat="43.75448" lon="7.14312">
        <ele>626</ele>
        <time>2012-04-20T10:24:11.000Z</time>
      </trkpt>
      <trkpt lat="43.75443" lon="7.14311">
        <ele>630</ele>
        <time>2012-04-20T11:54:29.000Z</time>
      </trkpt>
      <trkpt lat="43.75439" lon="7.1431">
        <ele>618</ele>
        <time>2012-04-20T10:24:11.000Z</time>
      </trkpt>
      <trkpt lat="43.75408" lon="7.14276">
        <ele>620</ele>
        <time>2012-04-20T11:55:08.000Z</time>
      </trkpt>
      <trkpt lat="43.75403" lon="7.14274">
        <ele>618</ele>
        <time>2012-04-20T11:55:13.000Z</time>
      </trkpt>
      <trkpt lat="43.75403" lon="7.14274">
        <ele>618</ele>
        <time>2012-04-20T11:55:13.000Z</time>
      </trkpt>
      <trkpt lat="43.75403" lon="7.14274">
        <ele>618</ele>
        <time>2012-04-20T10:30:46.000Z</time>
      </trkpt>
      <trkpt lat="43.75399" lon="7.14272">
        <ele>616</ele>
        <time>2012-04-20T10:24:11.000Z</time>
      </trkpt>
      <trkpt lat="43.75394" lon="7.14272">
        <ele>614</ele>
        <time>2012-04-20T11:55:40.000Z</time>
      </trkpt>
      <trkpt lat="43.7539" lon="7.14272">
        <ele>613</ele>
        <time>2012-04-20T11:55:51.000Z</time>
      </trkpt>
      <trkpt lat="43.75385" lon="7.14273">
        <ele>619</ele>
        <time>2012-04-20T10:24:11.000Z</time>
      </trkpt>
      <trkpt lat="43.75372" lon="7.14265">
        <ele>615</ele>
        <time>2012-04-20T11:56:08.000Z</time>
      </trkpt>
      <trkpt lat="43.75368" lon="7.14264">
        <ele>612</ele>
        <time>2012-04-20T11:56:18.000Z</time>
      </trkpt>
      <trkpt lat="43.75363" lon="7.14264">
        <ele>618</ele>
        <time>2012-04-20T10:24:11.000Z</time>
      </trkpt>
      <trkpt lat="43.75355" lon="7.14266">
        <ele>642</ele>
        <time>2012-04-20T11:57:08.000Z</time>
      </trkpt>
      <trkpt lat="43.75355" lon="7.14266">
        <ele>642</ele>
        <time>2012-04-20T11:57:08.000Z</time>
      </trkpt>
      <trkpt lat="43.75355" lon="7.14266">
        <ele>635</ele>
        <time>2012-04-20T11:58:23.000Z</time>
      </trkpt>
      <trkpt lat="43.75356" lon="7.14271">
        <ele>623</ele>
        <time>2012-04-20T10:24:11.000Z</time>
      </trkpt>
      <trkpt lat="43.75357" lon="7.14278">
        <ele>617</ele>
        <time>2012-04-20T11:58:40.000Z</time>
      </trkpt>
      <trkpt lat="43.75357" lon="7.14278">
        <ele>617</ele>
        <time>2012-04-20T11:58:40.000Z</time>
      </trkpt>
      <trkpt lat="43.75357" lon="7.14278">
        <ele>617</ele>
        <time>2012-04-20T10:30:46.000Z</time>
      </trkpt>
      <trkpt lat="43.7536" lon="7.14284">
        <ele>615</ele>
        <time>2012-04-20T11:58:49.000Z</time>
      </trkpt>
      <trkpt lat="43.7536" lon="7.1429">
        <ele>608</ele>
        <time>2012-04-20T11:59:01.000Z</time>
      </trkpt>
      <trkpt lat="43.75365" lon="7.14291">
        <ele>611</ele>
        <time>2012-04-20T11:59:03.000Z</time>
      </trkpt>
      <trkpt lat="43.7538" lon="7.14299">
        <ele>611</ele>
        <time>2012-04-20T11:59:08.000Z</time>
      </trkpt>
      <trkpt lat="43.75383" lon="7.14303">
        <ele>621</ele>
        <time>2012-04-20T10:24:11.000Z</time>
      </trkpt>
      <trkpt lat="43.75379" lon="7.14308">
        <ele>592</ele>
        <time>2012-04-20T11:59:41.000Z</time>
      </trkpt>
      <trkpt lat="43.75376" lon="7.14302">
        <ele>599</ele>
        <time>2012-04-20T12:00:09.000Z</time>
      </trkpt>
      <trkpt lat="43.75371" lon="7.143">
        <ele>600</ele>
        <time>2012-04-20T12:00:12.000Z</time>
      </trkpt>
      <trkpt lat="43.75366" lon="7.14299">
        <ele>595</ele>
        <time>2012-04-20T12:00:25.000Z</time>
      </trkpt>
      <trkpt lat="43.75362" lon="7.14297">
        <ele>594</ele>
        <time>2012-04-20T12:00:35.000Z</time>
      </trkpt>
      <trkpt lat="43.75357" lon="7.14298">
        <ele>583</ele>
        <time>2012-04-20T10:24:11.000Z</time>
      </trkpt>
      <trkpt lat="43.75353" lon="7.14298">
        <ele>584</ele>
        <time>2012-04-20T10:24:11.000Z</time>
      </trkpt>
      <trkpt lat="43.75342" lon="7.14285">
        <ele>583</ele>
        <time>2012-04-20T12:01:08.000Z</time>
      </trkpt>
      <trkpt lat="43.75337" lon="7.14284">
        <ele>586</ele>
        <time>2012-04-20T12:01:12.000Z</time>
      </trkpt>
      <trkpt lat="43.75332" lon="7.14283">
        <ele>585</ele>
        <time>2012-04-20T12:01:16.000Z</time>
      </trkpt>
      <trkpt lat="43.75328" lon="7.14284">
        <ele>599</ele>
        <time>2012-04-20T12:01:24.000Z</time>
      </trkpt>
      <trkpt lat="43.75323" lon="7.14286">
        <ele>596</ele>
        <time>2012-04-20T10:24:11.000Z</time>
      </trkpt>
      <trkpt lat="43.75316" lon="7.14284">
        <ele>596</ele>
        <time>2012-04-20T10:24:11.000Z</time>
      </trkpt>
      <trkpt lat="43.75311" lon="7.14284">
        <ele>596</ele>
        <time>2012-04-20T12:01:49.000Z</time>
      </trkpt>
      <trkpt lat="43.75306" lon="7.14284">
        <ele>596</ele>
        <time>2012-04-20T12:01:59.000Z</time>
      </trkpt>
      <trkpt lat="43.75306" lon="7.14284">
        <ele>596</ele>
        <time>2012-04-20T12:01:59.000Z</time>
      </trkpt>
      <trkpt lat="43.75306" lon="7.14284">
        <ele>596</ele>
        <time>2012-04-20T10:30:46.000Z</time>
      </trkpt>
      <trkpt lat="43.75301" lon="7.14284">
        <ele>594</ele>
        <time>2012-04-20T12:02:07.000Z</time>
      </trkpt>
      <trkpt lat="43.75297" lon="7.14262">
        <ele>593</ele>
        <time>2012-04-20T12:02:08.000Z</time>
      </trkpt>
      <trkpt lat="43.75292" lon="7.14262">
        <ele>598</ele>
        <time>2012-04-20T12:02:14.000Z</time>
      </trkpt>
      <trkpt lat="43.75287" lon="7.14261">
        <ele>600</ele>
        <time>2012-04-20T12:02:24.000Z</time>
      </trkpt>
      <trkpt lat="43.75283" lon="7.1426">
        <ele>594</ele>
        <time>2012-04-20T12:02:34.000Z</time>
      </trkpt>
      <trkpt lat="43.75278" lon="7.1426">
        <ele>598</ele>
        <time>2012-04-20T10:24:11.000Z</time>
      </trkpt>
      <trkpt lat="43.75274" lon="7.14259">
        <ele>592</ele>
        <time>2012-04-20T10:24:11.000Z</time>
      </trkpt>
      <trkpt lat="43.75269" lon="7.14259">
        <ele>595</ele>
        <time>2012-04-20T10:24:11.000Z</time>
      </trkpt>
      <trkpt lat="43.75264" lon="7.1426">
        <ele>593</ele>
        <time>2012-04-20T10:24:11.000Z</time>
      </trkpt>
      <trkpt lat="43.7526" lon="7.1426">
        <ele>587</ele>
        <time>2012-04-20T10:24:11.000Z</time>
      </trkpt>
      <trkpt lat="43.75255" lon="7.1426">
        <ele>579</ele>
        <time>2012-04-20T12:03:49.000Z</time>
      </trkpt>
      <trkpt lat="43.7525" lon="7.1426">
        <ele>582</ele>
        <time>2012-04-20T12:04:00.000Z</time>
      </trkpt>
      <trkpt lat="43.7523" lon="7.14244">
        <ele>583</ele>
        <time>2012-04-20T12:04:09.000Z</time>
      </trkpt>
      <trkpt lat="43.75225" lon="7.14244">
        <ele>579</ele>
        <time>2012-04-20T10:30:46.000Z</time>
      </trkpt>
      <trkpt lat="43.7522" lon="7.14246">
        <ele>585</ele>
        <time>2012-04-20T12:04:32.000Z</time>
      </trkpt>
      <trkpt lat="43.7522" lon="7.14246">
        <ele>585</ele>
        <time>2012-04-20T12:04:32.000Z</time>
      </trkpt>
      <trkpt lat="43.7522" lon="7.14246">
        <ele>585</ele>
        <time>2012-04-20T10:30:46.000Z</time>
      </trkpt>
      <trkpt lat="43.75216" lon="7.14246">
        <ele>585</ele>
        <time>2012-04-20T12:04:53.000Z</time>
      </trkpt>
      <trkpt lat="43.75211" lon="7.14245">
        <ele>576</ele>
        <time>2012-04-20T12:05:02.000Z</time>
      </trkpt>
      <trkpt lat="43.75201" lon="7.14228">
        <ele>579</ele>
        <time>2012-04-20T12:05:08.000Z</time>
      </trkpt>
      <trkpt lat="43.75196" lon="7.14225">
        <ele>577</ele>
        <time>2012-04-20T12:05:12.000Z</time>
      </trkpt>
      <trkpt lat="43.75192" lon="7.14224">
        <ele>575</ele>
        <time>2012-04-20T10:24:11.000Z</time>
      </trkpt>
      <trkpt lat="43.75188" lon="7.14222">
        <ele>579</ele>
        <time>2012-04-20T10:24:11.000Z</time>
      </trkpt>
      <trkpt lat="43.75183" lon="7.14222">
        <ele>578</ele>
        <time>2012-04-20T12:05:36.000Z</time>
      </trkpt>
      <trkpt lat="43.75178" lon="7.14222">
        <ele>572</ele>
        <time>2012-04-20T10:30:46.000Z</time>
      </trkpt>
      <trkpt lat="43.75174" lon="7.14222">
        <ele>576</ele>
        <time>2012-04-20T12:05:54.000Z</time>
      </trkpt>
      <trkpt lat="43.75169" lon="7.14222">
        <ele>572</ele>
        <time>2012-04-20T10:24:11.000Z</time>
      </trkpt>
      <trkpt lat="43.75152" lon="7.14199">
        <ele>570</ele>
        <time>2012-04-20T12:06:09.000Z</time>
      </trkpt>
      <trkpt lat="43.75147" lon="7.14196">
        <ele>570</ele>
        <time>2012-04-20T12:06:14.000Z</time>
      </trkpt>
      <trkpt lat="43.75142" lon="7.14193">
        <ele>570</ele>
        <time>2012-04-20T12:06:24.000Z</time>
      </trkpt>
      <trkpt lat="43.75137" lon="7.14191">
        <ele>568</ele>
        <time>2012-04-20T12:06:31.000Z</time>
      </trkpt>
      <trkpt lat="43.75132" lon="7.1419">
        <ele>570</ele>
        <time>2012-04-20T12:06:40.000Z</time>
      </trkpt>
      <trkpt lat="43.75128" lon="7.14189">
        <ele>565</ele>
        <time>2012-04-20T10:24:11.000Z</time>
      </trkpt>
      <trkpt lat="43.75123" lon="7.14188">
        <ele>568</ele>
        <time>2012-04-20T12:06:58.000Z</time>
      </trkpt>
      <trkpt lat="43.75118" lon="7.14188">
        <ele>564</ele>
        <time>2012-04-20T10:24:11.000Z</time>
      </trkpt>
      <trkpt lat="43.75108" lon="7.1418">
        <ele>568</ele>
        <time>2012-04-20T12:07:09.000Z</time>
      </trkpt>
      <trkpt lat="43.75104" lon="7.1418">
        <ele>573</ele>
        <time>2012-04-20T12:07:19.000Z</time>
      </trkpt>
      <trkpt lat="43.75099" lon="7.1418">
        <ele>567</ele>
        <time>2012-04-20T10:24:11.000Z</time>
      </trkpt>
      <trkpt lat="43.75094" lon="7.1418">
        <ele>569</ele>
        <time>2012-04-20T10:24:11.000Z</time>
      </trkpt>
      <trkpt lat="43.7509" lon="7.1418">
        <ele>566</ele>
        <time>2012-04-20T10:24:11.000Z</time>
      </trkpt>
      <trkpt lat="43.75085" lon="7.1418">
        <ele>559</ele>
        <time>2012-04-20T10:24:11.000Z</time>
      </trkpt>
      <trkpt lat="43.75073" lon="7.1417">
        <ele>559</ele>
        <time>2012-04-20T12:08:09.000Z</time>
      </trkpt>
      <trkpt lat="43.75068" lon="7.1417">
        <ele>562</ele>
        <time>2012-04-20T12:08:19.000Z</time>
      </trkpt>
      <trkpt lat="43.75064" lon="7.1417">
        <ele>561</ele>
        <time>2012-04-20T12:08:32.000Z</time>
      </trkpt>
      <trkpt lat="43.75059" lon="7.14171">
        <ele>560</ele>
        <time>2012-04-20T12:08:44.000Z</time>
      </trkpt>
      <trkpt lat="43.75054" lon="7.14171">
        <ele>548</ele>
        <time>2012-04-20T10:24:11.000Z</time>
      </trkpt>
      <trkpt lat="43.75046" lon="7.14165">
        <ele>550</ele>
        <time>2012-04-20T12:09:09.000Z</time>
      </trkpt>
      <trkpt lat="43.75042" lon="7.14163">
        <ele>552</ele>
        <time>2012-04-20T12:09:38.000Z</time>
      </trkpt>
      <trkpt lat="43.75037" lon="7.14162">
        <ele>553</ele>
        <time>2012-04-20T12:09:47.000Z</time>
      </trkpt>
      <trkpt lat="43.75032" lon="7.1416">
        <ele>550</ele>
        <time>2012-04-20T12:09:55.000Z</time>
      </trkpt>
      <trkpt lat="43.75021" lon="7.14152">
        <ele>548</ele>
        <time>2012-04-20T12:10:05.000Z</time>
      </trkpt>
      <trkpt lat="43.75018" lon="7.1415">
        <ele>548</ele>
        <time>2012-04-20T12:10:09.000Z</time>
      </trkpt>
      <trkpt lat="43.75015" lon="7.14146">
        <ele>547</ele>
        <time>2012-04-20T12:10:28.000Z</time>
      </trkpt>
      <trkpt lat="43.7501" lon="7.14145">
        <ele>540</ele>
        <time>2012-04-20T12:10:37.000Z</time>
      </trkpt>
      <trkpt lat="43.75006" lon="7.14147">
        <ele>546</ele>
        <time>2012-04-20T10:24:11.000Z</time>
      </trkpt>
      <trkpt lat="43.75001" lon="7.14149">
        <ele>540</ele>
        <time>2012-04-20T12:10:58.000Z</time>
      </trkpt>
      <trkpt lat="43.74997" lon="7.14152">
        <ele>546</ele>
        <time>2012-04-20T10:24:11.000Z</time>
      </trkpt>
      <trkpt lat="43.74993" lon="7.14153">
        <ele>546</ele>
        <time>2012-04-20T10:24:11.000Z</time>
      </trkpt>
      <trkpt lat="43.74988" lon="7.14154">
        <ele>543</ele>
        <time>2012-04-20T12:11:39.000Z</time>
      </trkpt>
      <trkpt lat="43.74983" lon="7.14155">
        <ele>544</ele>
        <time>2012-04-20T10:24:11.000Z</time>
      </trkpt>
      <trkpt lat="43.74978" lon="7.14158">
        <ele>539</ele>
        <time>2012-04-20T10:24:11.000Z</time>
      </trkpt>
      <trkpt lat="43.74948" lon="7.1416">
        <ele>538</ele>
        <time>2012-04-20T12:12:09.000Z</time>
      </trkpt>
      <trkpt lat="43.74944" lon="7.14163">
        <ele>539</ele>
        <time>2012-04-20T10:24:11.000Z</time>
      </trkpt>
      <trkpt lat="43.74944" lon="7.14163">
        <ele>539</ele>
        <time>2012-04-20T10:24:11.000Z</time>
      </trkpt>
      <trkpt lat="43.74944" lon="7.14163">
        <ele>539</ele>
        <time>2012-04-20T10:30:46.000Z</time>
      </trkpt>
      <trkpt lat="43.74934" lon="7.14185">
        <ele>532</ele>
        <time>2012-04-20T12:13:09.000Z</time>
      </trkpt>
      <trkpt lat="43.74931" lon="7.14191">
        <ele>528</ele>
        <time>2012-04-20T12:13:17.000Z</time>
      </trkpt>
      <trkpt lat="43.74927" lon="7.14194">
        <ele>536</ele>
        <time>2012-04-20T12:13:25.000Z</time>
      </trkpt>
      <trkpt lat="43.74923" lon="7.14196">
        <ele>536</ele>
        <time>2012-04-20T10:30:46.000Z</time>
      </trkpt>
      <trkpt lat="43.74916" lon="7.14197">
        <ele>527</ele>
        <time>2012-04-20T12:14:09.000Z</time>
      </trkpt>
      <trkpt lat="43.74917" lon="7.14203">
        <ele>517</ele>
        <time>2012-04-20T12:15:06.000Z</time>
      </trkpt>
      <trkpt lat="43.74921" lon="7.14207">
        <ele>524</ele>
        <time>2012-04-20T12:15:09.000Z</time>
      </trkpt>
      <trkpt lat="43.74926" lon="7.14203">
        <ele>535</ele>
        <time>2012-04-20T12:15:36.000Z</time>
      </trkpt>
      <trkpt lat="43.74921" lon="7.14205">
        <ele>526</ele>
        <time>2012-04-20T10:24:11.000Z</time>
      </trkpt>
      <trkpt lat="43.74917" lon="7.14207">
        <ele>521</ele>
        <time>2012-04-20T10:24:11.000Z</time>
      </trkpt>
      <trkpt lat="43.74913" lon="7.14209">
        <ele>527</ele>
        <time>2012-04-20T10:24:11.000Z</time>
      </trkpt>
      <trkpt lat="43.74908" lon="7.14206">
        <ele>533</ele>
        <time>2012-04-20T12:16:09.000Z</time>
      </trkpt>
      <trkpt lat="43.74903" lon="7.14208">
        <ele>528</ele>
        <time>2012-04-20T12:16:16.000Z</time>
      </trkpt>
      <trkpt lat="43.74899" lon="7.14212">
        <ele>523</ele>
        <time>2012-04-20T10:24:11.000Z</time>
      </trkpt>
      <trkpt lat="43.74898" lon="7.14218">
        <ele>522</ele>
        <time>2012-04-20T10:24:11.000Z</time>
      </trkpt>
      <trkpt lat="43.74898" lon="7.14224">
        <ele>520</ele>
        <time>2012-04-20T10:24:11.000Z</time>
      </trkpt>
      <trkpt lat="43.74895" lon="7.14228">
        <ele>517</ele>
        <time>2012-04-20T10:24:11.000Z</time>
      </trkpt>
      <trkpt lat="43.7489" lon="7.1423">
        <ele>515</ele>
        <time>2012-04-20T12:17:28.000Z</time>
      </trkpt>
      <trkpt lat="43.74885" lon="7.14229">
        <ele>512</ele>
        <time>2012-04-20T12:17:38.000Z</time>
      </trkpt>
      <trkpt lat="43.7488" lon="7.1423">
        <ele>512</ele>
        <time>2012-04-20T12:17:45.000Z</time>
      </trkpt>
      <trkpt lat="43.74876" lon="7.14232">
        <ele>513</ele>
        <time>2012-04-20T12:18:05.000Z</time>
      </trkpt>
      <trkpt lat="43.74863" lon="7.14233">
        <ele>513</ele>
        <time>2012-04-20T12:18:09.000Z</time>
      </trkpt>
      <trkpt lat="43.74858" lon="7.14233">
        <ele>511</ele>
        <time>2012-04-20T12:18:16.000Z</time>
      </trkpt>
      <trkpt lat="43.74853" lon="7.14233">
        <ele>507</ele>
        <time>2012-04-20T10:24:11.000Z</time>
      </trkpt>
      <trkpt lat="43.74848" lon="7.14233">
        <ele>504</ele>
        <time>2012-04-20T10:24:11.000Z</time>
      </trkpt>
      <trkpt lat="43.74844" lon="7.14234">
        <ele>505</ele>
        <time>2012-04-20T12:18:56.000Z</time>
      </trkpt>
      <trkpt lat="43.74839" lon="7.14236">
        <ele>502</ele>
        <time>2012-04-20T10:24:11.000Z</time>
      </trkpt>
      <trkpt lat="43.74822" lon="7.14238">
        <ele>506</ele>
        <time>2012-04-20T12:19:10.000Z</time>
      </trkpt>
      <trkpt lat="43.74817" lon="7.14239">
        <ele>508</ele>
        <time>2012-04-20T12:19:16.000Z</time>
      </trkpt>
      <trkpt lat="43.74812" lon="7.1424">
        <ele>510</ele>
        <time>2012-04-20T10:24:11.000Z</time>
      </trkpt>
      <trkpt lat="43.74808" lon="7.1424">
        <ele>504</ele>
        <time>2012-04-20T12:19:57.000Z</time>
      </trkpt>
      <trkpt lat="43.74803" lon="7.1424">
        <ele>502</ele>
        <time>2012-04-20T12:20:04.000Z</time>
      </trkpt>
      <trkpt lat="43.74791" lon="7.1424">
        <ele>503</ele>
        <time>2012-04-20T12:20:10.000Z</time>
      </trkpt>
      <trkpt lat="43.74787" lon="7.14243">
        <ele>501</ele>
        <time>2012-04-20T12:20:15.000Z</time>
      </trkpt>
      <trkpt lat="43.74783" lon="7.14246">
        <ele>496</ele>
        <time>2012-04-20T12:20:28.000Z</time>
      </trkpt>
      <trkpt lat="43.74779" lon="7.1425">
        <ele>499</ele>
        <time>2012-04-20T10:24:11.000Z</time>
      </trkpt>
      <trkpt lat="43.74774" lon="7.14254">
        <ele>504</ele>
        <time>2012-04-20T10:24:11.000Z</time>
      </trkpt>
      <trkpt lat="43.7477" lon="7.14258">
        <ele>497</ele>
        <time>2012-04-20T12:21:08.000Z</time>
      </trkpt>
      <trkpt lat="43.7476" lon="7.14264">
        <ele>498</ele>
        <time>2012-04-20T12:21:10.000Z</time>
      </trkpt>
      <trkpt lat="43.74757" lon="7.1426">
        <ele>499</ele>
        <time>2012-04-20T12:21:16.000Z</time>
      </trkpt>
      <trkpt lat="43.74754" lon="7.14254">
        <ele>500</ele>
        <time>2012-04-20T12:21:24.000Z</time>
      </trkpt>
      <trkpt lat="43.7475" lon="7.1425">
        <ele>507</ele>
        <time>2012-04-20T12:22:24.000Z</time>
      </trkpt>
      <trkpt lat="43.74753" lon="7.14244">
        <ele>486</ele>
        <time>2012-04-20T12:22:57.000Z</time>
      </trkpt>
      <trkpt lat="43.74756" lon="7.14249">
        <ele>493</ele>
        <time>2012-04-20T12:23:26.000Z</time>
      </trkpt>
      <trkpt lat="43.74758" lon="7.14255">
        <ele>492</ele>
        <time>2012-04-20T10:30:46.000Z</time>
      </trkpt>
      <trkpt lat="43.74761" lon="7.1426">
        <ele>495</ele>
        <time>2012-04-20T12:23:39.000Z</time>
      </trkpt>
      <trkpt lat="43.74774" lon="7.14272">
        <ele>495</ele>
        <time>2012-04-20T12:24:10.000Z</time>
      </trkpt>
      <trkpt lat="43.74774" lon="7.14272">
        <ele>495</ele>
        <time>2012-04-20T12:24:10.000Z</time>
      </trkpt>
      <trkpt lat="43.74774" lon="7.14272">
        <ele>496</ele>
        <time>2012-04-20T12:24:14.000Z</time>
      </trkpt>
      <trkpt lat="43.74777" lon="7.14276">
        <ele>499</ele>
        <time>2012-04-20T12:25:15.000Z</time>
      </trkpt>
      <trkpt lat="43.74777" lon="7.14276">
        <ele>499</ele>
        <time>2012-04-20T12:25:15.000Z</time>
      </trkpt>
      <trkpt lat="43.74777" lon="7.14276">
        <ele>498</ele>
        <time>2012-04-20T12:25:21.000Z</time>
      </trkpt>
      <trkpt lat="43.7478" lon="7.14281">
        <ele>495</ele>
        <time>2012-04-20T12:25:31.000Z</time>
      </trkpt>
      <trkpt lat="43.74783" lon="7.14285">
        <ele>483</ele>
        <time>2012-04-20T10:24:11.000Z</time>
      </trkpt>
      <trkpt lat="43.74785" lon="7.1429">
        <ele>494</ele>
        <time>2012-04-20T10:24:11.000Z</time>
      </trkpt>
      <trkpt lat="43.74787" lon="7.14296">
        <ele>484</ele>
        <time>2012-04-20T12:26:32.000Z</time>
      </trkpt>
      <trkpt lat="43.74787" lon="7.14296">
        <ele>484</ele>
        <time>2012-04-20T12:26:32.000Z</time>
      </trkpt>
      <trkpt lat="43.74787" lon="7.14296">
        <ele>484</ele>
        <time>2012-04-20T10:30:46.000Z</time>
      </trkpt>
      <trkpt lat="43.74786" lon="7.14302">
        <ele>492</ele>
        <time>2012-04-20T12:26:50.000Z</time>
      </trkpt>
      <trkpt lat="43.74786" lon="7.14302">
        <ele>492</ele>
        <time>2012-04-20T12:26:50.000Z</time>
      </trkpt>
      <trkpt lat="43.74786" lon="7.14302">
        <ele>492</ele>
        <time>2012-04-20T10:30:46.000Z</time>
      </trkpt>
      <trkpt lat="43.74791" lon="7.14337">
        <ele>502</ele>
        <time>2012-04-20T12:27:10.000Z</time>
      </trkpt>
      <trkpt lat="43.74787" lon="7.14334">
        <ele>506</ele>
        <time>2012-04-20T10:24:11.000Z</time>
      </trkpt>
      <trkpt lat="43.74784" lon="7.14331">
        <ele>499</ele>
        <time>2012-04-20T12:28:13.000Z</time>
      </trkpt>
      <trkpt lat="43.74784" lon="7.14331">
        <ele>499</ele>
        <time>2012-04-20T12:28:13.000Z</time>
      </trkpt>
      <trkpt lat="43.74784" lon="7.14331">
        <ele>495</ele>
        <time>2012-04-20T12:28:27.000Z</time>
      </trkpt>
      <trkpt lat="43.74782" lon="7.1433">
        <ele>493</ele>
        <time>2012-04-20T12:29:05.000Z</time>
      </trkpt>
      <trkpt lat="43.74778" lon="7.14334">
        <ele>501</ele>
        <time>2012-04-20T12:29:28.000Z</time>
      </trkpt>
      <trkpt lat="43.74774" lon="7.14337">
        <ele>491</ele>
        <time>2012-04-20T10:24:11.000Z</time>
      </trkpt>
      <trkpt lat="43.7477" lon="7.14339">
        <ele>494</ele>
        <time>2012-04-20T10:24:11.000Z</time>
      </trkpt>
      <trkpt lat="43.74765" lon="7.14341">
        <ele>495</ele>
        <time>2012-04-20T12:29:54.000Z</time>
      </trkpt>
      <trkpt lat="43.74761" lon="7.14344">
        <ele>492</ele>
        <time>2012-04-20T12:30:01.000Z</time>
      </trkpt>
      <trkpt lat="43.74756" lon="7.14345">
        <ele>509</ele>
        <time>2012-04-20T10:24:11.000Z</time>
      </trkpt>
      <trkpt lat="43.74752" lon="7.14348">
        <ele>499</ele>
        <time>2012-04-20T10:24:11.000Z</time>
      </trkpt>
      <trkpt lat="43.74737" lon="7.1436">
        <ele>498</ele>
        <time>2012-04-20T12:31:10.000Z</time>
      </trkpt>
      <trkpt lat="43.74734" lon="7.14353">
        <ele>499</ele>
        <time>2012-04-20T12:31:22.000Z</time>
      </trkpt>
      <trkpt lat="43.74733" lon="7.14347">
        <ele>498</ele>
        <time>2012-04-20T12:31:30.000Z</time>
      </trkpt>
      <trkpt lat="43.74729" lon="7.14342">
        <ele>496</ele>
        <time>2012-04-20T12:31:36.000Z</time>
      </trkpt>
      <trkpt lat="43.74724" lon="7.14342">
        <ele>482</ele>
        <time>2012-04-20T12:31:50.000Z</time>
      </trkpt>
      <trkpt lat="43.74711" lon="7.14336">
        <ele>488</ele>
        <time>2012-04-20T12:32:10.000Z</time>
      </trkpt>
      <trkpt lat="43.74707" lon="7.14342">
        <ele>488</ele>
        <time>2012-04-20T12:32:20.000Z</time>
      </trkpt>
      <trkpt lat="43.74709" lon="7.14337">
        <ele>468</ele>
        <time>2012-04-20T12:32:45.000Z</time>
      </trkpt>
      <trkpt lat="43.74709" lon="7.14337">
        <ele>468</ele>
        <time>2012-04-20T12:32:45.000Z</time>
      </trkpt>
      <trkpt lat="43.74709" lon="7.14337">
        <ele>469</ele>
        <time>2012-04-20T12:32:46.000Z</time>
      </trkpt>
      <trkpt lat="43.74709" lon="7.14336">
        <ele>460</ele>
        <time>2012-04-20T12:32:50.000Z</time>
      </trkpt>
      <trkpt lat="43.74713" lon="7.14338">
        <ele>476</ele>
        <time>2012-04-20T10:24:11.000Z</time>
      </trkpt>
      <trkpt lat="43.74717" lon="7.14342">
        <ele>495</ele>
        <time>2012-04-20T10:24:11.000Z</time>
      </trkpt>
      <trkpt lat="43.7472" lon="7.14346">
        <ele>493</ele>
        <time>2012-04-20T12:33:43.000Z</time>
      </trkpt>
      <trkpt lat="43.74725" lon="7.14349">
        <ele>502</ele>
        <time>2012-04-20T12:33:47.000Z</time>
      </trkpt>
      <trkpt lat="43.74729" lon="7.14351">
        <ele>502</ele>
        <time>2012-04-20T10:24:11.000Z</time>
      </trkpt>
      <trkpt lat="43.74732" lon="7.14347">
        <ele>502</ele>
        <time>2012-04-20T10:24:11.000Z</time>
      </trkpt>
      <trkpt lat="43.74735" lon="7.14342">
        <ele>506</ele>
        <time>2012-04-20T12:34:51.000Z</time>
      </trkpt>
      <trkpt lat="43.74765" lon="7.14335">
        <ele>476</ele>
        <time>2012-04-20T12:35:11.000Z</time>
      </trkpt>
      <trkpt lat="43.7477" lon="7.14335">
        <ele>480</ele>
        <time>2012-04-20T10:24:11.000Z</time>
      </trkpt>
      <trkpt lat="43.74776" lon="7.14336">
        <ele>471</ele>
        <time>2012-04-20T12:35:25.000Z</time>
      </trkpt>
      <trkpt lat="43.74781" lon="7.14338">
        <ele>473</ele>
        <time>2012-04-20T12:35:32.000Z</time>
      </trkpt>
      <trkpt lat="43.74785" lon="7.14337">
        <ele>476</ele>
        <time>2012-04-20T12:35:50.000Z</time>
      </trkpt>
      <trkpt lat="43.7479" lon="7.14337">
        <ele>481</ele>
        <time>2012-04-20T12:36:09.000Z</time>
      </trkpt>
      <trkpt lat="43.7479" lon="7.14337">
        <ele>481</ele>
        <time>2012-04-20T12:36:09.000Z</time>
      </trkpt>
      <trkpt lat="43.7479" lon="7.14337">
        <ele>481</ele>
        <time>2012-04-20T10:30:46.000Z</time>
      </trkpt>
      <trkpt lat="43.74799" lon="7.14342">
        <ele>491</ele>
        <time>2012-04-20T12:36:11.000Z</time>
      </trkpt>
      <trkpt lat="43.74801" lon="7.14348">
        <ele>489</ele>
        <time>2012-04-20T10:30:46.000Z</time>
      </trkpt>
      <trkpt lat="43.74806" lon="7.14351">
        <ele>480</ele>
        <time>2012-04-20T10:24:11.000Z</time>
      </trkpt>
      <trkpt lat="43.7481" lon="7.14354">
        <ele>479</ele>
        <time>2012-04-20T12:36:46.000Z</time>
      </trkpt>
      <trkpt lat="43.74816" lon="7.14356">
        <ele>476</ele>
        <time>2012-04-20T12:37:11.000Z</time>
      </trkpt>
      <trkpt lat="43.74821" lon="7.14357">
        <ele>446</ele>
        <time>2012-04-20T12:37:21.000Z</time>
      </trkpt>
      <trkpt lat="43.74826" lon="7.14357">
        <ele>468</ele>
        <time>2012-04-20T12:37:25.000Z</time>
      </trkpt>
      <trkpt lat="43.74831" lon="7.14361">
        <ele>470</ele>
        <time>2012-04-20T12:37:32.000Z</time>
      </trkpt>
      <trkpt lat="43.74835" lon="7.14364">
        <ele>480</ele>
        <time>2012-04-20T12:37:36.000Z</time>
      </trkpt>
      <trkpt lat="43.74839" lon="7.14368">
        <ele>483</ele>
        <time>2012-04-20T12:37:40.000Z</time>
      </trkpt>
      <trkpt lat="43.74843" lon="7.14371">
        <ele>475</ele>
        <time>2012-04-20T10:24:11.000Z</time>
      </trkpt>
      <trkpt lat="43.74848" lon="7.14375">
        <ele>468</ele>
        <time>2012-04-20T12:38:11.000Z</time>
      </trkpt>
      <trkpt lat="43.74852" lon="7.14374">
        <ele>469</ele>
        <time>2012-04-20T10:24:11.000Z</time>
      </trkpt>
      <trkpt lat="43.74857" lon="7.14374">
        <ele>482</ele>
        <time>2012-04-20T12:39:28.000Z</time>
      </trkpt>
      <trkpt lat="43.74857" lon="7.14374">
        <ele>483</ele>
        <time>2012-04-20T12:39:33.000Z</time>
      </trkpt>
      <trkpt lat="43.74857" lon="7.14374">
        <ele>483</ele>
        <time>2012-04-20T12:39:33.000Z</time>
      </trkpt>
      <trkpt lat="43.74857" lon="7.14374">
        <ele>469</ele>
        <time>2012-04-20T12:39:41.000Z</time>
      </trkpt>
      <trkpt lat="43.74873" lon="7.14383">
        <ele>454</ele>
        <time>2012-04-20T12:41:14.603Z</time>
      </trkpt>
      <trkpt lat="43.74873" lon="7.14383">
        <ele>454</ele>
        <time>2012-04-20T12:41:14.603Z</time>
      </trkpt>
      <trkpt lat="43.74873" lon="7.14383">
        <ele>454</ele>
        <time>2012-04-20T12:41:20.000Z</time>
      </trkpt>
      <trkpt lat="43.74879" lon="7.14384">
        <ele>456</ele>
        <time>2012-04-20T12:41:21.000Z</time>
      </trkpt>
      <trkpt lat="43.74879" lon="7.14384">
        <ele>456</ele>
        <time>2012-04-20T12:41:21.000Z</time>
      </trkpt>
      <trkpt lat="43.74879" lon="7.14384">
        <ele>456</ele>
        <time>2012-04-20T12:41:42.000Z</time>
      </trkpt>
      <trkpt lat="43.74876" lon="7.14378">
        <ele>490</ele>
        <time>2012-04-20T12:43:27.000Z</time>
      </trkpt>
      <trkpt lat="43.7487" lon="7.14378">
        <ele>488</ele>
        <time>2012-04-20T12:43:36.000Z</time>
      </trkpt>
    </trkseg>
  </trk>
</gpx>